<?xml version='1.0' encoding='UTF-8'?><gpx version="1.1" creator="JPX - https://github.com/jenetics/jpx" xmlns="http://www.topografix.com/GPX/1/1"><trk><trkseg><trkpt lat="45.3892544" lon="10.7983217"><ele>107.0</ele><time>2026-05-03T15:45:43.121Z</time></trkpt><trkpt lat="45.3893588" lon="10.7983935"><ele>107.0</ele><time>2026-05-03T15:50:56.045Z</time></trkpt><trkpt lat="45.3894454" lon="10.7984443"><ele>107.0</ele><time>2026-05-03T15:50:58.085Z</time></trkpt><trkpt lat="45.3895633" lon="10.7986091"><ele>107.0</ele><time>2026-05-03T15:51:03.045Z</time></trkpt><trkpt lat="45.3895193" lon="10.7987636"><ele>107.66666666666666</ele><time>2026-05-03T15:51:05.012Z</time></trkpt><trkpt lat="45.3894755" lon="10.7988622"><ele>108.33333333333333</ele><time>2026-05-03T15:51:06.011Z</time></trkpt><trkpt lat="45.3894337" lon="10.7989722"><ele>109.0</ele><time>2026-05-03T15:51:07Z</time></trkpt><trkpt lat="45.3894019" lon="10.7990611"><ele>109.66666666666666</ele><time>2026-05-03T15:51:08.007Z</time></trkpt><trkpt lat="45.3893829" lon="10.7991574"><ele>110.33333333333333</ele><time>2026-05-03T15:51:10.019Z</time></trkpt><trkpt lat="45.3894224" lon="10.7992944"><ele>111.0</ele><time>2026-05-03T15:51:15.01Z</time></trkpt><trkpt lat="45.3895353" lon="10.7993676"><ele>111.19999999999999</ele><time>2026-05-03T15:51:17.021Z</time></trkpt><trkpt lat="45.3896145" lon="10.7994203"><ele>111.39999999999999</ele><time>2026-05-03T15:51:18.009Z</time></trkpt><trkpt lat="45.3896982" lon="10.7994769"><ele>111.6</ele><time>2026-05-03T15:51:19.017Z</time></trkpt><trkpt lat="45.3897854" lon="10.7995367"><ele>111.8</ele><time>2026-05-03T15:51:20.032Z</time></trkpt><trkpt lat="45.3898755" lon="10.7996043"><ele>112.0</ele><time>2026-05-03T15:51:21.022Z</time></trkpt><trkpt lat="45.3899637" lon="10.7996986"><ele>112.0</ele><time>2026-05-03T15:51:22.016Z</time></trkpt><trkpt lat="45.3900459" lon="10.7998158"><ele>112.0</ele><time>2026-05-03T15:51:23.016Z</time></trkpt><trkpt lat="45.3901238" lon="10.7999356"><ele>112.0</ele><time>2026-05-03T15:51:24.006Z</time></trkpt><trkpt lat="45.3902102" lon="10.8000548"><ele>112.0</ele><time>2026-05-03T15:51:25.013Z</time></trkpt><trkpt lat="45.3902972" lon="10.8001705"><ele>111.5</ele><time>2026-05-03T15:51:26.026Z</time></trkpt><trkpt lat="45.3903834" lon="10.8002882"><ele>111.0</ele><time>2026-05-03T15:51:27.031Z</time></trkpt><trkpt lat="45.3904746" lon="10.8003999"><ele>110.5</ele><time>2026-05-03T15:51:28.028Z</time></trkpt><trkpt lat="45.3905738" lon="10.8005005"><ele>110.0</ele><time>2026-05-03T15:51:29.012Z</time></trkpt><trkpt lat="45.3906785" lon="10.8005924"><ele>110.0</ele><time>2026-05-03T15:51:30.022Z</time></trkpt><trkpt lat="45.3907843" lon="10.8006666"><ele>110.0</ele><time>2026-05-03T15:51:31.024Z</time></trkpt><trkpt lat="45.3908878" lon="10.8007169"><ele>110.0</ele><time>2026-05-03T15:51:32.017Z</time></trkpt><trkpt lat="45.39099" lon="10.8007469"><ele>110.0</ele><time>2026-05-03T15:51:33.017Z</time></trkpt><trkpt lat="45.3910925" lon="10.8007629"><ele>110.0</ele><time>2026-05-03T15:51:34.015Z</time></trkpt><trkpt lat="45.3911945" lon="10.8007704"><ele>110.0</ele><time>2026-05-03T15:51:35.016Z</time></trkpt><trkpt lat="45.3912966" lon="10.800773"><ele>110.0</ele><time>2026-05-03T15:51:36.017Z</time></trkpt><trkpt lat="45.3913951" lon="10.8007802"><ele>110.0</ele><time>2026-05-03T15:51:37.012Z</time></trkpt><trkpt lat="45.3914927" lon="10.800792"><ele>110.0</ele><time>2026-05-03T15:51:38.02Z</time></trkpt><trkpt lat="45.3915949" lon="10.8008434"><ele>110.0</ele><time>2026-05-03T15:51:39.039Z</time></trkpt><trkpt lat="45.3916878" lon="10.8009124"><ele>109.83333333333333</ele><time>2026-05-03T15:51:40.012Z</time></trkpt><trkpt lat="45.3917727" lon="10.8009861"><ele>109.66666666666666</ele><time>2026-05-03T15:51:41.009Z</time></trkpt><trkpt lat="45.3918454" lon="10.8010769"><ele>109.5</ele><time>2026-05-03T15:51:42.027Z</time></trkpt><trkpt lat="45.3919031" lon="10.8011768"><ele>109.33333333333334</ele><time>2026-05-03T15:51:43.012Z</time></trkpt><trkpt lat="45.3919529" lon="10.8012675"><ele>109.16666666666667</ele><time>2026-05-03T15:51:44.012Z</time></trkpt><trkpt lat="45.39199" lon="10.8013412"><ele>109.0</ele><time>2026-05-03T15:51:45.025Z</time></trkpt><trkpt lat="45.3920397" lon="10.8014304"><ele>108.5</ele><time>2026-05-03T15:51:47.031Z</time></trkpt><trkpt lat="45.3921638" lon="10.8012353"><ele>108.0</ele><time>2026-05-03T15:51:56.012Z</time></trkpt><trkpt lat="45.3921965" lon="10.8010917"><ele>107.5</ele><time>2026-05-03T15:51:57.008Z</time></trkpt><trkpt lat="45.3922266" lon="10.8009471"><ele>107.0</ele><time>2026-05-03T15:51:58.011Z</time></trkpt><trkpt lat="45.392257" lon="10.8007965"><ele>106.25</ele><time>2026-05-03T15:51:59.008Z</time></trkpt><trkpt lat="45.39229" lon="10.8006393"><ele>105.5</ele><time>2026-05-03T15:52:00.02Z</time></trkpt><trkpt lat="45.3923227" lon="10.8004764"><ele>104.75</ele><time>2026-05-03T15:52:01.014Z</time></trkpt><trkpt lat="45.3923538" lon="10.8003092"><ele>104.0</ele><time>2026-05-03T15:52:02.012Z</time></trkpt><trkpt lat="45.3923852" lon="10.8001405"><ele>104.0</ele><time>2026-05-03T15:52:03.032Z</time></trkpt><trkpt lat="45.3924162" lon="10.7999773"><ele>104.0</ele><time>2026-05-03T15:52:04.015Z</time></trkpt><trkpt lat="45.3924477" lon="10.7998152"><ele>104.0</ele><time>2026-05-03T15:52:05.02Z</time></trkpt><trkpt lat="45.3924787" lon="10.799656"><ele>104.0</ele><time>2026-05-03T15:52:06.025Z</time></trkpt><trkpt lat="45.3925072" lon="10.7994998"><ele>104.0</ele><time>2026-05-03T15:52:07.02Z</time></trkpt><trkpt lat="45.3925337" lon="10.7993455"><ele>104.0</ele><time>2026-05-03T15:52:08.025Z</time></trkpt><trkpt lat="45.3925594" lon="10.7992004"><ele>104.0</ele><time>2026-05-03T15:52:09.011Z</time></trkpt><trkpt lat="45.3925844" lon="10.7990642"><ele>104.0</ele><time>2026-05-03T15:52:10.013Z</time></trkpt><trkpt lat="45.3926087" lon="10.7989352"><ele>104.0</ele><time>2026-05-03T15:52:11.013Z</time></trkpt><trkpt lat="45.392639" lon="10.798818"><ele>103.6</ele><time>2026-05-03T15:52:12.012Z</time></trkpt><trkpt lat="45.3926864" lon="10.7987223"><ele>103.2</ele><time>2026-05-03T15:52:13.016Z</time></trkpt><trkpt lat="45.3927556" lon="10.7986587"><ele>102.8</ele><time>2026-05-03T15:52:14.012Z</time></trkpt><trkpt lat="45.3928436" lon="10.7986351"><ele>102.39999999999999</ele><time>2026-05-03T15:52:15.01Z</time></trkpt><trkpt lat="45.392944" lon="10.7986483"><ele>102.0</ele><time>2026-05-03T15:52:16.043Z</time></trkpt><trkpt lat="45.3930497" lon="10.7986986"><ele>101.5</ele><time>2026-05-03T15:52:17.026Z</time></trkpt><trkpt lat="45.3931636" lon="10.7987523"><ele>101.0</ele><time>2026-05-03T15:52:18.011Z</time></trkpt><trkpt lat="45.3932854" lon="10.7988023"><ele>100.5</ele><time>2026-05-03T15:52:19.022Z</time></trkpt><trkpt lat="45.3934114" lon="10.7988514"><ele>100.0</ele><time>2026-05-03T15:52:20.018Z</time></trkpt><trkpt lat="45.3935406" lon="10.7989017"><ele>100.0</ele><time>2026-05-03T15:52:21.008Z</time></trkpt><trkpt lat="45.3936739" lon="10.7989539"><ele>100.0</ele><time>2026-05-03T15:52:22.021Z</time></trkpt><trkpt lat="45.3938073" lon="10.799007"><ele>100.0</ele><time>2026-05-03T15:52:23.016Z</time></trkpt><trkpt lat="45.3939422" lon="10.7990606"><ele>100.0</ele><time>2026-05-03T15:52:24.023Z</time></trkpt><trkpt lat="45.3940774" lon="10.799114"><ele>100.0</ele><time>2026-05-03T15:52:25.029Z</time></trkpt><trkpt lat="45.3942116" lon="10.799167"><ele>100.0</ele><time>2026-05-03T15:52:26.017Z</time></trkpt><trkpt lat="45.3943463" lon="10.7992202"><ele>100.0</ele><time>2026-05-03T15:52:27.018Z</time></trkpt><trkpt lat="45.3944799" lon="10.7992723"><ele>100.0</ele><time>2026-05-03T15:52:28.021Z</time></trkpt><trkpt lat="45.3946123" lon="10.7993226"><ele>100.5</ele><time>2026-05-03T15:52:29.014Z</time></trkpt><trkpt lat="45.3947453" lon="10.7993682"><ele>101.0</ele><time>2026-05-03T15:52:30.015Z</time></trkpt><trkpt lat="45.3948774" lon="10.7994074"><ele>101.5</ele><time>2026-05-03T15:52:31.017Z</time></trkpt><trkpt lat="45.3950081" lon="10.7994402"><ele>102.0</ele><time>2026-05-03T15:52:32.018Z</time></trkpt><trkpt lat="45.3951355" lon="10.7994695"><ele>102.0</ele><time>2026-05-03T15:52:33.02Z</time></trkpt><trkpt lat="45.3952555" lon="10.7994962"><ele>102.0</ele><time>2026-05-03T15:52:34.017Z</time></trkpt><trkpt lat="45.3953674" lon="10.7995203"><ele>102.0</ele><time>2026-05-03T15:52:35.02Z</time></trkpt><trkpt lat="45.3954699" lon="10.7995413"><ele>102.0</ele><time>2026-05-03T15:52:36.041Z</time></trkpt><trkpt lat="45.3955574" lon="10.799559"><ele>102.0</ele><time>2026-05-03T15:52:37.014Z</time></trkpt><trkpt lat="45.3956302" lon="10.7995738"><ele>102.16666666666667</ele><time>2026-05-03T15:52:38.015Z</time></trkpt><trkpt lat="45.3957235" lon="10.7995918"><ele>102.33333333333334</ele><time>2026-05-03T15:52:40.014Z</time></trkpt><trkpt lat="45.3957941" lon="10.7995948"><ele>102.5</ele><time>2026-05-03T15:52:44.031Z</time></trkpt><trkpt lat="45.3958316" lon="10.7994458"><ele>102.66666666666667</ele><time>2026-05-03T15:52:47.016Z</time></trkpt><trkpt lat="45.3958125" lon="10.7993402"><ele>102.83333333333334</ele><time>2026-05-03T15:52:48.013Z</time></trkpt><trkpt lat="45.3957973" lon="10.7992118"><ele>103.0</ele><time>2026-05-03T15:52:49.011Z</time></trkpt><trkpt lat="45.3957872" lon="10.7990819"><ele>102.60000000000001</ele><time>2026-05-03T15:52:50.012Z</time></trkpt><trkpt lat="45.3957801" lon="10.7989423"><ele>102.2</ele><time>2026-05-03T15:52:51.015Z</time></trkpt><trkpt lat="45.3957764" lon="10.7987976"><ele>101.8</ele><time>2026-05-03T15:52:52.01Z</time></trkpt><trkpt lat="45.3957729" lon="10.7986603"><ele>101.4</ele><time>2026-05-03T15:52:53.017Z</time></trkpt><trkpt lat="45.3957689" lon="10.7985413"><ele>101.0</ele><time>2026-05-03T15:52:54.016Z</time></trkpt><trkpt lat="45.3957613" lon="10.7984194"><ele>100.6</ele><time>2026-05-03T15:52:55.012Z</time></trkpt><trkpt lat="45.3957518" lon="10.7982834"><ele>100.19999999999999</ele><time>2026-05-03T15:52:56.019Z</time></trkpt><trkpt lat="45.3957392" lon="10.7981452"><ele>99.80000000000001</ele><time>2026-05-03T15:52:57.02Z</time></trkpt><trkpt lat="45.3957303" lon="10.798011"><ele>99.4</ele><time>2026-05-03T15:52:58.01Z</time></trkpt><trkpt lat="45.3957272" lon="10.7978796"><ele>99.0</ele><time>2026-05-03T15:52:59.028Z</time></trkpt><trkpt lat="45.3957166" lon="10.7977551"><ele>99.2</ele><time>2026-05-03T15:53:00.021Z</time></trkpt><trkpt lat="45.3957017" lon="10.7976319"><ele>99.4</ele><time>2026-05-03T15:53:01.014Z</time></trkpt><trkpt lat="45.3956866" lon="10.7975016"><ele>99.6</ele><time>2026-05-03T15:53:02.022Z</time></trkpt><trkpt lat="45.3956767" lon="10.7973657"><ele>99.8</ele><time>2026-05-03T15:53:03.025Z</time></trkpt><trkpt lat="45.3956851" lon="10.7972363"><ele>100.0</ele><time>2026-05-03T15:53:04.009Z</time></trkpt><trkpt lat="45.3957143" lon="10.7971079"><ele>100.0</ele><time>2026-05-03T15:53:05.031Z</time></trkpt><trkpt lat="45.3957573" lon="10.7969846"><ele>100.0</ele><time>2026-05-03T15:53:06.034Z</time></trkpt><trkpt lat="45.3957973" lon="10.7968608"><ele>100.0</ele><time>2026-05-03T15:53:07.009Z</time></trkpt><trkpt lat="45.3958367" lon="10.7967328"><ele>100.0</ele><time>2026-05-03T15:53:08.045Z</time></trkpt><trkpt lat="45.3958721" lon="10.7966038"><ele>100.0</ele><time>2026-05-03T15:53:09.019Z</time></trkpt><trkpt lat="45.3959097" lon="10.7964745"><ele>100.33333333333334</ele><time>2026-05-03T15:53:10.021Z</time></trkpt><trkpt lat="45.3959473" lon="10.7963466"><ele>100.66666666666667</ele><time>2026-05-03T15:53:11.024Z</time></trkpt><trkpt lat="45.395983" lon="10.7962271"><ele>101.0</ele><time>2026-05-03T15:53:12.021Z</time></trkpt><trkpt lat="45.3960141" lon="10.7961168"><ele>101.33333333333334</ele><time>2026-05-03T15:53:13.011Z</time></trkpt><trkpt lat="45.3960425" lon="10.7960129"><ele>101.66666666666667</ele><time>2026-05-03T15:53:14.036Z</time></trkpt><trkpt lat="45.3960698" lon="10.7959218"><ele>102.0</ele><time>2026-05-03T15:53:15.015Z</time></trkpt><trkpt lat="45.3961035" lon="10.7958323"><ele>102.16666666666667</ele><time>2026-05-03T15:53:16.015Z</time></trkpt><trkpt lat="45.3961484" lon="10.7957428"><ele>102.33333333333334</ele><time>2026-05-03T15:53:17.019Z</time></trkpt><trkpt lat="45.3962141" lon="10.7956688"><ele>102.5</ele><time>2026-05-03T15:53:18.031Z</time></trkpt><trkpt lat="45.396293" lon="10.7956111"><ele>102.66666666666667</ele><time>2026-05-03T15:53:19.024Z</time></trkpt><trkpt lat="45.3963699" lon="10.7955521"><ele>102.83333333333334</ele><time>2026-05-03T15:53:20.015Z</time></trkpt><trkpt lat="45.3964402" lon="10.7954924"><ele>103.0</ele><time>2026-05-03T15:53:21.009Z</time></trkpt><trkpt lat="45.396484" lon="10.7954081"><ele>103.00000000000001</ele><time>2026-05-03T15:53:22.045Z</time></trkpt><trkpt lat="45.396499" lon="10.7953091"><ele>103.0</ele><time>2026-05-03T15:53:23.023Z</time></trkpt><trkpt lat="45.3964985" lon="10.7951923"><ele>103.0</ele><time>2026-05-03T15:53:24.01Z</time></trkpt><trkpt lat="45.3964969" lon="10.7950586"><ele>103.0</ele><time>2026-05-03T15:53:25.014Z</time></trkpt><trkpt lat="45.3964985" lon="10.7949242"><ele>103.00000000000001</ele><time>2026-05-03T15:53:26.017Z</time></trkpt><trkpt lat="45.3965029" lon="10.7947913"><ele>103.0</ele><time>2026-05-03T15:53:27.013Z</time></trkpt><trkpt lat="45.3965091" lon="10.794656"><ele>103.0</ele><time>2026-05-03T15:53:28.016Z</time></trkpt><trkpt lat="45.3965114" lon="10.7945157"><ele>103.0</ele><time>2026-05-03T15:53:29.02Z</time></trkpt><trkpt lat="45.3965112" lon="10.7943739"><ele>103.0</ele><time>2026-05-03T15:53:30.012Z</time></trkpt><trkpt lat="45.3965102" lon="10.7942285"><ele>103.0</ele><time>2026-05-03T15:53:31.018Z</time></trkpt><trkpt lat="45.3965087" lon="10.794082"><ele>103.0</ele><time>2026-05-03T15:53:32.012Z</time></trkpt><trkpt lat="45.3965096" lon="10.7939392"><ele>103.00000000000001</ele><time>2026-05-03T15:53:33.009Z</time></trkpt><trkpt lat="45.396511" lon="10.7938051"><ele>103.0</ele><time>2026-05-03T15:53:34.012Z</time></trkpt><trkpt lat="45.3965135" lon="10.7936749"><ele>103.0</ele><time>2026-05-03T15:53:35.023Z</time></trkpt><trkpt lat="45.3965194" lon="10.7935495"><ele>103.0</ele><time>2026-05-03T15:53:36.018Z</time></trkpt><trkpt lat="45.3965192" lon="10.7934286"><ele>103.00000000000001</ele><time>2026-05-03T15:53:37.01Z</time></trkpt><trkpt lat="45.3965186" lon="10.793303"><ele>103.0</ele><time>2026-05-03T15:53:38.027Z</time></trkpt><trkpt lat="45.396517" lon="10.7931774"><ele>102.83333333333334</ele><time>2026-05-03T15:53:39.016Z</time></trkpt><trkpt lat="45.3965138" lon="10.7930514"><ele>102.66666666666667</ele><time>2026-05-03T15:53:40.012Z</time></trkpt><trkpt lat="45.3965154" lon="10.7929306"><ele>102.5</ele><time>2026-05-03T15:53:41.019Z</time></trkpt><trkpt lat="45.3965176" lon="10.7928168"><ele>102.33333333333334</ele><time>2026-05-03T15:53:42.028Z</time></trkpt><trkpt lat="45.3965175" lon="10.7927056"><ele>102.16666666666667</ele><time>2026-05-03T15:53:43.028Z</time></trkpt><trkpt lat="45.396521" lon="10.7925978"><ele>102.0</ele><time>2026-05-03T15:53:44.015Z</time></trkpt><trkpt lat="45.3965276" lon="10.7924954"><ele>102.0</ele><time>2026-05-03T15:53:45.009Z</time></trkpt><trkpt lat="45.3965376" lon="10.7923994"><ele>102.0</ele><time>2026-05-03T15:53:46.016Z</time></trkpt><trkpt lat="45.3965687" lon="10.7922511"><ele>102.0</ele><time>2026-05-03T15:53:48.009Z</time></trkpt><trkpt lat="45.3966438" lon="10.7921097"><ele>102.0</ele><time>2026-05-03T15:53:50.022Z</time></trkpt><trkpt lat="45.3967055" lon="10.7920412"><ele>102.0</ele><time>2026-05-03T15:53:51.01Z</time></trkpt><trkpt lat="45.3967677" lon="10.7919737"><ele>102.0</ele><time>2026-05-03T15:53:52.01Z</time></trkpt><trkpt lat="45.3968226" lon="10.791897"><ele>102.0</ele><time>2026-05-03T15:53:53.018Z</time></trkpt><trkpt lat="45.3968663" lon="10.7918061"><ele>102.0</ele><time>2026-05-03T15:53:54.008Z</time></trkpt><trkpt lat="45.396902" lon="10.791704"><ele>102.0</ele><time>2026-05-03T15:53:55.018Z</time></trkpt><trkpt lat="45.3969315" lon="10.791595"><ele>102.0</ele><time>2026-05-03T15:53:56.02Z</time></trkpt><trkpt lat="45.3969587" lon="10.791487"><ele>102.0</ele><time>2026-05-03T15:53:57.016Z</time></trkpt><trkpt lat="45.3969698" lon="10.7913763"><ele>102.16666666666667</ele><time>2026-05-03T15:53:58.011Z</time></trkpt><trkpt lat="45.396969" lon="10.7912641"><ele>102.33333333333334</ele><time>2026-05-03T15:53:59.012Z</time></trkpt><trkpt lat="45.3969612" lon="10.7911548"><ele>102.5</ele><time>2026-05-03T15:54:00.014Z</time></trkpt><trkpt lat="45.3969513" lon="10.7910512"><ele>102.66666666666667</ele><time>2026-05-03T15:54:01.012Z</time></trkpt><trkpt lat="45.3969414" lon="10.7909482"><ele>102.83333333333334</ele><time>2026-05-03T15:54:02.01Z</time></trkpt><trkpt lat="45.3969259" lon="10.7908425"><ele>103.0</ele><time>2026-05-03T15:54:03.012Z</time></trkpt><trkpt lat="45.3969128" lon="10.7907314"><ele>103.00000000000001</ele><time>2026-05-03T15:54:04.017Z</time></trkpt><trkpt lat="45.396911" lon="10.7906132"><ele>103.0</ele><time>2026-05-03T15:54:05.039Z</time></trkpt><trkpt lat="45.3969215" lon="10.7904952"><ele>103.0</ele><time>2026-05-03T15:54:06.019Z</time></trkpt><trkpt lat="45.3969359" lon="10.7903799"><ele>103.0</ele><time>2026-05-03T15:54:07.014Z</time></trkpt><trkpt lat="45.3969496" lon="10.7902606"><ele>103.00000000000001</ele><time>2026-05-03T15:54:08.024Z</time></trkpt><trkpt lat="45.3969641" lon="10.7901372"><ele>103.0</ele><time>2026-05-03T15:54:09.02Z</time></trkpt><trkpt lat="45.3969752" lon="10.7900075"><ele>103.00000000000001</ele><time>2026-05-03T15:54:10.015Z</time></trkpt><trkpt lat="45.3969797" lon="10.7898811"><ele>103.0</ele><time>2026-05-03T15:54:11.012Z</time></trkpt><trkpt lat="45.3969817" lon="10.7897631"><ele>103.0</ele><time>2026-05-03T15:54:12.027Z</time></trkpt><trkpt lat="45.3969874" lon="10.7896527"><ele>103.0</ele><time>2026-05-03T15:54:13.033Z</time></trkpt><trkpt lat="45.3969989" lon="10.789549"><ele>103.00000000000001</ele><time>2026-05-03T15:54:14.029Z</time></trkpt><trkpt lat="45.3970248" lon="10.7894468"><ele>103.0</ele><time>2026-05-03T15:54:15.007Z</time></trkpt><trkpt lat="45.3970661" lon="10.7893396"><ele>103.2</ele><time>2026-05-03T15:54:16.04Z</time></trkpt><trkpt lat="45.3971154" lon="10.7892288"><ele>103.4</ele><time>2026-05-03T15:54:17.024Z</time></trkpt><trkpt lat="45.3971675" lon="10.7891121"><ele>103.60000000000001</ele><time>2026-05-03T15:54:18.017Z</time></trkpt><trkpt lat="45.3972184" lon="10.788993"><ele>103.80000000000001</ele><time>2026-05-03T15:54:19.023Z</time></trkpt><trkpt lat="45.3972653" lon="10.7888749"><ele>104.0</ele><time>2026-05-03T15:54:20.02Z</time></trkpt><trkpt lat="45.397307" lon="10.7887587"><ele>104.16666666666666</ele><time>2026-05-03T15:54:21.017Z</time></trkpt><trkpt lat="45.3973485" lon="10.7886442"><ele>104.33333333333333</ele><time>2026-05-03T15:54:22.015Z</time></trkpt><trkpt lat="45.3973893" lon="10.7885292"><ele>104.5</ele><time>2026-05-03T15:54:23.026Z</time></trkpt><trkpt lat="45.3974298" lon="10.7884142"><ele>104.66666666666666</ele><time>2026-05-03T15:54:24.008Z</time></trkpt><trkpt lat="45.3974687" lon="10.7883021"><ele>104.83333333333333</ele><time>2026-05-03T15:54:25.016Z</time></trkpt><trkpt lat="45.3975062" lon="10.788188"><ele>105.0</ele><time>2026-05-03T15:54:26.022Z</time></trkpt><trkpt lat="45.3975414" lon="10.7880754"><ele>105.66666666666667</ele><time>2026-05-03T15:54:27.037Z</time></trkpt><trkpt lat="45.3975753" lon="10.7879715"><ele>106.33333333333334</ele><time>2026-05-03T15:54:28.01Z</time></trkpt><trkpt lat="45.3976075" lon="10.7878751"><ele>107.0</ele><time>2026-05-03T15:54:29.012Z</time></trkpt><trkpt lat="45.3976371" lon="10.7877915"><ele>107.66666666666667</ele><time>2026-05-03T15:54:30.021Z</time></trkpt><trkpt lat="45.3976908" lon="10.7876551"><ele>108.33333333333334</ele><time>2026-05-03T15:54:32.013Z</time></trkpt><trkpt lat="45.3976991" lon="10.7875286"><ele>109.0</ele><time>2026-05-03T15:54:34.021Z</time></trkpt><trkpt lat="45.3976646" lon="10.7874483"><ele>109.4</ele><time>2026-05-03T15:54:35.038Z</time></trkpt><trkpt lat="45.3976116" lon="10.7873612"><ele>109.80000000000001</ele><time>2026-05-03T15:54:36.014Z</time></trkpt><trkpt lat="45.3975444" lon="10.7872626"><ele>110.19999999999999</ele><time>2026-05-03T15:54:37.01Z</time></trkpt><trkpt lat="45.3974769" lon="10.7871643"><ele>110.6</ele><time>2026-05-03T15:54:38.025Z</time></trkpt><trkpt lat="45.3974145" lon="10.7870689"><ele>111.0</ele><time>2026-05-03T15:54:39.011Z</time></trkpt><trkpt lat="45.3973607" lon="10.78697"><ele>111.0</ele><time>2026-05-03T15:54:40.007Z</time></trkpt><trkpt lat="45.3973161" lon="10.7868669"><ele>111.0</ele><time>2026-05-03T15:54:41.025Z</time></trkpt><trkpt lat="45.397276" lon="10.7867654"><ele>111.0</ele><time>2026-05-03T15:54:42.032Z</time></trkpt><trkpt lat="45.3972528" lon="10.7866614"><ele>111.0</ele><time>2026-05-03T15:54:43.026Z</time></trkpt><trkpt lat="45.3972375" lon="10.7865539"><ele>111.0</ele><time>2026-05-03T15:54:44.01Z</time></trkpt><trkpt lat="45.3972274" lon="10.7864474"><ele>111.0</ele><time>2026-05-03T15:54:45.014Z</time></trkpt><trkpt lat="45.3972217" lon="10.7863519"><ele>112.0</ele><time>2026-05-03T15:54:46.014Z</time></trkpt><trkpt lat="45.3972133" lon="10.7861786"><ele>113.0</ele><time>2026-05-03T15:54:48.015Z</time></trkpt><trkpt lat="45.3971992" lon="10.7860292"><ele>114.0</ele><time>2026-05-03T15:54:50.012Z</time></trkpt><trkpt lat="45.397188" lon="10.7858941"><ele>115.0</ele><time>2026-05-03T15:54:52.019Z</time></trkpt><trkpt lat="45.3971741" lon="10.7857487"><ele>116.0</ele><time>2026-05-03T15:54:54.02Z</time></trkpt><trkpt lat="45.3971578" lon="10.7856039"><ele>116.0</ele><time>2026-05-03T15:54:56.012Z</time></trkpt><trkpt lat="45.3971467" lon="10.7854646"><ele>116.0</ele><time>2026-05-03T15:54:58.018Z</time></trkpt><trkpt lat="45.3971355" lon="10.7853232"><ele>116.0</ele><time>2026-05-03T15:55:00.011Z</time></trkpt><trkpt lat="45.3971329" lon="10.785175"><ele>116.0</ele><time>2026-05-03T15:55:02.018Z</time></trkpt><trkpt lat="45.3971386" lon="10.7850493"><ele>116.0</ele><time>2026-05-03T15:55:04.008Z</time></trkpt><trkpt lat="45.3971002" lon="10.7848468"><ele>116.99999999999999</ele><time>2026-05-03T15:55:21.02Z</time></trkpt><trkpt lat="45.3970812" lon="10.7846906"><ele>118.0</ele><time>2026-05-03T15:55:22.014Z</time></trkpt><trkpt lat="45.3970656" lon="10.7845759"><ele>119.0</ele><time>2026-05-03T15:55:23.015Z</time></trkpt><trkpt lat="45.3970501" lon="10.784473"><ele>120.0</ele><time>2026-05-03T15:55:24.013Z</time></trkpt><trkpt lat="45.3970394" lon="10.7843728"><ele>120.99999999999999</ele><time>2026-05-03T15:55:25.012Z</time></trkpt><trkpt lat="45.397026" lon="10.7842735"><ele>122.0</ele><time>2026-05-03T15:55:26.011Z</time></trkpt><trkpt lat="45.3970035" lon="10.7841771"><ele>122.66666666666666</ele><time>2026-05-03T15:55:27.021Z</time></trkpt><trkpt lat="45.3969765" lon="10.7840923"><ele>123.33333333333333</ele><time>2026-05-03T15:55:28.028Z</time></trkpt><trkpt lat="45.3969148" lon="10.7839551"><ele>124.0</ele><time>2026-05-03T15:55:30.056Z</time></trkpt><trkpt lat="45.3968384" lon="10.7838273"><ele>124.66666666666666</ele><time>2026-05-03T15:55:32.014Z</time></trkpt><trkpt lat="45.3967939" lon="10.7837606"><ele>125.33333333333333</ele><time>2026-05-03T15:55:33.027Z</time></trkpt><trkpt lat="45.3967477" lon="10.7836934"><ele>126.0</ele><time>2026-05-03T15:55:34.02Z</time></trkpt><trkpt lat="45.3967004" lon="10.7836253"><ele>126.0</ele><time>2026-05-03T15:55:35.006Z</time></trkpt><trkpt lat="45.3966556" lon="10.7835572"><ele>126.0</ele><time>2026-05-03T15:55:36.021Z</time></trkpt><trkpt lat="45.3965987" lon="10.7834109"><ele>126.0</ele><time>2026-05-03T15:55:38.026Z</time></trkpt><trkpt lat="45.3966278" lon="10.7832465"><ele>126.0</ele><time>2026-05-03T15:55:40.014Z</time></trkpt><trkpt lat="45.3966703" lon="10.7831646"><ele>126.0</ele><time>2026-05-03T15:55:41.021Z</time></trkpt><trkpt lat="45.3967171" lon="10.7830813"><ele>126.0</ele><time>2026-05-03T15:55:42.021Z</time></trkpt><trkpt lat="45.3967616" lon="10.7829955"><ele>126.16666666666667</ele><time>2026-05-03T15:55:43.009Z</time></trkpt><trkpt lat="45.3968039" lon="10.7829093"><ele>126.33333333333334</ele><time>2026-05-03T15:55:44.023Z</time></trkpt><trkpt lat="45.3968447" lon="10.7828301"><ele>126.5</ele><time>2026-05-03T15:55:45.037Z</time></trkpt><trkpt lat="45.3968833" lon="10.7827573"><ele>126.66666666666667</ele><time>2026-05-03T15:55:46.012Z</time></trkpt><trkpt lat="45.3969208" lon="10.7826845"><ele>126.83333333333334</ele><time>2026-05-03T15:55:47.035Z</time></trkpt><trkpt lat="45.3969896" lon="10.7825413"><ele>127.0</ele><time>2026-05-03T15:55:49.008Z</time></trkpt><trkpt lat="45.3970402" lon="10.7823986"><ele>127.0</ele><time>2026-05-03T15:55:51.022Z</time></trkpt><trkpt lat="45.3970656" lon="10.7822445"><ele>127.0</ele><time>2026-05-03T15:55:53.016Z</time></trkpt><trkpt lat="45.3970467" lon="10.7820877"><ele>127.0</ele><time>2026-05-03T15:55:55.016Z</time></trkpt><trkpt lat="45.3970043" lon="10.7819201"><ele>127.0</ele><time>2026-05-03T15:55:57.016Z</time></trkpt><trkpt lat="45.396983" lon="10.7817502"><ele>127.00000000000001</ele><time>2026-05-03T15:55:59.024Z</time></trkpt><trkpt lat="45.3969837" lon="10.781654"><ele>127.0</ele><time>2026-05-03T15:56:00.018Z</time></trkpt><trkpt lat="45.3969801" lon="10.7815463"><ele>127.0</ele><time>2026-05-03T15:56:01.005Z</time></trkpt><trkpt lat="45.3969742" lon="10.7814316"><ele>127.0</ele><time>2026-05-03T15:56:02.012Z</time></trkpt><trkpt lat="45.3969726" lon="10.781303"><ele>127.00000000000001</ele><time>2026-05-03T15:56:03.004Z</time></trkpt><trkpt lat="45.3969715" lon="10.781173"><ele>127.0</ele><time>2026-05-03T15:56:04.008Z</time></trkpt><trkpt lat="45.3969709" lon="10.7810507"><ele>126.33333333333334</ele><time>2026-05-03T15:56:05.007Z</time></trkpt><trkpt lat="45.396973" lon="10.7809339"><ele>125.66666666666667</ele><time>2026-05-03T15:56:06.014Z</time></trkpt><trkpt lat="45.3969715" lon="10.7808271"><ele>125.0</ele><time>2026-05-03T15:56:07.027Z</time></trkpt><trkpt lat="45.3969595" lon="10.7807218"><ele>124.33333333333334</ele><time>2026-05-03T15:56:08.018Z</time></trkpt><trkpt lat="45.3969417" lon="10.7806157"><ele>123.66666666666667</ele><time>2026-05-03T15:56:09.023Z</time></trkpt><trkpt lat="45.3969233" lon="10.7805159"><ele>123.0</ele><time>2026-05-03T15:56:10.023Z</time></trkpt><trkpt lat="45.3969118" lon="10.7804172"><ele>123.0</ele><time>2026-05-03T15:56:11.009Z</time></trkpt><trkpt lat="45.396903" lon="10.7803148"><ele>123.0</ele><time>2026-05-03T15:56:12.015Z</time></trkpt><trkpt lat="45.3968849" lon="10.7802165"><ele>123.0</ele><time>2026-05-03T15:56:13.023Z</time></trkpt><trkpt lat="45.3968453" lon="10.7801264"><ele>123.0</ele><time>2026-05-03T15:56:14.027Z</time></trkpt><trkpt lat="45.3967909" lon="10.7800493"><ele>123.0</ele><time>2026-05-03T15:56:15.013Z</time></trkpt><trkpt lat="45.3967391" lon="10.7799844"><ele>123.0</ele><time>2026-05-03T15:56:16.027Z</time></trkpt><trkpt lat="45.3966931" lon="10.7798383"><ele>122.60000000000001</ele><time>2026-05-03T15:56:18.016Z</time></trkpt><trkpt lat="45.3967403" lon="10.7796678"><ele>122.20000000000002</ele><time>2026-05-03T15:56:20.046Z</time></trkpt><trkpt lat="45.3967995" lon="10.7795702"><ele>121.8</ele><time>2026-05-03T15:56:21.019Z</time></trkpt><trkpt lat="45.396871" lon="10.7794567"><ele>121.4</ele><time>2026-05-03T15:56:22.012Z</time></trkpt><trkpt lat="45.3969442" lon="10.7793314"><ele>121.0</ele><time>2026-05-03T15:56:23.009Z</time></trkpt><trkpt lat="45.3970146" lon="10.7791954"><ele>121.0</ele><time>2026-05-03T15:56:24.013Z</time></trkpt><trkpt lat="45.3970835" lon="10.779056"><ele>121.0</ele><time>2026-05-03T15:56:25.017Z</time></trkpt><trkpt lat="45.3971483" lon="10.7789271"><ele>121.0</ele><time>2026-05-03T15:56:26.013Z</time></trkpt><trkpt lat="45.3972079" lon="10.7788104"><ele>121.0</ele><time>2026-05-03T15:56:27.038Z</time></trkpt><trkpt lat="45.3972615" lon="10.7787035"><ele>121.0</ele><time>2026-05-03T15:56:28.009Z</time></trkpt><trkpt lat="45.3973141" lon="10.7786002"><ele>120.16666666666667</ele><time>2026-05-03T15:56:29.023Z</time></trkpt><trkpt lat="45.397364" lon="10.7785066"><ele>119.33333333333334</ele><time>2026-05-03T15:56:30.018Z</time></trkpt><trkpt lat="45.3974112" lon="10.7784183"><ele>118.5</ele><time>2026-05-03T15:56:31.025Z</time></trkpt><trkpt lat="45.397451" lon="10.7783315"><ele>117.66666666666666</ele><time>2026-05-03T15:56:32.055Z</time></trkpt><trkpt lat="45.3974866" lon="10.7782452"><ele>116.83333333333333</ele><time>2026-05-03T15:56:33.027Z</time></trkpt><trkpt lat="45.3974983" lon="10.7781312"><ele>116.0</ele><time>2026-05-03T15:56:34.014Z</time></trkpt><trkpt lat="45.3974942" lon="10.7779959"><ele>116.0</ele><time>2026-05-03T15:56:35.017Z</time></trkpt><trkpt lat="45.3974893" lon="10.7778464"><ele>116.0</ele><time>2026-05-03T15:56:36.031Z</time></trkpt><trkpt lat="45.3974824" lon="10.7776987"><ele>116.0</ele><time>2026-05-03T15:56:37.017Z</time></trkpt><trkpt lat="45.3974762" lon="10.7775493"><ele>116.0</ele><time>2026-05-03T15:56:38.013Z</time></trkpt><trkpt lat="45.3974702" lon="10.7774006"><ele>116.0</ele><time>2026-05-03T15:56:39.014Z</time></trkpt><trkpt lat="45.3974647" lon="10.7772511"><ele>116.16666666666666</ele><time>2026-05-03T15:56:40.05Z</time></trkpt><trkpt lat="45.3974598" lon="10.7771078"><ele>116.33333333333333</ele><time>2026-05-03T15:56:41.015Z</time></trkpt><trkpt lat="45.3974549" lon="10.7769699"><ele>116.5</ele><time>2026-05-03T15:56:42.015Z</time></trkpt><trkpt lat="45.3974506" lon="10.776843"><ele>116.66666666666666</ele><time>2026-05-03T15:56:43.016Z</time></trkpt><trkpt lat="45.3974475" lon="10.7767279"><ele>116.83333333333333</ele><time>2026-05-03T15:56:44.026Z</time></trkpt><trkpt lat="45.397445" lon="10.7766275"><ele>117.0</ele><time>2026-05-03T15:56:45.017Z</time></trkpt><trkpt lat="45.3974407" lon="10.776472"><ele>117.19999999999999</ele><time>2026-05-03T15:56:47.03Z</time></trkpt><trkpt lat="45.3973946" lon="10.7763706"><ele>117.39999999999999</ele><time>2026-05-03T15:56:49.009Z</time></trkpt><trkpt lat="45.3972834" lon="10.7763128"><ele>117.60000000000001</ele><time>2026-05-03T15:56:51.013Z</time></trkpt><trkpt lat="45.3972048" lon="10.7762919"><ele>117.80000000000001</ele><time>2026-05-03T15:56:52.02Z</time></trkpt><trkpt lat="45.3971148" lon="10.7762731"><ele>118.0</ele><time>2026-05-03T15:56:53.025Z</time></trkpt><trkpt lat="45.3970236" lon="10.7762616"><ele>117.16666666666667</ele><time>2026-05-03T15:56:54.019Z</time></trkpt><trkpt lat="45.3969422" lon="10.7762581"><ele>116.33333333333334</ele><time>2026-05-03T15:56:55.008Z</time></trkpt><trkpt lat="45.396871" lon="10.7762517"><ele>115.5</ele><time>2026-05-03T15:56:56.018Z</time></trkpt><trkpt lat="45.3968085" lon="10.776232"><ele>114.66666666666666</ele><time>2026-05-03T15:56:57.021Z</time></trkpt><trkpt lat="45.3967235" lon="10.7761452"><ele>113.83333333333333</ele><time>2026-05-03T15:56:59.02Z</time></trkpt><trkpt lat="45.3967116" lon="10.776056"><ele>113.0</ele><time>2026-05-03T15:57:00.009Z</time></trkpt><trkpt lat="45.3967232" lon="10.7759255"><ele>113.0</ele><time>2026-05-03T15:57:01.007Z</time></trkpt><trkpt lat="45.3967392" lon="10.7757742"><ele>113.0</ele><time>2026-05-03T15:57:02.019Z</time></trkpt><trkpt lat="45.3967579" lon="10.7756095"><ele>113.0</ele><time>2026-05-03T15:57:03.023Z</time></trkpt><trkpt lat="45.3967778" lon="10.7754419"><ele>113.0</ele><time>2026-05-03T15:57:04.012Z</time></trkpt><trkpt lat="45.3968006" lon="10.7752795"><ele>112.60000000000001</ele><time>2026-05-03T15:57:05.009Z</time></trkpt><trkpt lat="45.3968251" lon="10.7751308"><ele>112.20000000000002</ele><time>2026-05-03T15:57:06.025Z</time></trkpt><trkpt lat="45.3968481" lon="10.7749978"><ele>111.8</ele><time>2026-05-03T15:57:07.018Z</time></trkpt><trkpt lat="45.3968694" lon="10.7748751"><ele>111.4</ele><time>2026-05-03T15:57:08.018Z</time></trkpt><trkpt lat="45.3968907" lon="10.7747612"><ele>111.0</ele><time>2026-05-03T15:57:09.023Z</time></trkpt><trkpt lat="45.3969138" lon="10.7746515"><ele>111.0</ele><time>2026-05-03T15:57:10.025Z</time></trkpt><trkpt lat="45.3969439" lon="10.7745393"><ele>111.0</ele><time>2026-05-03T15:57:11.015Z</time></trkpt><trkpt lat="45.3969805" lon="10.774426"><ele>111.0</ele><time>2026-05-03T15:57:12.023Z</time></trkpt><trkpt lat="45.3970226" lon="10.7743148"><ele>111.0</ele><time>2026-05-03T15:57:13.011Z</time></trkpt><trkpt lat="45.3970666" lon="10.7741999"><ele>111.0</ele><time>2026-05-03T15:57:14.036Z</time></trkpt><trkpt lat="45.3971075" lon="10.7740854"><ele>111.0</ele><time>2026-05-03T15:57:15.014Z</time></trkpt><trkpt lat="45.3971482" lon="10.7739755"><ele>112.16666666666667</ele><time>2026-05-03T15:57:16.019Z</time></trkpt><trkpt lat="45.3971894" lon="10.7738638"><ele>113.33333333333334</ele><time>2026-05-03T15:57:17.018Z</time></trkpt><trkpt lat="45.3972208" lon="10.7737517"><ele>114.5</ele><time>2026-05-03T15:57:18.009Z</time></trkpt><trkpt lat="45.3972375" lon="10.773637"><ele>115.66666666666667</ele><time>2026-05-03T15:57:19.024Z</time></trkpt><trkpt lat="45.3972416" lon="10.773523"><ele>116.83333333333334</ele><time>2026-05-03T15:57:20.008Z</time></trkpt><trkpt lat="45.3972399" lon="10.7734109"><ele>118.0</ele><time>2026-05-03T15:57:21.003Z</time></trkpt><trkpt lat="45.3972378" lon="10.7733034"><ele>118.00000000000001</ele><time>2026-05-03T15:57:22.023Z</time></trkpt><trkpt lat="45.3972351" lon="10.7732027"><ele>118.0</ele><time>2026-05-03T15:57:23.007Z</time></trkpt><trkpt lat="45.3972372" lon="10.7731043"><ele>118.0</ele><time>2026-05-03T15:57:24.015Z</time></trkpt><trkpt lat="45.39725" lon="10.7730102"><ele>118.0</ele><time>2026-05-03T15:57:25.01Z</time></trkpt><trkpt lat="45.3972773" lon="10.7729118"><ele>118.00000000000001</ele><time>2026-05-03T15:57:26.017Z</time></trkpt><trkpt lat="45.3973134" lon="10.7728014"><ele>118.0</ele><time>2026-05-03T15:57:27.006Z</time></trkpt><trkpt lat="45.3973522" lon="10.7726828"><ele>116.83333333333334</ele><time>2026-05-03T15:57:28.011Z</time></trkpt><trkpt lat="45.3973889" lon="10.7725633"><ele>115.66666666666667</ele><time>2026-05-03T15:57:29.011Z</time></trkpt><trkpt lat="45.397421" lon="10.7724481"><ele>114.5</ele><time>2026-05-03T15:57:30.015Z</time></trkpt><trkpt lat="45.3974506" lon="10.7723407"><ele>113.33333333333334</ele><time>2026-05-03T15:57:31.006Z</time></trkpt><trkpt lat="45.39748" lon="10.7722449"><ele>112.16666666666667</ele><time>2026-05-03T15:57:32.004Z</time></trkpt><trkpt lat="45.3975092" lon="10.7721539"><ele>111.0</ele><time>2026-05-03T15:57:33.004Z</time></trkpt><trkpt lat="45.3975571" lon="10.7720202"><ele>111.0</ele><time>2026-05-03T15:57:35.014Z</time></trkpt><trkpt lat="45.3976157" lon="10.7718741"><ele>111.0</ele><time>2026-05-03T15:57:50.022Z</time></trkpt><trkpt lat="45.3976557" lon="10.7717413"><ele>111.0</ele><time>2026-05-03T15:57:51.028Z</time></trkpt><trkpt lat="45.3977077" lon="10.7716231"><ele>111.0</ele><time>2026-05-03T15:57:52.018Z</time></trkpt><trkpt lat="45.3977734" lon="10.7714957"><ele>111.0</ele><time>2026-05-03T15:57:53.023Z</time></trkpt><trkpt lat="45.3978439" lon="10.7713586"><ele>111.19999999999999</ele><time>2026-05-03T15:57:54.024Z</time></trkpt><trkpt lat="45.3979199" lon="10.7712225"><ele>111.39999999999999</ele><time>2026-05-03T15:57:55.019Z</time></trkpt><trkpt lat="45.3979971" lon="10.7710963"><ele>111.6</ele><time>2026-05-03T15:57:56.046Z</time></trkpt><trkpt lat="45.398065" lon="10.7709853"><ele>111.8</ele><time>2026-05-03T15:57:57.027Z</time></trkpt><trkpt lat="45.3981281" lon="10.7708822"><ele>112.0</ele><time>2026-05-03T15:57:58.015Z</time></trkpt><trkpt lat="45.398184" lon="10.7707835"><ele>113.16666666666667</ele><time>2026-05-03T15:57:59.013Z</time></trkpt><trkpt lat="45.3982255" lon="10.7706802"><ele>114.33333333333334</ele><time>2026-05-03T15:58:00.017Z</time></trkpt><trkpt lat="45.3982486" lon="10.7705656"><ele>115.5</ele><time>2026-05-03T15:58:01.031Z</time></trkpt><trkpt lat="45.3982576" lon="10.7704371"><ele>116.66666666666666</ele><time>2026-05-03T15:58:02.023Z</time></trkpt><trkpt lat="45.3982629" lon="10.7703005"><ele>117.83333333333333</ele><time>2026-05-03T15:58:03.017Z</time></trkpt><trkpt lat="45.3982692" lon="10.7701664"><ele>119.0</ele><time>2026-05-03T15:58:04.02Z</time></trkpt><trkpt lat="45.398276" lon="10.7700373"><ele>118.99999999999999</ele><time>2026-05-03T15:58:05.014Z</time></trkpt><trkpt lat="45.3982795" lon="10.7699055"><ele>119.0</ele><time>2026-05-03T15:58:06.049Z</time></trkpt><trkpt lat="45.3982825" lon="10.7697792"><ele>119.0</ele><time>2026-05-03T15:58:07.015Z</time></trkpt><trkpt lat="45.3982819" lon="10.7696524"><ele>119.0</ele><time>2026-05-03T15:58:08.008Z</time></trkpt><trkpt lat="45.3982869" lon="10.7695274"><ele>118.99999999999999</ele><time>2026-05-03T15:58:09.034Z</time></trkpt><trkpt lat="45.3982992" lon="10.7694172"><ele>119.0</ele><time>2026-05-03T15:58:10.016Z</time></trkpt><trkpt lat="45.3983137" lon="10.7693144"><ele>117.66666666666666</ele><time>2026-05-03T15:58:11.006Z</time></trkpt><trkpt lat="45.3983321" lon="10.769217"><ele>116.33333333333333</ele><time>2026-05-03T15:58:12.023Z</time></trkpt><trkpt lat="45.3983332" lon="10.7690674"><ele>115.0</ele><time>2026-05-03T15:58:14.026Z</time></trkpt><trkpt lat="45.3983084" lon="10.7689569"><ele>113.66666666666666</ele><time>2026-05-03T15:58:16.051Z</time></trkpt><trkpt lat="45.3982758" lon="10.7688567"><ele>112.33333333333333</ele><time>2026-05-03T15:58:18.015Z</time></trkpt><trkpt lat="45.3982289" lon="10.7687309"><ele>111.0</ele><time>2026-05-03T15:58:20.014Z</time></trkpt><trkpt lat="45.398198" lon="10.7686082"><ele>109.83333333333333</ele><time>2026-05-03T15:58:22.033Z</time></trkpt><trkpt lat="45.3982497" lon="10.7684788"><ele>108.66666666666666</ele><time>2026-05-03T15:58:24.018Z</time></trkpt><trkpt lat="45.3982951" lon="10.7684101"><ele>107.5</ele><time>2026-05-03T15:58:25.01Z</time></trkpt><trkpt lat="45.3983569" lon="10.7683324"><ele>106.33333333333333</ele><time>2026-05-03T15:58:26.015Z</time></trkpt><trkpt lat="45.3984228" lon="10.7682386"><ele>105.16666666666666</ele><time>2026-05-03T15:58:27.026Z</time></trkpt><trkpt lat="45.3984872" lon="10.7681271"><ele>104.0</ele><time>2026-05-03T15:58:28.018Z</time></trkpt><trkpt lat="45.3985491" lon="10.7680127"><ele>103.99999999999999</ele><time>2026-05-03T15:58:29.011Z</time></trkpt><trkpt lat="45.3986141" lon="10.7679061"><ele>104.0</ele><time>2026-05-03T15:58:30.026Z</time></trkpt><trkpt lat="45.3986796" lon="10.7678129"><ele>104.0</ele><time>2026-05-03T15:58:31.046Z</time></trkpt><trkpt lat="45.3987454" lon="10.7677314"><ele>104.0</ele><time>2026-05-03T15:58:32.04Z</time></trkpt><trkpt lat="45.3988136" lon="10.7676686"><ele>103.99999999999999</ele><time>2026-05-03T15:58:33.007Z</time></trkpt><trkpt lat="45.3988784" lon="10.7676176"><ele>104.0</ele><time>2026-05-03T15:58:34.021Z</time></trkpt><trkpt lat="45.3989548" lon="10.7675637"><ele>103.99999999999999</ele><time>2026-05-03T15:58:36.044Z</time></trkpt><trkpt lat="45.398909" lon="10.7674556"><ele>104.0</ele><time>2026-05-03T15:58:39.012Z</time></trkpt><trkpt lat="45.3988539" lon="10.7673914"><ele>104.0</ele><time>2026-05-03T15:58:40.012Z</time></trkpt><trkpt lat="45.3987946" lon="10.7673132"><ele>104.0</ele><time>2026-05-03T15:58:41.019Z</time></trkpt><trkpt lat="45.3987358" lon="10.7672181"><ele>103.99999999999999</ele><time>2026-05-03T15:58:42.025Z</time></trkpt><trkpt lat="45.3986777" lon="10.7671128"><ele>104.0</ele><time>2026-05-03T15:58:43.019Z</time></trkpt><trkpt lat="45.3986214" lon="10.7670063"><ele>103.71428571428571</ele><time>2026-05-03T15:58:44.008Z</time></trkpt><trkpt lat="45.3985709" lon="10.7669068"><ele>103.42857142857143</ele><time>2026-05-03T15:58:45.012Z</time></trkpt><trkpt lat="45.3985275" lon="10.766818"><ele>103.14285714285714</ele><time>2026-05-03T15:58:46.024Z</time></trkpt><trkpt lat="45.3984859" lon="10.7667336"><ele>102.85714285714286</ele><time>2026-05-03T15:58:47.009Z</time></trkpt><trkpt lat="45.3984495" lon="10.766648"><ele>102.57142857142858</ele><time>2026-05-03T15:58:48.019Z</time></trkpt><trkpt lat="45.3984139" lon="10.7665629"><ele>102.28571428571429</ele><time>2026-05-03T15:58:49.015Z</time></trkpt><trkpt lat="45.3983855" lon="10.766473"><ele>102.0</ele><time>2026-05-03T15:58:50.014Z</time></trkpt><trkpt lat="45.3983631" lon="10.7663723"><ele>102.0</ele><time>2026-05-03T15:58:51.011Z</time></trkpt><trkpt lat="45.3983481" lon="10.766254"><ele>102.0</ele><time>2026-05-03T15:58:52.014Z</time></trkpt><trkpt lat="45.3983354" lon="10.7661187"><ele>102.0</ele><time>2026-05-03T15:58:53.02Z</time></trkpt><trkpt lat="45.3983143" lon="10.7659756"><ele>102.0</ele><time>2026-05-03T15:58:54.021Z</time></trkpt><trkpt lat="45.3982801" lon="10.76582"><ele>102.0</ele><time>2026-05-03T15:58:55.022Z</time></trkpt><trkpt lat="45.398241" lon="10.7656544"><ele>102.25</ele><time>2026-05-03T15:58:56.014Z</time></trkpt><trkpt lat="45.3981946" lon="10.7654824"><ele>102.5</ele><time>2026-05-03T15:58:57Z</time></trkpt><trkpt lat="45.3981403" lon="10.7653095"><ele>102.75</ele><time>2026-05-03T15:58:58.017Z</time></trkpt><trkpt lat="45.3980841" lon="10.7651451"><ele>103.0</ele><time>2026-05-03T15:58:59.007Z</time></trkpt><trkpt lat="45.3980292" lon="10.7649891"><ele>102.5</ele><time>2026-05-03T15:59:00.007Z</time></trkpt><trkpt lat="45.3979764" lon="10.7648423"><ele>102.0</ele><time>2026-05-03T15:59:01.024Z</time></trkpt><trkpt lat="45.3979261" lon="10.7647017"><ele>101.5</ele><time>2026-05-03T15:59:02.012Z</time></trkpt><trkpt lat="45.3978767" lon="10.764559"><ele>101.0</ele><time>2026-05-03T15:59:03.006Z</time></trkpt><trkpt lat="45.3978268" lon="10.7644173"><ele>101.4</ele><time>2026-05-03T15:59:04.015Z</time></trkpt><trkpt lat="45.3977781" lon="10.7642807"><ele>101.8</ele><time>2026-05-03T15:59:05.016Z</time></trkpt><trkpt lat="45.3977356" lon="10.7641564"><ele>102.2</ele><time>2026-05-03T15:59:06.017Z</time></trkpt><trkpt lat="45.3976979" lon="10.7640436"><ele>102.60000000000001</ele><time>2026-05-03T15:59:07.024Z</time></trkpt><trkpt lat="45.397661" lon="10.7639355"><ele>103.0</ele><time>2026-05-03T15:59:08.01Z</time></trkpt><trkpt lat="45.3976245" lon="10.7638273"><ele>103.00000000000001</ele><time>2026-05-03T15:59:09.006Z</time></trkpt><trkpt lat="45.3975908" lon="10.7637211"><ele>103.0</ele><time>2026-05-03T15:59:10.01Z</time></trkpt><trkpt lat="45.3975566" lon="10.7636205"><ele>103.0</ele><time>2026-05-03T15:59:11.013Z</time></trkpt><trkpt lat="45.3975168" lon="10.7635281"><ele>103.0</ele><time>2026-05-03T15:59:12.012Z</time></trkpt><trkpt lat="45.3974759" lon="10.7634337"><ele>103.00000000000001</ele><time>2026-05-03T15:59:13.011Z</time></trkpt><trkpt lat="45.3974371" lon="10.7633344"><ele>103.0</ele><time>2026-05-03T15:59:14.014Z</time></trkpt><trkpt lat="45.3974015" lon="10.7632358"><ele>103.4</ele><time>2026-05-03T15:59:15.019Z</time></trkpt><trkpt lat="45.3973702" lon="10.7631454"><ele>103.80000000000001</ele><time>2026-05-03T15:59:16.01Z</time></trkpt><trkpt lat="45.3973416" lon="10.7630593"><ele>104.2</ele><time>2026-05-03T15:59:17.025Z</time></trkpt><trkpt lat="45.3972916" lon="10.7629176"><ele>104.6</ele><time>2026-05-03T15:59:19.029Z</time></trkpt><trkpt lat="45.3972809" lon="10.7627933"><ele>105.0</ele><time>2026-05-03T15:59:21.027Z</time></trkpt><trkpt lat="45.397382" lon="10.7627061"><ele>105.16666666666667</ele><time>2026-05-03T15:59:23.026Z</time></trkpt><trkpt lat="45.3974592" lon="10.7626696"><ele>105.33333333333334</ele><time>2026-05-03T15:59:24.035Z</time></trkpt><trkpt lat="45.3975369" lon="10.7626244"><ele>105.5</ele><time>2026-05-03T15:59:25.021Z</time></trkpt><trkpt lat="45.3976172" lon="10.7625789"><ele>105.66666666666667</ele><time>2026-05-03T15:59:26.02Z</time></trkpt><trkpt lat="45.3976986" lon="10.7625294"><ele>105.83333333333334</ele><time>2026-05-03T15:59:27.02Z</time></trkpt><trkpt lat="45.3977744" lon="10.7624814"><ele>106.0</ele><time>2026-05-03T15:59:28.014Z</time></trkpt><trkpt lat="45.3978438" lon="10.7624363"><ele>106.0</ele><time>2026-05-03T15:59:29.01Z</time></trkpt><trkpt lat="45.3979092" lon="10.7623947"><ele>106.0</ele><time>2026-05-03T15:59:30.029Z</time></trkpt><trkpt lat="45.3979692" lon="10.7623583"><ele>106.0</ele><time>2026-05-03T15:59:31.014Z</time></trkpt><trkpt lat="45.3980257" lon="10.7623155"><ele>106.0</ele><time>2026-05-03T15:59:32.006Z</time></trkpt><trkpt lat="45.3980819" lon="10.7622596"><ele>106.0</ele><time>2026-05-03T15:59:33.014Z</time></trkpt><trkpt lat="45.398139" lon="10.7621947"><ele>106.0</ele><time>2026-05-03T15:59:34.01Z</time></trkpt><trkpt lat="45.3981963" lon="10.7621167"><ele>106.0</ele><time>2026-05-03T15:59:35.022Z</time></trkpt><trkpt lat="45.3982535" lon="10.7620203"><ele>106.0</ele><time>2026-05-03T15:59:36.03Z</time></trkpt><trkpt lat="45.3983113" lon="10.7619136"><ele>106.0</ele><time>2026-05-03T15:59:37.015Z</time></trkpt><trkpt lat="45.3983702" lon="10.761798"><ele>106.0</ele><time>2026-05-03T15:59:38.007Z</time></trkpt><trkpt lat="45.3984294" lon="10.7616717"><ele>106.0</ele><time>2026-05-03T15:59:39.017Z</time></trkpt><trkpt lat="45.3984833" lon="10.761534"><ele>106.0</ele><time>2026-05-03T15:59:40.008Z</time></trkpt><trkpt lat="45.3985306" lon="10.7613839"><ele>104.5</ele><time>2026-05-03T15:59:41.012Z</time></trkpt><trkpt lat="45.3985742" lon="10.761226"><ele>103.0</ele><time>2026-05-03T15:59:42.019Z</time></trkpt><trkpt lat="45.398616" lon="10.7610659"><ele>101.5</ele><time>2026-05-03T15:59:43.011Z</time></trkpt><trkpt lat="45.3986567" lon="10.7609132"><ele>100.0</ele><time>2026-05-03T15:59:44.012Z</time></trkpt><trkpt lat="45.3986993" lon="10.7607784"><ele>99.0</ele><time>2026-05-03T15:59:45.014Z</time></trkpt><trkpt lat="45.3987444" lon="10.7606554"><ele>98.0</ele><time>2026-05-03T15:59:46.013Z</time></trkpt><trkpt lat="45.3987864" lon="10.7605364"><ele>97.0</ele><time>2026-05-03T15:59:47.011Z</time></trkpt><trkpt lat="45.398826" lon="10.7604269"><ele>96.0</ele><time>2026-05-03T15:59:48.015Z</time></trkpt><trkpt lat="45.3988579" lon="10.7603337"><ele>95.0</ele><time>2026-05-03T15:59:49.015Z</time></trkpt><trkpt lat="45.398889" lon="10.7601855"><ele>95.0</ele><time>2026-05-03T15:59:51.025Z</time></trkpt><trkpt lat="45.398841" lon="10.7600299"><ele>95.0</ele><time>2026-05-03T15:59:53.014Z</time></trkpt><trkpt lat="45.3987798" lon="10.7599431"><ele>95.0</ele><time>2026-05-03T15:59:54.007Z</time></trkpt><trkpt lat="45.3987152" lon="10.7598473"><ele>95.0</ele><time>2026-05-03T15:59:55.008Z</time></trkpt><trkpt lat="45.3986596" lon="10.7597405"><ele>95.0</ele><time>2026-05-03T15:59:56.006Z</time></trkpt><trkpt lat="45.3986226" lon="10.759619"><ele>95.0</ele><time>2026-05-03T15:59:57.011Z</time></trkpt><trkpt lat="45.3986064" lon="10.7594875"><ele>95.0</ele><time>2026-05-03T15:59:58.007Z</time></trkpt><trkpt lat="45.3986104" lon="10.7593542"><ele>95.0</ele><time>2026-05-03T15:59:59.011Z</time></trkpt><trkpt lat="45.3986353" lon="10.7592155"><ele>95.0</ele><time>2026-05-03T16:00:00.007Z</time></trkpt><trkpt lat="45.3986801" lon="10.7590749"><ele>95.0</ele><time>2026-05-03T16:00:01.007Z</time></trkpt><trkpt lat="45.3987535" lon="10.7589355"><ele>95.0</ele><time>2026-05-03T16:00:02.005Z</time></trkpt><trkpt lat="45.3988381" lon="10.7587972"><ele>95.0</ele><time>2026-05-03T16:00:03.012Z</time></trkpt><trkpt lat="45.3989163" lon="10.7586685"><ele>95.0</ele><time>2026-05-03T16:00:04.011Z</time></trkpt><trkpt lat="45.3989768" lon="10.758554"><ele>95.0</ele><time>2026-05-03T16:00:05.011Z</time></trkpt><trkpt lat="45.3990184" lon="10.7584475"><ele>95.0</ele><time>2026-05-03T16:00:06.018Z</time></trkpt><trkpt lat="45.3990465" lon="10.7583471"><ele>94.6</ele><time>2026-05-03T16:00:07.018Z</time></trkpt><trkpt lat="45.3990673" lon="10.7582538"><ele>94.2</ele><time>2026-05-03T16:00:08.012Z</time></trkpt><trkpt lat="45.3991321" lon="10.758125"><ele>93.80000000000001</ele><time>2026-05-03T16:00:10.018Z</time></trkpt><trkpt lat="45.3992574" lon="10.7581035"><ele>93.4</ele><time>2026-05-03T16:00:12.015Z</time></trkpt><trkpt lat="45.3993476" lon="10.7581199"><ele>93.0</ele><time>2026-05-03T16:00:13.016Z</time></trkpt><trkpt lat="45.3994516" lon="10.7581529"><ele>93.0</ele><time>2026-05-03T16:00:14.018Z</time></trkpt><trkpt lat="45.3995634" lon="10.7581816"><ele>93.0</ele><time>2026-05-03T16:00:14.999Z</time></trkpt><trkpt lat="45.3996837" lon="10.7582146"><ele>93.0</ele><time>2026-05-03T16:00:16.006Z</time></trkpt><trkpt lat="45.399807" lon="10.758251"><ele>93.0</ele><time>2026-05-03T16:00:17.012Z</time></trkpt><trkpt lat="45.3999304" lon="10.7582876"><ele>93.0</ele><time>2026-05-03T16:00:18.003Z</time></trkpt><trkpt lat="45.4000538" lon="10.7583259"><ele>93.0</ele><time>2026-05-03T16:00:19.009Z</time></trkpt><trkpt lat="45.4001754" lon="10.7583647"><ele>93.0</ele><time>2026-05-03T16:00:20.016Z</time></trkpt><trkpt lat="45.4002914" lon="10.7584009"><ele>93.0</ele><time>2026-05-03T16:00:21.019Z</time></trkpt><trkpt lat="45.4003955" lon="10.7584335"><ele>93.0</ele><time>2026-05-03T16:00:22.012Z</time></trkpt><trkpt lat="45.4004922" lon="10.758466"><ele>93.0</ele><time>2026-05-03T16:00:23.007Z</time></trkpt><trkpt lat="45.4005892" lon="10.7585027"><ele>93.0</ele><time>2026-05-03T16:00:24.014Z</time></trkpt><trkpt lat="45.4006844" lon="10.7585415"><ele>93.0</ele><time>2026-05-03T16:00:25.013Z</time></trkpt><trkpt lat="45.40077" lon="10.7585808"><ele>93.0</ele><time>2026-05-03T16:00:26.016Z</time></trkpt><trkpt lat="45.4008426" lon="10.7586168"><ele>93.33333333333333</ele><time>2026-05-03T16:00:27.018Z</time></trkpt><trkpt lat="45.400906" lon="10.7586423"><ele>93.66666666666667</ele><time>2026-05-03T16:00:28.013Z</time></trkpt><trkpt lat="45.401008" lon="10.75859"><ele>94.0</ele><time>2026-05-03T16:00:30.014Z</time></trkpt><trkpt lat="45.4010315" lon="10.7585053"><ele>94.33333333333334</ele><time>2026-05-03T16:00:31.022Z</time></trkpt><trkpt lat="45.4010469" lon="10.7583946"><ele>94.66666666666667</ele><time>2026-05-03T16:00:32.004Z</time></trkpt><trkpt lat="45.4010585" lon="10.758253"><ele>95.0</ele><time>2026-05-03T16:00:33.006Z</time></trkpt><trkpt lat="45.4010807" lon="10.7580976"><ele>95.0</ele><time>2026-05-03T16:00:34.011Z</time></trkpt><trkpt lat="45.4011054" lon="10.7579497"><ele>95.0</ele><time>2026-05-03T16:00:35.004Z</time></trkpt><trkpt lat="45.4011292" lon="10.7578135"><ele>95.0</ele><time>2026-05-03T16:00:36.012Z</time></trkpt><trkpt lat="45.4011504" lon="10.7576906"><ele>95.0</ele><time>2026-05-03T16:00:37.005Z</time></trkpt><trkpt lat="45.4011702" lon="10.7575771"><ele>95.0</ele><time>2026-05-03T16:00:38.017Z</time></trkpt><trkpt lat="45.401188" lon="10.7574742"><ele>95.0</ele><time>2026-05-03T16:00:39.021Z</time></trkpt><trkpt lat="45.4012029" lon="10.7573808"><ele>95.0</ele><time>2026-05-03T16:00:40.011Z</time></trkpt><trkpt lat="45.401249" lon="10.7572266"><ele>95.0</ele><time>2026-05-03T16:00:42.013Z</time></trkpt><trkpt lat="45.4013476" lon="10.7571689"><ele>95.0</ele><time>2026-05-03T16:00:44.009Z</time></trkpt><trkpt lat="45.4014137" lon="10.7571996"><ele>95.0</ele><time>2026-05-03T16:00:45.013Z</time></trkpt><trkpt lat="45.4014914" lon="10.757235"><ele>95.0</ele><time>2026-05-03T16:00:46.015Z</time></trkpt><trkpt lat="45.4015654" lon="10.7572648"><ele>95.0</ele><time>2026-05-03T16:00:47.014Z</time></trkpt><trkpt lat="45.4016722" lon="10.7573009"><ele>95.0</ele><time>2026-05-03T16:00:49.017Z</time></trkpt><trkpt lat="45.4017336" lon="10.7573219"><ele>95.0</ele><time>2026-05-03T16:00:51.007Z</time></trkpt><trkpt lat="45.40187" lon="10.7573523"><ele>95.0</ele><time>2026-05-03T16:01:39.016Z</time></trkpt><trkpt lat="45.401966" lon="10.7573773"><ele>95.0</ele><time>2026-05-03T16:01:40.024Z</time></trkpt><trkpt lat="45.4020392" lon="10.7574003"><ele>95.0</ele><time>2026-05-03T16:01:41.007Z</time></trkpt><trkpt lat="45.4021089" lon="10.7574238"><ele>95.0</ele><time>2026-05-03T16:01:42.015Z</time></trkpt><trkpt lat="45.4021803" lon="10.7574472"><ele>95.0</ele><time>2026-05-03T16:01:43.008Z</time></trkpt><trkpt lat="45.4022532" lon="10.7574694"><ele>95.0</ele><time>2026-05-03T16:01:44.011Z</time></trkpt><trkpt lat="45.4023266" lon="10.7574922"><ele>95.0</ele><time>2026-05-03T16:01:45.012Z</time></trkpt><trkpt lat="45.4024028" lon="10.7575249"><ele>95.0</ele><time>2026-05-03T16:01:46.021Z</time></trkpt><trkpt lat="45.4024801" lon="10.7575665"><ele>95.16666666666667</ele><time>2026-05-03T16:01:47.014Z</time></trkpt><trkpt lat="45.4025563" lon="10.7576074"><ele>95.33333333333334</ele><time>2026-05-03T16:01:48.007Z</time></trkpt><trkpt lat="45.4026297" lon="10.7576464"><ele>95.5</ele><time>2026-05-03T16:01:49.006Z</time></trkpt><trkpt lat="45.4027018" lon="10.7576847"><ele>95.66666666666667</ele><time>2026-05-03T16:01:50.013Z</time></trkpt><trkpt lat="45.4027731" lon="10.7577221"><ele>95.83333333333333</ele><time>2026-05-03T16:01:51.017Z</time></trkpt><trkpt lat="45.4028434" lon="10.7577597"><ele>96.0</ele><time>2026-05-03T16:01:52.017Z</time></trkpt><trkpt lat="45.4029159" lon="10.7577978"><ele>96.0</ele><time>2026-05-03T16:01:53.015Z</time></trkpt><trkpt lat="45.4029915" lon="10.7578445"><ele>96.0</ele><time>2026-05-03T16:01:54.012Z</time></trkpt><trkpt lat="45.4030696" lon="10.7578995"><ele>96.0</ele><time>2026-05-03T16:01:55.015Z</time></trkpt><trkpt lat="45.403148" lon="10.7579578"><ele>96.0</ele><time>2026-05-03T16:01:56.015Z</time></trkpt><trkpt lat="45.4032253" lon="10.7580171"><ele>96.0</ele><time>2026-05-03T16:01:57.005Z</time></trkpt><trkpt lat="45.4033026" lon="10.7580766"><ele>96.0</ele><time>2026-05-03T16:01:58.013Z</time></trkpt><trkpt lat="45.4033789" lon="10.7581347"><ele>96.0</ele><time>2026-05-03T16:01:59.017Z</time></trkpt><trkpt lat="45.4034553" lon="10.7581908"><ele>96.0</ele><time>2026-05-03T16:02:00.012Z</time></trkpt><trkpt lat="45.4035314" lon="10.7582466"><ele>96.0</ele><time>2026-05-03T16:02:01.016Z</time></trkpt><trkpt lat="45.4036071" lon="10.758301"><ele>96.0</ele><time>2026-05-03T16:02:02.015Z</time></trkpt><trkpt lat="45.4036826" lon="10.7583549"><ele>96.0</ele><time>2026-05-03T16:02:03.015Z</time></trkpt><trkpt lat="45.4037576" lon="10.758408"><ele>96.0</ele><time>2026-05-03T16:02:04.01Z</time></trkpt><trkpt lat="45.4038312" lon="10.7584618"><ele>96.5</ele><time>2026-05-03T16:02:05.008Z</time></trkpt><trkpt lat="45.4039047" lon="10.7585143"><ele>97.0</ele><time>2026-05-03T16:02:06.011Z</time></trkpt><trkpt lat="45.4039793" lon="10.7585661"><ele>97.5</ele><time>2026-05-03T16:02:07.008Z</time></trkpt><trkpt lat="45.4040548" lon="10.7586192"><ele>98.0</ele><time>2026-05-03T16:02:08.011Z</time></trkpt><trkpt lat="45.4041324" lon="10.7586731"><ele>98.5</ele><time>2026-05-03T16:02:09.015Z</time></trkpt><trkpt lat="45.4042125" lon="10.7587279"><ele>99.0</ele><time>2026-05-03T16:02:10.009Z</time></trkpt><trkpt lat="45.4042935" lon="10.7587859"><ele>99.0</ele><time>2026-05-03T16:02:11.013Z</time></trkpt><trkpt lat="45.4043732" lon="10.7588456"><ele>99.0</ele><time>2026-05-03T16:02:12.019Z</time></trkpt><trkpt lat="45.4044499" lon="10.7589066"><ele>99.0</ele><time>2026-05-03T16:02:13.018Z</time></trkpt><trkpt lat="45.404523" lon="10.7589676"><ele>99.0</ele><time>2026-05-03T16:02:14.014Z</time></trkpt><trkpt lat="45.404595" lon="10.7590269"><ele>99.0</ele><time>2026-05-03T16:02:15.004Z</time></trkpt><trkpt lat="45.4046655" lon="10.7590914"><ele>99.0</ele><time>2026-05-03T16:02:16.015Z</time></trkpt><trkpt lat="45.4047349" lon="10.7591567"><ele>99.83333333333333</ele><time>2026-05-03T16:02:17.014Z</time></trkpt><trkpt lat="45.4047991" lon="10.759217"><ele>100.66666666666666</ele><time>2026-05-03T16:02:18.009Z</time></trkpt><trkpt lat="45.4048553" lon="10.7592649"><ele>101.5</ele><time>2026-05-03T16:02:19.01Z</time></trkpt><trkpt lat="45.4049587" lon="10.7592932"><ele>102.33333333333333</ele><time>2026-05-03T16:02:21.01Z</time></trkpt><trkpt lat="45.4050317" lon="10.7591731"><ele>103.16666666666666</ele><time>2026-05-03T16:02:23.012Z</time></trkpt><trkpt lat="45.405048" lon="10.7590677"><ele>104.0</ele><time>2026-05-03T16:02:24.013Z</time></trkpt><trkpt lat="45.405065" lon="10.7589516"><ele>103.99999999999999</ele><time>2026-05-03T16:02:25.013Z</time></trkpt><trkpt lat="45.4050913" lon="10.7588297"><ele>104.0</ele><time>2026-05-03T16:02:26.016Z</time></trkpt><trkpt lat="45.4051212" lon="10.758714"><ele>104.0</ele><time>2026-05-03T16:02:27.013Z</time></trkpt><trkpt lat="45.4051458" lon="10.7586094"><ele>104.0</ele><time>2026-05-03T16:02:28.009Z</time></trkpt><trkpt lat="45.4051662" lon="10.7585121"><ele>103.99999999999999</ele><time>2026-05-03T16:02:29.007Z</time></trkpt><trkpt lat="45.4052294" lon="10.7583816"><ele>104.0</ele><time>2026-05-03T16:02:31.015Z</time></trkpt><trkpt lat="45.405334" lon="10.7583551"><ele>104.0</ele><time>2026-05-03T16:02:33.014Z</time></trkpt><trkpt lat="45.4054481" lon="10.7583205"><ele>104.0</ele><time>2026-05-03T16:02:35.033Z</time></trkpt><trkpt lat="45.4055392" lon="10.7582331"><ele>104.0</ele><time>2026-05-03T16:02:37.05Z</time></trkpt><trkpt lat="45.4056059" lon="10.7580931"><ele>104.0</ele><time>2026-05-03T16:02:39.006Z</time></trkpt><trkpt lat="45.4056465" lon="10.7579349"><ele>104.0</ele><time>2026-05-03T16:02:41.01Z</time></trkpt><trkpt lat="45.4056901" lon="10.7578118"><ele>104.0</ele><time>2026-05-03T16:02:43.019Z</time></trkpt><trkpt lat="45.4057776" lon="10.7577879"><ele>104.0</ele><time>2026-05-03T16:02:45.011Z</time></trkpt><trkpt lat="45.4058937" lon="10.7578704"><ele>104.0</ele><time>2026-05-03T16:02:47.011Z</time></trkpt><trkpt lat="45.405965" lon="10.7579151"><ele>104.0</ele><time>2026-05-03T16:02:48.009Z</time></trkpt><trkpt lat="45.4060439" lon="10.7579574"><ele>103.99999999999999</ele><time>2026-05-03T16:02:49.01Z</time></trkpt><trkpt lat="45.4061221" lon="10.7579941"><ele>104.0</ele><time>2026-05-03T16:02:50.01Z</time></trkpt><trkpt lat="45.406197" lon="10.7580266"><ele>104.0</ele><time>2026-05-03T16:02:51.007Z</time></trkpt><trkpt lat="45.4062671" lon="10.7580617"><ele>104.0</ele><time>2026-05-03T16:02:52.037Z</time></trkpt><trkpt lat="45.4063319" lon="10.7580924"><ele>103.99999999999999</ele><time>2026-05-03T16:02:53.014Z</time></trkpt><trkpt lat="45.406394" lon="10.7581173"><ele>104.0</ele><time>2026-05-03T16:02:54.012Z</time></trkpt><trkpt lat="45.4065057" lon="10.7581593"><ele>103.99999999999999</ele><time>2026-05-03T16:02:56.025Z</time></trkpt><trkpt lat="45.4065941" lon="10.7581902"><ele>104.0</ele><time>2026-05-03T16:02:58.014Z</time></trkpt><trkpt lat="45.4066577" lon="10.7582202"><ele>104.0</ele><time>2026-05-03T16:03:01.003Z</time></trkpt><trkpt lat="45.4066873" lon="10.7583066"><ele>104.0</ele><time>2026-05-03T16:03:20.013Z</time></trkpt><trkpt lat="45.406718" lon="10.7584667"><ele>103.99999999999999</ele><time>2026-05-03T16:03:21.006Z</time></trkpt><trkpt lat="45.4067394" lon="10.7586077"><ele>104.0</ele><time>2026-05-03T16:03:22.011Z</time></trkpt><trkpt lat="45.4067584" lon="10.7587492"><ele>104.0</ele><time>2026-05-03T16:03:23.012Z</time></trkpt><trkpt lat="45.4067776" lon="10.7588936"><ele>104.0</ele><time>2026-05-03T16:03:24.015Z</time></trkpt><trkpt lat="45.4067969" lon="10.7590416"><ele>104.0</ele><time>2026-05-03T16:03:25.021Z</time></trkpt><trkpt lat="45.4068146" lon="10.7591866"><ele>104.0</ele><time>2026-05-03T16:03:26.008Z</time></trkpt><trkpt lat="45.4068296" lon="10.7593204"><ele>104.0</ele><time>2026-05-03T16:03:27.007Z</time></trkpt><trkpt lat="45.4068445" lon="10.7594344"><ele>104.33333333333333</ele><time>2026-05-03T16:03:28.02Z</time></trkpt><trkpt lat="45.4068656" lon="10.7595247"><ele>104.66666666666666</ele><time>2026-05-03T16:03:29.017Z</time></trkpt><trkpt lat="45.4069641" lon="10.7596148"><ele>105.0</ele><time>2026-05-03T16:03:31.014Z</time></trkpt><trkpt lat="45.4070327" lon="10.759621"><ele>105.33333333333334</ele><time>2026-05-03T16:03:32.008Z</time></trkpt><trkpt lat="45.4071086" lon="10.7596215"><ele>105.66666666666667</ele><time>2026-05-03T16:03:33.002Z</time></trkpt><trkpt lat="45.407188" lon="10.7596286"><ele>106.0</ele><time>2026-05-03T16:03:34.009Z</time></trkpt><trkpt lat="45.4072677" lon="10.7596451"><ele>106.19999999999999</ele><time>2026-05-03T16:03:35.018Z</time></trkpt><trkpt lat="45.4073504" lon="10.7596679"><ele>106.39999999999999</ele><time>2026-05-03T16:03:36.021Z</time></trkpt><trkpt lat="45.40744" lon="10.7596927"><ele>106.6</ele><time>2026-05-03T16:03:37.006Z</time></trkpt><trkpt lat="45.4075364" lon="10.7597175"><ele>106.8</ele><time>2026-05-03T16:03:38.021Z</time></trkpt><trkpt lat="45.407638" lon="10.7597432"><ele>107.0</ele><time>2026-05-03T16:03:39.014Z</time></trkpt><trkpt lat="45.4077475" lon="10.7597709"><ele>107.0</ele><time>2026-05-03T16:03:40.006Z</time></trkpt><trkpt lat="45.4078623" lon="10.7597989"><ele>107.0</ele><time>2026-05-03T16:03:41.012Z</time></trkpt><trkpt lat="45.4079758" lon="10.7598255"><ele>107.0</ele><time>2026-05-03T16:03:42.006Z</time></trkpt><trkpt lat="45.4080866" lon="10.759854"><ele>107.0</ele><time>2026-05-03T16:03:43.011Z</time></trkpt><trkpt lat="45.4081923" lon="10.7598753"><ele>107.0</ele><time>2026-05-03T16:03:44.009Z</time></trkpt><trkpt lat="45.4082971" lon="10.7598963"><ele>106.99999999999999</ele><time>2026-05-03T16:03:45.002Z</time></trkpt><trkpt lat="45.408406" lon="10.7599225"><ele>106.99999999999999</ele><time>2026-05-03T16:03:46.007Z</time></trkpt><trkpt lat="45.4085154" lon="10.7599498"><ele>107.0</ele><time>2026-05-03T16:03:47.008Z</time></trkpt><trkpt lat="45.4086244" lon="10.7599762"><ele>107.0</ele><time>2026-05-03T16:03:48.008Z</time></trkpt><trkpt lat="45.4087338" lon="10.7600022"><ele>106.8</ele><time>2026-05-03T16:03:49.004Z</time></trkpt><trkpt lat="45.4088433" lon="10.760027"><ele>106.6</ele><time>2026-05-03T16:03:50.016Z</time></trkpt><trkpt lat="45.408954" lon="10.760051"><ele>106.39999999999999</ele><time>2026-05-03T16:03:51.013Z</time></trkpt><trkpt lat="45.4090627" lon="10.7600761"><ele>106.19999999999999</ele><time>2026-05-03T16:03:52.004Z</time></trkpt><trkpt lat="45.4091697" lon="10.7601017"><ele>106.0</ele><time>2026-05-03T16:03:53.013Z</time></trkpt><trkpt lat="45.4092749" lon="10.7601265"><ele>106.0</ele><time>2026-05-03T16:03:54.01Z</time></trkpt><trkpt lat="45.409379" lon="10.7601526"><ele>106.0</ele><time>2026-05-03T16:03:55.006Z</time></trkpt><trkpt lat="45.4094838" lon="10.7601784"><ele>106.0</ele><time>2026-05-03T16:03:56.007Z</time></trkpt><trkpt lat="45.4095876" lon="10.7602033"><ele>106.0</ele><time>2026-05-03T16:03:57.02Z</time></trkpt><trkpt lat="45.4096899" lon="10.7602271"><ele>106.0</ele><time>2026-05-03T16:03:58.014Z</time></trkpt><trkpt lat="45.4097924" lon="10.7602497"><ele>105.8</ele><time>2026-05-03T16:03:59.009Z</time></trkpt><trkpt lat="45.4098936" lon="10.7602736"><ele>105.6</ele><time>2026-05-03T16:04:00.006Z</time></trkpt><trkpt lat="45.4099962" lon="10.7602969"><ele>105.4</ele><time>2026-05-03T16:04:01.013Z</time></trkpt><trkpt lat="45.4101003" lon="10.7603189"><ele>105.2</ele><time>2026-05-03T16:04:02.007Z</time></trkpt><trkpt lat="45.4102048" lon="10.7603415"><ele>105.0</ele><time>2026-05-03T16:04:03.02Z</time></trkpt><trkpt lat="45.4103071" lon="10.7603636"><ele>105.0</ele><time>2026-05-03T16:04:04.007Z</time></trkpt><trkpt lat="45.4104072" lon="10.7603865"><ele>105.0</ele><time>2026-05-03T16:04:05.007Z</time></trkpt><trkpt lat="45.4104993" lon="10.7604088"><ele>105.0</ele><time>2026-05-03T16:04:06.009Z</time></trkpt><trkpt lat="45.4105824" lon="10.7604282"><ele>105.0</ele><time>2026-05-03T16:04:07.005Z</time></trkpt><trkpt lat="45.4106557" lon="10.7604455"><ele>105.0</ele><time>2026-05-03T16:04:08.017Z</time></trkpt><trkpt lat="45.4107723" lon="10.7604706"><ele>105.16666666666667</ele><time>2026-05-03T16:04:10.011Z</time></trkpt><trkpt lat="45.4108641" lon="10.7604847"><ele>105.33333333333334</ele><time>2026-05-03T16:04:12.014Z</time></trkpt><trkpt lat="45.4109331" lon="10.7604954"><ele>105.5</ele><time>2026-05-03T16:04:14.008Z</time></trkpt><trkpt lat="45.4110026" lon="10.7605065"><ele>105.66666666666667</ele><time>2026-05-03T16:04:16.012Z</time></trkpt><trkpt lat="45.4110908" lon="10.7605227"><ele>105.83333333333334</ele><time>2026-05-03T16:04:19.014Z</time></trkpt><trkpt lat="45.4111579" lon="10.7605383"><ele>106.0</ele><time>2026-05-03T16:04:22.027Z</time></trkpt><trkpt lat="45.4112356" lon="10.7605501"><ele>106.4</ele><time>2026-05-03T16:04:25.027Z</time></trkpt><trkpt lat="45.4113687" lon="10.7605705"><ele>106.8</ele><time>2026-05-03T16:04:27.007Z</time></trkpt><trkpt lat="45.4114476" lon="10.7605875"><ele>107.20000000000002</ele><time>2026-05-03T16:04:27.999Z</time></trkpt><trkpt lat="45.4115329" lon="10.7606081"><ele>107.60000000000001</ele><time>2026-05-03T16:04:29.006Z</time></trkpt><trkpt lat="45.4116232" lon="10.760642"><ele>108.0</ele><time>2026-05-03T16:04:30.01Z</time></trkpt><trkpt lat="45.4117179" lon="10.7606975"><ele>108.0</ele><time>2026-05-03T16:04:31.034Z</time></trkpt><trkpt lat="45.4118089" lon="10.7607618"><ele>108.00000000000001</ele><time>2026-05-03T16:04:32.009Z</time></trkpt><trkpt lat="45.4118974" lon="10.7608256"><ele>108.00000000000001</ele><time>2026-05-03T16:04:33.007Z</time></trkpt><trkpt lat="45.4119786" lon="10.7608999"><ele>108.0</ele><time>2026-05-03T16:04:34.025Z</time></trkpt><trkpt lat="45.4120559" lon="10.7609681"><ele>108.0</ele><time>2026-05-03T16:04:35.009Z</time></trkpt><trkpt lat="45.4121375" lon="10.7610262"><ele>107.80000000000001</ele><time>2026-05-03T16:04:36.006Z</time></trkpt><trkpt lat="45.4122262" lon="10.7610682"><ele>107.60000000000001</ele><time>2026-05-03T16:04:37.007Z</time></trkpt><trkpt lat="45.4123269" lon="10.7610917"><ele>107.39999999999999</ele><time>2026-05-03T16:04:38.016Z</time></trkpt><trkpt lat="45.4124393" lon="10.7611037"><ele>107.19999999999999</ele><time>2026-05-03T16:04:39.011Z</time></trkpt><trkpt lat="45.4125619" lon="10.7611191"><ele>107.0</ele><time>2026-05-03T16:04:40.011Z</time></trkpt><trkpt lat="45.4126851" lon="10.7611412"><ele>107.0</ele><time>2026-05-03T16:04:41.015Z</time></trkpt><trkpt lat="45.4128025" lon="10.7611632"><ele>107.0</ele><time>2026-05-03T16:04:42.017Z</time></trkpt><trkpt lat="45.4129149" lon="10.7611833"><ele>107.0</ele><time>2026-05-03T16:04:43.014Z</time></trkpt><trkpt lat="45.413025" lon="10.7612036"><ele>107.0</ele><time>2026-05-03T16:04:44.012Z</time></trkpt><trkpt lat="45.4131349" lon="10.7612233"><ele>107.0</ele><time>2026-05-03T16:04:45.025Z</time></trkpt><trkpt lat="45.4132427" lon="10.7612407"><ele>106.99999999999999</ele><time>2026-05-03T16:04:46.023Z</time></trkpt><trkpt lat="45.4133483" lon="10.7612555"><ele>106.99999999999999</ele><time>2026-05-03T16:04:47.024Z</time></trkpt><trkpt lat="45.4134509" lon="10.7612657"><ele>107.0</ele><time>2026-05-03T16:04:48.014Z</time></trkpt><trkpt lat="45.4135525" lon="10.7612744"><ele>107.0</ele><time>2026-05-03T16:04:49.031Z</time></trkpt><trkpt lat="45.4136505" lon="10.761286"><ele>107.0</ele><time>2026-05-03T16:04:50.011Z</time></trkpt><trkpt lat="45.4137491" lon="10.7612977"><ele>106.99999999999999</ele><time>2026-05-03T16:04:51.006Z</time></trkpt><trkpt lat="45.41385" lon="10.7613123"><ele>106.99999999999999</ele><time>2026-05-03T16:04:52.037Z</time></trkpt><trkpt lat="45.413952" lon="10.761325"><ele>107.0</ele><time>2026-05-03T16:04:53.03Z</time></trkpt><trkpt lat="45.4140552" lon="10.7613346"><ele>107.0</ele><time>2026-05-03T16:04:54.034Z</time></trkpt><trkpt lat="45.414153" lon="10.7613432"><ele>106.99999999999999</ele><time>2026-05-03T16:04:55.005Z</time></trkpt><trkpt lat="45.4142456" lon="10.7613531"><ele>107.0</ele><time>2026-05-03T16:04:56.017Z</time></trkpt><trkpt lat="45.4143304" lon="10.761364"><ele>107.0</ele><time>2026-05-03T16:04:57.022Z</time></trkpt><trkpt lat="45.4144084" lon="10.7613738"><ele>107.0</ele><time>2026-05-03T16:04:58.053Z</time></trkpt><trkpt lat="45.4144762" lon="10.7613847"><ele>106.99999999999999</ele><time>2026-05-03T16:04:59.006Z</time></trkpt><trkpt lat="45.4145382" lon="10.7614056"><ele>107.0</ele><time>2026-05-03T16:05:00.004Z</time></trkpt><trkpt lat="45.4146209" lon="10.7615123"><ele>106.99999999999999</ele><time>2026-05-03T16:05:02.014Z</time></trkpt><trkpt lat="45.4147125" lon="10.7615958"><ele>107.0</ele><time>2026-05-03T16:05:04.019Z</time></trkpt><trkpt lat="45.4147829" lon="10.7616067"><ele>107.0</ele><time>2026-05-03T16:05:05.01Z</time></trkpt><trkpt lat="45.4148631" lon="10.7616206"><ele>107.0</ele><time>2026-05-03T16:05:06.014Z</time></trkpt><trkpt lat="45.4149403" lon="10.7616328"><ele>106.99999999999999</ele><time>2026-05-03T16:05:07.018Z</time></trkpt><trkpt lat="45.4150053" lon="10.761639"><ele>107.0</ele><time>2026-05-03T16:05:08.015Z</time></trkpt><trkpt lat="45.4150955" lon="10.761628"><ele>106.99999999999999</ele><time>2026-05-03T16:05:10.027Z</time></trkpt><trkpt lat="45.4151202" lon="10.7615369"><ele>107.0</ele><time>2026-05-03T16:05:12.024Z</time></trkpt><trkpt lat="45.4150855" lon="10.7613905"><ele>107.0</ele><time>2026-05-03T16:05:14.027Z</time></trkpt><trkpt lat="45.4150574" lon="10.7612986"><ele>107.0</ele><time>2026-05-03T16:05:15.007Z</time></trkpt><trkpt lat="45.4150279" lon="10.7611919"><ele>106.99999999999999</ele><time>2026-05-03T16:05:16.014Z</time></trkpt><trkpt lat="45.4149962" lon="10.761086"><ele>107.0</ele><time>2026-05-03T16:05:17.014Z</time></trkpt><trkpt lat="45.4149631" lon="10.7609815"><ele>106.83333333333333</ele><time>2026-05-03T16:05:18.005Z</time></trkpt><trkpt lat="45.4149303" lon="10.7608709"><ele>106.66666666666666</ele><time>2026-05-03T16:05:19.014Z</time></trkpt><trkpt lat="45.4148957" lon="10.7607515"><ele>106.5</ele><time>2026-05-03T16:05:20.004Z</time></trkpt><trkpt lat="45.414862" lon="10.7606307"><ele>106.33333333333334</ele><time>2026-05-03T16:05:21.009Z</time></trkpt><trkpt lat="45.4148282" lon="10.7605133"><ele>106.16666666666667</ele><time>2026-05-03T16:05:22.001Z</time></trkpt><trkpt lat="45.4147904" lon="10.7603939"><ele>106.0</ele><time>2026-05-03T16:05:23.004Z</time></trkpt><trkpt lat="45.4147503" lon="10.7602742"><ele>105.19999999999999</ele><time>2026-05-03T16:05:24.003Z</time></trkpt><trkpt lat="45.4147146" lon="10.7601618"><ele>104.39999999999999</ele><time>2026-05-03T16:05:25.014Z</time></trkpt><trkpt lat="45.4146795" lon="10.7600494"><ele>103.6</ele><time>2026-05-03T16:05:26.004Z</time></trkpt><trkpt lat="45.4146425" lon="10.7599269"><ele>102.8</ele><time>2026-05-03T16:05:27.013Z</time></trkpt><trkpt lat="45.4146035" lon="10.7597984"><ele>102.0</ele><time>2026-05-03T16:05:28.007Z</time></trkpt><trkpt lat="45.4145624" lon="10.7596578"><ele>102.0</ele><time>2026-05-03T16:05:29.005Z</time></trkpt><trkpt lat="45.4145214" lon="10.7595158"><ele>102.0</ele><time>2026-05-03T16:05:30.005Z</time></trkpt><trkpt lat="45.4144795" lon="10.7593787"><ele>102.0</ele><time>2026-05-03T16:05:31.017Z</time></trkpt><trkpt lat="45.4144353" lon="10.7592404"><ele>102.0</ele><time>2026-05-03T16:05:32.002Z</time></trkpt><trkpt lat="45.4143903" lon="10.7590986"><ele>102.0</ele><time>2026-05-03T16:05:33.018Z</time></trkpt><trkpt lat="45.4143485" lon="10.7589595"><ele>101.19999999999999</ele><time>2026-05-03T16:05:34.01Z</time></trkpt><trkpt lat="45.4143058" lon="10.7588164"><ele>100.4</ele><time>2026-05-03T16:05:35.007Z</time></trkpt><trkpt lat="45.4142632" lon="10.7586682"><ele>99.6</ele><time>2026-05-03T16:05:36.012Z</time></trkpt><trkpt lat="45.4142177" lon="10.75852"><ele>98.80000000000001</ele><time>2026-05-03T16:05:37.01Z</time></trkpt><trkpt lat="45.4141673" lon="10.7583772"><ele>98.0</ele><time>2026-05-03T16:05:38.011Z</time></trkpt><trkpt lat="45.4141151" lon="10.7582491"><ele>97.60000000000001</ele><time>2026-05-03T16:05:39.002Z</time></trkpt><trkpt lat="45.4140666" lon="10.7581301"><ele>97.2</ele><time>2026-05-03T16:05:40.018Z</time></trkpt><trkpt lat="45.4140227" lon="10.758009"><ele>96.8</ele><time>2026-05-03T16:05:41.005Z</time></trkpt><trkpt lat="45.4139777" lon="10.7578795"><ele>96.4</ele><time>2026-05-03T16:05:42.013Z</time></trkpt><trkpt lat="45.4139306" lon="10.757747"><ele>96.0</ele><time>2026-05-03T16:05:43.014Z</time></trkpt><trkpt lat="45.413883" lon="10.7576108"><ele>95.8</ele><time>2026-05-03T16:05:44.017Z</time></trkpt><trkpt lat="45.4138345" lon="10.7574739"><ele>95.6</ele><time>2026-05-03T16:05:45.006Z</time></trkpt><trkpt lat="45.4137837" lon="10.7573434"><ele>95.4</ele><time>2026-05-03T16:05:46.02Z</time></trkpt><trkpt lat="45.4137349" lon="10.7572158"><ele>95.2</ele><time>2026-05-03T16:05:47.01Z</time></trkpt><trkpt lat="45.413684" lon="10.7570836"><ele>95.0</ele><time>2026-05-03T16:05:48.012Z</time></trkpt><trkpt lat="45.413632" lon="10.7569489"><ele>95.0</ele><time>2026-05-03T16:05:49.012Z</time></trkpt><trkpt lat="45.4135796" lon="10.7568128"><ele>95.0</ele><time>2026-05-03T16:05:50.007Z</time></trkpt><trkpt lat="45.413529" lon="10.7566717"><ele>95.0</ele><time>2026-05-03T16:05:51.005Z</time></trkpt><trkpt lat="45.4134813" lon="10.7565294"><ele>95.0</ele><time>2026-05-03T16:05:52.008Z</time></trkpt><trkpt lat="45.4134361" lon="10.7563925"><ele>95.0</ele><time>2026-05-03T16:05:53.005Z</time></trkpt><trkpt lat="45.4133908" lon="10.756256"><ele>95.0</ele><time>2026-05-03T16:05:54.004Z</time></trkpt><trkpt lat="45.4133458" lon="10.7561167"><ele>95.0</ele><time>2026-05-03T16:05:55.017Z</time></trkpt><trkpt lat="45.4133012" lon="10.7559798"><ele>95.0</ele><time>2026-05-03T16:05:56.014Z</time></trkpt><trkpt lat="45.4132567" lon="10.755848"><ele>95.0</ele><time>2026-05-03T16:05:57.01Z</time></trkpt><trkpt lat="45.413213" lon="10.7557228"><ele>95.0</ele><time>2026-05-03T16:05:58.011Z</time></trkpt><trkpt lat="45.413174" lon="10.7555995"><ele>94.66666666666667</ele><time>2026-05-03T16:05:59.006Z</time></trkpt><trkpt lat="45.4131431" lon="10.7554712"><ele>94.33333333333334</ele><time>2026-05-03T16:06:00.004Z</time></trkpt><trkpt lat="45.4131183" lon="10.7553427"><ele>94.0</ele><time>2026-05-03T16:06:01.015Z</time></trkpt><trkpt lat="45.4131056" lon="10.7552139"><ele>93.66666666666667</ele><time>2026-05-03T16:06:02.011Z</time></trkpt><trkpt lat="45.4131027" lon="10.7550924"><ele>93.33333333333333</ele><time>2026-05-03T16:06:03.018Z</time></trkpt><trkpt lat="45.4131077" lon="10.7549952"><ele>93.0</ele><time>2026-05-03T16:06:04.007Z</time></trkpt><trkpt lat="45.4131149" lon="10.7548772"><ele>93.0</ele><time>2026-05-03T16:06:06.009Z</time></trkpt><trkpt lat="45.4131107" lon="10.7547464"><ele>93.0</ele><time>2026-05-03T16:06:09.021Z</time></trkpt><trkpt lat="45.41313" lon="10.7546109"><ele>93.0</ele><time>2026-05-03T16:06:11.014Z</time></trkpt><trkpt lat="45.4131327" lon="10.754521"><ele>93.0</ele><time>2026-05-03T16:06:12.012Z</time></trkpt><trkpt lat="45.4131304" lon="10.7544187"><ele>93.0</ele><time>2026-05-03T16:06:13.008Z</time></trkpt><trkpt lat="45.4131296" lon="10.754306"><ele>93.0</ele><time>2026-05-03T16:06:14.007Z</time></trkpt><trkpt lat="45.4131329" lon="10.7541855"><ele>93.0</ele><time>2026-05-03T16:06:15.006Z</time></trkpt><trkpt lat="45.4131413" lon="10.7540582"><ele>93.0</ele><time>2026-05-03T16:06:16.011Z</time></trkpt><trkpt lat="45.4131519" lon="10.7539291"><ele>93.0</ele><time>2026-05-03T16:06:17.013Z</time></trkpt><trkpt lat="45.4131616" lon="10.7537982"><ele>93.0</ele><time>2026-05-03T16:06:18.01Z</time></trkpt><trkpt lat="45.4131683" lon="10.7536677"><ele>93.0</ele><time>2026-05-03T16:06:19.021Z</time></trkpt><trkpt lat="45.4131733" lon="10.7535456"><ele>93.5</ele><time>2026-05-03T16:06:20.005Z</time></trkpt><trkpt lat="45.4131787" lon="10.7534281"><ele>94.0</ele><time>2026-05-03T16:06:21.003Z</time></trkpt><trkpt lat="45.4131825" lon="10.7533135"><ele>94.5</ele><time>2026-05-03T16:06:22.011Z</time></trkpt><trkpt lat="45.4131841" lon="10.7532034"><ele>95.0</ele><time>2026-05-03T16:06:23.018Z</time></trkpt><trkpt lat="45.4131842" lon="10.7531005"><ele>95.5</ele><time>2026-05-03T16:06:24.009Z</time></trkpt><trkpt lat="45.4131853" lon="10.7530069"><ele>96.0</ele><time>2026-05-03T16:06:25.009Z</time></trkpt><trkpt lat="45.4132028" lon="10.7528614"><ele>96.0</ele><time>2026-05-03T16:06:27.006Z</time></trkpt><trkpt lat="45.4132541" lon="10.7527829"><ele>96.0</ele><time>2026-05-03T16:06:29.011Z</time></trkpt><trkpt lat="45.4133404" lon="10.7528044"><ele>96.0</ele><time>2026-05-03T16:06:31.01Z</time></trkpt><trkpt lat="45.4134501" lon="10.7528847"><ele>96.0</ele><time>2026-05-03T16:06:33.004Z</time></trkpt><trkpt lat="45.4135638" lon="10.7529482"><ele>96.0</ele><time>2026-05-03T16:06:35.009Z</time></trkpt><trkpt lat="45.4136258" lon="10.7529792"><ele>95.99999999999999</ele><time>2026-05-03T16:06:36.006Z</time></trkpt><trkpt lat="45.4136902" lon="10.7530109"><ele>96.0</ele><time>2026-05-03T16:06:37.016Z</time></trkpt><trkpt lat="45.4137558" lon="10.753042"><ele>96.0</ele><time>2026-05-03T16:06:38.005Z</time></trkpt><trkpt lat="45.4138234" lon="10.7530715"><ele>96.0</ele><time>2026-05-03T16:06:39.015Z</time></trkpt><trkpt lat="45.4138911" lon="10.7530955"><ele>96.0</ele><time>2026-05-03T16:06:40.007Z</time></trkpt><trkpt lat="45.4139585" lon="10.7531181"><ele>95.99999999999999</ele><time>2026-05-03T16:06:41.016Z</time></trkpt><trkpt lat="45.4140229" lon="10.7531465"><ele>96.0</ele><time>2026-05-03T16:06:42.013Z</time></trkpt><trkpt lat="45.4140864" lon="10.7531774"><ele>96.71428571428571</ele><time>2026-05-03T16:06:43.008Z</time></trkpt><trkpt lat="45.4141515" lon="10.7532062"><ele>97.42857142857143</ele><time>2026-05-03T16:06:44.009Z</time></trkpt><trkpt lat="45.4142181" lon="10.7532315"><ele>98.14285714285714</ele><time>2026-05-03T16:06:45.003Z</time></trkpt><trkpt lat="45.4142852" lon="10.7532551"><ele>98.85714285714286</ele><time>2026-05-03T16:06:46.011Z</time></trkpt><trkpt lat="45.4143513" lon="10.7532735"><ele>99.57142857142857</ele><time>2026-05-03T16:06:47.017Z</time></trkpt><trkpt lat="45.4144158" lon="10.7532894"><ele>100.28571428571428</ele><time>2026-05-03T16:06:48.012Z</time></trkpt><trkpt lat="45.4144787" lon="10.7533034"><ele>101.0</ele><time>2026-05-03T16:06:49.006Z</time></trkpt><trkpt lat="45.4146014" lon="10.7533223"><ele>100.83333333333333</ele><time>2026-05-03T16:06:51.018Z</time></trkpt><trkpt lat="45.4146657" lon="10.7533272"><ele>100.66666666666666</ele><time>2026-05-03T16:06:52.002Z</time></trkpt><trkpt lat="45.4147346" lon="10.7533315"><ele>100.5</ele><time>2026-05-03T16:06:53.016Z</time></trkpt><trkpt lat="45.4148075" lon="10.7533413"><ele>100.33333333333334</ele><time>2026-05-03T16:06:54.017Z</time></trkpt><trkpt lat="45.4148844" lon="10.7533599"><ele>100.16666666666667</ele><time>2026-05-03T16:06:55.017Z</time></trkpt><trkpt lat="45.414966" lon="10.7533856"><ele>100.0</ele><time>2026-05-03T16:06:56.002Z</time></trkpt><trkpt lat="45.4150535" lon="10.7534181"><ele>100.0</ele><time>2026-05-03T16:06:57.016Z</time></trkpt><trkpt lat="45.4151445" lon="10.7534549"><ele>100.0</ele><time>2026-05-03T16:06:58.021Z</time></trkpt><trkpt lat="45.4152369" lon="10.7534914"><ele>100.0</ele><time>2026-05-03T16:06:59.011Z</time></trkpt><trkpt lat="45.4153267" lon="10.7535265"><ele>100.0</ele><time>2026-05-03T16:07:00.011Z</time></trkpt><trkpt lat="45.4154112" lon="10.7535559"><ele>100.0</ele><time>2026-05-03T16:07:01.015Z</time></trkpt><trkpt lat="45.4155003" lon="10.7535857"><ele>99.16666666666667</ele><time>2026-05-03T16:07:02.023Z</time></trkpt><trkpt lat="45.4155883" lon="10.7536157"><ele>98.33333333333334</ele><time>2026-05-03T16:07:03.008Z</time></trkpt><trkpt lat="45.4156751" lon="10.7536451"><ele>97.5</ele><time>2026-05-03T16:07:04.008Z</time></trkpt><trkpt lat="45.4157605" lon="10.7536732"><ele>96.66666666666667</ele><time>2026-05-03T16:07:05.009Z</time></trkpt><trkpt lat="45.4158436" lon="10.7537013"><ele>95.83333333333334</ele><time>2026-05-03T16:07:06.021Z</time></trkpt><trkpt lat="45.415919" lon="10.7537273"><ele>95.0</ele><time>2026-05-03T16:07:07.007Z</time></trkpt><trkpt lat="45.4159894" lon="10.7537512"><ele>95.0</ele><time>2026-05-03T16:07:08.019Z</time></trkpt><trkpt lat="45.4160543" lon="10.7537743"><ele>95.0</ele><time>2026-05-03T16:07:09.012Z</time></trkpt><trkpt lat="45.41612" lon="10.7537967"><ele>95.0</ele><time>2026-05-03T16:07:10.006Z</time></trkpt><trkpt lat="45.4161842" lon="10.753818"><ele>95.0</ele><time>2026-05-03T16:07:11.013Z</time></trkpt><trkpt lat="45.4162553" lon="10.7538405"><ele>95.0</ele><time>2026-05-03T16:07:12.017Z</time></trkpt><trkpt lat="45.4163332" lon="10.7538624"><ele>95.0</ele><time>2026-05-03T16:07:13.011Z</time></trkpt><trkpt lat="45.4164193" lon="10.753887"><ele>95.0</ele><time>2026-05-03T16:07:14.008Z</time></trkpt><trkpt lat="45.4165026" lon="10.7539107"><ele>95.33333333333334</ele><time>2026-05-03T16:07:15.008Z</time></trkpt><trkpt lat="45.4165833" lon="10.7539343"><ele>95.66666666666667</ele><time>2026-05-03T16:07:16.011Z</time></trkpt><trkpt lat="45.4166622" lon="10.7539561"><ele>96.0</ele><time>2026-05-03T16:07:17.008Z</time></trkpt><trkpt lat="45.4167393" lon="10.7539765"><ele>96.33333333333334</ele><time>2026-05-03T16:07:18.021Z</time></trkpt><trkpt lat="45.4168164" lon="10.7539966"><ele>96.66666666666667</ele><time>2026-05-03T16:07:19.005Z</time></trkpt><trkpt lat="45.4168881" lon="10.7540096"><ele>97.0</ele><time>2026-05-03T16:07:20.003Z</time></trkpt><trkpt lat="45.4169503" lon="10.7540284"><ele>97.0</ele><time>2026-05-03T16:07:21.01Z</time></trkpt><trkpt lat="45.4170585" lon="10.7540657"><ele>97.0</ele><time>2026-05-03T16:07:23.004Z</time></trkpt><trkpt lat="45.4171591" lon="10.7540992"><ele>97.0</ele><time>2026-05-03T16:07:25.007Z</time></trkpt><trkpt lat="45.4172598" lon="10.7541345"><ele>97.0</ele><time>2026-05-03T16:07:27.011Z</time></trkpt><trkpt lat="45.4173571" lon="10.7541704"><ele>97.0</ele><time>2026-05-03T16:07:29.005Z</time></trkpt><trkpt lat="45.4174592" lon="10.7542073"><ele>96.66666666666667</ele><time>2026-05-03T16:07:31.016Z</time></trkpt><trkpt lat="45.417583" lon="10.7542537"><ele>96.33333333333334</ele><time>2026-05-03T16:07:33.013Z</time></trkpt><trkpt lat="45.4176534" lon="10.7542806"><ele>96.0</ele><time>2026-05-03T16:07:34.002Z</time></trkpt><trkpt lat="45.417727" lon="10.7543106"><ele>95.66666666666667</ele><time>2026-05-03T16:07:35.001Z</time></trkpt><trkpt lat="45.4178007" lon="10.7543426"><ele>95.33333333333334</ele><time>2026-05-03T16:07:36.003Z</time></trkpt><trkpt lat="45.4178715" lon="10.7543735"><ele>95.0</ele><time>2026-05-03T16:07:37.024Z</time></trkpt><trkpt lat="45.4179369" lon="10.7544006"><ele>96.0</ele><time>2026-05-03T16:07:38.02Z</time></trkpt><trkpt lat="45.4180028" lon="10.7544234"><ele>97.0</ele><time>2026-05-03T16:07:39.006Z</time></trkpt><trkpt lat="45.4180649" lon="10.7544526"><ele>98.0</ele><time>2026-05-03T16:07:40.002Z</time></trkpt><trkpt lat="45.4181363" lon="10.7545108"><ele>99.0</ele><time>2026-05-03T16:07:41.01Z</time></trkpt><trkpt lat="45.4182069" lon="10.7545872"><ele>99.99999999999999</ele><time>2026-05-03T16:07:42.011Z</time></trkpt><trkpt lat="45.4182844" lon="10.7546773"><ele>101.0</ele><time>2026-05-03T16:07:43.016Z</time></trkpt><trkpt lat="45.418365" lon="10.7547622"><ele>100.99999999999999</ele><time>2026-05-03T16:07:44.023Z</time></trkpt><trkpt lat="45.4184423" lon="10.7548396"><ele>101.0</ele><time>2026-05-03T16:07:45.014Z</time></trkpt><trkpt lat="45.4185182" lon="10.7549095"><ele>101.0</ele><time>2026-05-03T16:07:46.017Z</time></trkpt><trkpt lat="45.4185917" lon="10.7549774"><ele>101.0</ele><time>2026-05-03T16:07:47.019Z</time></trkpt><trkpt lat="45.4186646" lon="10.755048"><ele>100.99999999999999</ele><time>2026-05-03T16:07:48.012Z</time></trkpt><trkpt lat="45.4187345" lon="10.7551126"><ele>101.0</ele><time>2026-05-03T16:07:49.021Z</time></trkpt><trkpt lat="45.4188037" lon="10.7551734"><ele>100.99999999999999</ele><time>2026-05-03T16:07:50.019Z</time></trkpt><trkpt lat="45.4188726" lon="10.7552303"><ele>101.0</ele><time>2026-05-03T16:07:51.018Z</time></trkpt><trkpt lat="45.4189454" lon="10.7552796"><ele>101.0</ele><time>2026-05-03T16:07:52.011Z</time></trkpt><trkpt lat="45.4190187" lon="10.7553214"><ele>101.0</ele><time>2026-05-03T16:07:53.01Z</time></trkpt><trkpt lat="45.4190885" lon="10.7553592"><ele>100.99999999999999</ele><time>2026-05-03T16:07:54.015Z</time></trkpt><trkpt lat="45.4191553" lon="10.7553946"><ele>101.0</ele><time>2026-05-03T16:07:55.011Z</time></trkpt><trkpt lat="45.4192185" lon="10.7554296"><ele>100.99999999999999</ele><time>2026-05-03T16:07:56.012Z</time></trkpt><trkpt lat="45.4192775" lon="10.7554637"><ele>101.0</ele><time>2026-05-03T16:07:57.008Z</time></trkpt><trkpt lat="45.4193831" lon="10.7555281"><ele>101.0</ele><time>2026-05-03T16:07:59.014Z</time></trkpt><trkpt lat="45.4194377" lon="10.7555796"><ele>101.0</ele><time>2026-05-03T16:08:00.002Z</time></trkpt><trkpt lat="45.4194947" lon="10.7556442"><ele>100.99999999999999</ele><time>2026-05-03T16:08:01.014Z</time></trkpt><trkpt lat="45.4195389" lon="10.7557124"><ele>101.0</ele><time>2026-05-03T16:08:02.009Z</time></trkpt><trkpt lat="45.4195898" lon="10.7558687"><ele>100.99999999999999</ele><time>2026-05-03T16:08:04.008Z</time></trkpt><trkpt lat="45.4196202" lon="10.7560285"><ele>101.0</ele><time>2026-05-03T16:08:06.022Z</time></trkpt><trkpt lat="45.4196472" lon="10.7561105"><ele>101.0</ele><time>2026-05-03T16:08:07.009Z</time></trkpt><trkpt lat="45.4196877" lon="10.7561978"><ele>101.0</ele><time>2026-05-03T16:08:08.008Z</time></trkpt><trkpt lat="45.4197441" lon="10.7562911"><ele>100.99999999999999</ele><time>2026-05-03T16:08:09.017Z</time></trkpt><trkpt lat="45.4198089" lon="10.756387"><ele>101.0</ele><time>2026-05-03T16:08:10.009Z</time></trkpt><trkpt lat="45.4198783" lon="10.7564866"><ele>101.19999999999999</ele><time>2026-05-03T16:08:11.012Z</time></trkpt><trkpt lat="45.4199454" lon="10.7565922"><ele>101.39999999999999</ele><time>2026-05-03T16:08:12.01Z</time></trkpt><trkpt lat="45.4200122" lon="10.7566979"><ele>101.6</ele><time>2026-05-03T16:08:13.014Z</time></trkpt><trkpt lat="45.4200843" lon="10.7567983"><ele>101.8</ele><time>2026-05-03T16:08:14.013Z</time></trkpt><trkpt lat="45.4201607" lon="10.7568916"><ele>102.0</ele><time>2026-05-03T16:08:15.012Z</time></trkpt><trkpt lat="45.4202362" lon="10.7569784"><ele>102.33333333333333</ele><time>2026-05-03T16:08:16.006Z</time></trkpt><trkpt lat="45.4203073" lon="10.7570623"><ele>102.66666666666666</ele><time>2026-05-03T16:08:17.004Z</time></trkpt><trkpt lat="45.420372" lon="10.7571441"><ele>103.0</ele><time>2026-05-03T16:08:18.018Z</time></trkpt><trkpt lat="45.4204302" lon="10.7572201"><ele>103.33333333333333</ele><time>2026-05-03T16:08:19.008Z</time></trkpt><trkpt lat="45.4204848" lon="10.7572865"><ele>103.66666666666666</ele><time>2026-05-03T16:08:20.019Z</time></trkpt><trkpt lat="45.4205362" lon="10.757343"><ele>104.0</ele><time>2026-05-03T16:08:21.016Z</time></trkpt><trkpt lat="45.4205878" lon="10.757395"><ele>103.99999999999999</ele><time>2026-05-03T16:08:22.009Z</time></trkpt><trkpt lat="45.42064" lon="10.7574464"><ele>104.0</ele><time>2026-05-03T16:08:23.007Z</time></trkpt><trkpt lat="45.4206908" lon="10.7574999"><ele>104.0</ele><time>2026-05-03T16:08:24.011Z</time></trkpt><trkpt lat="45.4207399" lon="10.7575579"><ele>104.0</ele><time>2026-05-03T16:08:25.007Z</time></trkpt><trkpt lat="45.4207888" lon="10.7576158"><ele>103.99999999999999</ele><time>2026-05-03T16:08:26.028Z</time></trkpt><trkpt lat="45.4208833" lon="10.7577276"><ele>104.0</ele><time>2026-05-03T16:08:28.004Z</time></trkpt><trkpt lat="45.4209675" lon="10.7578459"><ele>102.5</ele><time>2026-05-03T16:08:30.012Z</time></trkpt><trkpt lat="45.4210356" lon="10.7579675"><ele>101.0</ele><time>2026-05-03T16:08:32.014Z</time></trkpt><trkpt lat="45.421091" lon="10.7581028"><ele>99.5</ele><time>2026-05-03T16:08:34.007Z</time></trkpt><trkpt lat="45.4211345" lon="10.7582537"><ele>98.0</ele><time>2026-05-03T16:08:36.01Z</time></trkpt><trkpt lat="45.4211794" lon="10.7584279"><ele>97.99999999999999</ele><time>2026-05-03T16:08:38.02Z</time></trkpt><trkpt lat="45.4212077" lon="10.7585263"><ele>98.0</ele><time>2026-05-03T16:08:39.007Z</time></trkpt><trkpt lat="45.4212409" lon="10.7586302"><ele>98.0</ele><time>2026-05-03T16:08:40.019Z</time></trkpt><trkpt lat="45.42128" lon="10.7587373"><ele>98.0</ele><time>2026-05-03T16:08:41.022Z</time></trkpt><trkpt lat="45.421325" lon="10.7588469"><ele>97.99999999999999</ele><time>2026-05-03T16:08:42.015Z</time></trkpt><trkpt lat="45.4213731" lon="10.7589598"><ele>98.0</ele><time>2026-05-03T16:08:43.017Z</time></trkpt><trkpt lat="45.4214236" lon="10.7590763"><ele>98.16666666666666</ele><time>2026-05-03T16:08:44.022Z</time></trkpt><trkpt lat="45.421477" lon="10.7591914"><ele>98.33333333333333</ele><time>2026-05-03T16:08:45.015Z</time></trkpt><trkpt lat="45.4215306" lon="10.7593004"><ele>98.5</ele><time>2026-05-03T16:08:46.004Z</time></trkpt><trkpt lat="45.4215851" lon="10.7593977"><ele>98.66666666666666</ele><time>2026-05-03T16:08:47.019Z</time></trkpt><trkpt lat="45.4216401" lon="10.7594781"><ele>98.83333333333333</ele><time>2026-05-03T16:08:48.015Z</time></trkpt><trkpt lat="45.4217" lon="10.7595371"><ele>99.0</ele><time>2026-05-03T16:08:49.009Z</time></trkpt><trkpt lat="45.4217706" lon="10.7595742"><ele>99.0</ele><time>2026-05-03T16:08:50.015Z</time></trkpt><trkpt lat="45.4218556" lon="10.7595857"><ele>99.0</ele><time>2026-05-03T16:08:51.005Z</time></trkpt><trkpt lat="45.421961" lon="10.7595711"><ele>99.0</ele><time>2026-05-03T16:08:52.004Z</time></trkpt><trkpt lat="45.4220814" lon="10.7595443"><ele>99.0</ele><time>2026-05-03T16:08:53.021Z</time></trkpt><trkpt lat="45.4222042" lon="10.7595163"><ele>99.0</ele><time>2026-05-03T16:08:54.006Z</time></trkpt><trkpt lat="45.4223312" lon="10.7594854"><ele>99.0</ele><time>2026-05-03T16:08:55.011Z</time></trkpt><trkpt lat="45.4224584" lon="10.7594506"><ele>99.0</ele><time>2026-05-03T16:08:56.003Z</time></trkpt><trkpt lat="45.4225827" lon="10.759417"><ele>99.0</ele><time>2026-05-03T16:08:57.005Z</time></trkpt><trkpt lat="45.4227035" lon="10.7593836"><ele>99.0</ele><time>2026-05-03T16:08:58.012Z</time></trkpt><trkpt lat="45.4228214" lon="10.7593495"><ele>99.0</ele><time>2026-05-03T16:08:59.013Z</time></trkpt><trkpt lat="45.4229368" lon="10.7593201"><ele>99.0</ele><time>2026-05-03T16:09:00.012Z</time></trkpt><trkpt lat="45.4230506" lon="10.759294"><ele>99.0</ele><time>2026-05-03T16:09:01.002Z</time></trkpt><trkpt lat="45.4231623" lon="10.7592654"><ele>99.0</ele><time>2026-05-03T16:09:02.013Z</time></trkpt><trkpt lat="45.4232664" lon="10.7592366"><ele>99.0</ele><time>2026-05-03T16:09:03.01Z</time></trkpt><trkpt lat="45.4233665" lon="10.7592077"><ele>99.0</ele><time>2026-05-03T16:09:04.008Z</time></trkpt><trkpt lat="45.423467" lon="10.7591802"><ele>99.0</ele><time>2026-05-03T16:09:05.015Z</time></trkpt><trkpt lat="45.423569" lon="10.759153"><ele>99.0</ele><time>2026-05-03T16:09:06.009Z</time></trkpt><trkpt lat="45.4236661" lon="10.7591275"><ele>99.0</ele><time>2026-05-03T16:09:07.009Z</time></trkpt><trkpt lat="45.4237521" lon="10.7591038"><ele>99.57142857142857</ele><time>2026-05-03T16:09:08.019Z</time></trkpt><trkpt lat="45.4238264" lon="10.7590848"><ele>100.14285714285714</ele><time>2026-05-03T16:09:09.007Z</time></trkpt><trkpt lat="45.4238962" lon="10.7590694"><ele>100.71428571428571</ele><time>2026-05-03T16:09:10Z</time></trkpt><trkpt lat="45.4239695" lon="10.7590712"><ele>101.28571428571428</ele><time>2026-05-03T16:09:11.013Z</time></trkpt><trkpt lat="45.4240434" lon="10.7590783"><ele>101.85714285714286</ele><time>2026-05-03T16:09:12.008Z</time></trkpt><trkpt lat="45.4241124" lon="10.7590866"><ele>102.42857142857142</ele><time>2026-05-03T16:09:13.012Z</time></trkpt><trkpt lat="45.4241759" lon="10.759097"><ele>103.0</ele><time>2026-05-03T16:09:14.007Z</time></trkpt><trkpt lat="45.4242433" lon="10.7591275"><ele>102.99999999999999</ele><time>2026-05-03T16:09:15.019Z</time></trkpt><trkpt lat="45.42431" lon="10.7591615"><ele>103.0</ele><time>2026-05-03T16:09:16.005Z</time></trkpt><trkpt lat="45.4243773" lon="10.7592022"><ele>103.0</ele><time>2026-05-03T16:09:17.003Z</time></trkpt><trkpt lat="45.4244437" lon="10.7592521"><ele>103.0</ele><time>2026-05-03T16:09:18.006Z</time></trkpt><trkpt lat="45.4245125" lon="10.759304"><ele>103.0</ele><time>2026-05-03T16:09:19.014Z</time></trkpt><trkpt lat="45.424577" lon="10.7593631"><ele>102.99999999999999</ele><time>2026-05-03T16:09:20.026Z</time></trkpt><trkpt lat="45.4246362" lon="10.7594237"><ele>103.0</ele><time>2026-05-03T16:09:21.023Z</time></trkpt><trkpt lat="45.424694" lon="10.7594787"><ele>102.83333333333334</ele><time>2026-05-03T16:09:22.009Z</time></trkpt><trkpt lat="45.4247617" lon="10.7595318"><ele>102.66666666666667</ele><time>2026-05-03T16:09:23.002Z</time></trkpt><trkpt lat="45.424828" lon="10.7595858"><ele>102.5</ele><time>2026-05-03T16:09:24.004Z</time></trkpt><trkpt lat="45.4248885" lon="10.7596431"><ele>102.33333333333334</ele><time>2026-05-03T16:09:25.015Z</time></trkpt><trkpt lat="45.4249442" lon="10.7596953"><ele>102.16666666666667</ele><time>2026-05-03T16:09:26.006Z</time></trkpt><trkpt lat="45.4249961" lon="10.7597474"><ele>102.0</ele><time>2026-05-03T16:09:27.001Z</time></trkpt><trkpt lat="45.4250787" lon="10.7598449"><ele>102.0</ele><time>2026-05-03T16:09:29.015Z</time></trkpt><trkpt lat="45.4251382" lon="10.7599321"><ele>102.0</ele><time>2026-05-03T16:09:31.011Z</time></trkpt><trkpt lat="45.4251673" lon="10.7600142"><ele>102.0</ele><time>2026-05-03T16:09:33.027Z</time></trkpt><trkpt lat="45.4252105" lon="10.7600938"><ele>102.0</ele><time>2026-05-03T16:09:37.018Z</time></trkpt><trkpt lat="45.4253019" lon="10.7600484"><ele>102.0</ele><time>2026-05-03T16:10:43.018Z</time></trkpt><trkpt lat="45.4254035" lon="10.759992"><ele>102.0</ele><time>2026-05-03T16:10:44.012Z</time></trkpt><trkpt lat="45.4254653" lon="10.7599095"><ele>102.39999999999999</ele><time>2026-05-03T16:10:45.009Z</time></trkpt><trkpt lat="45.4255003" lon="10.7597852"><ele>102.8</ele><time>2026-05-03T16:10:46.007Z</time></trkpt><trkpt lat="45.4255219" lon="10.7596402"><ele>103.2</ele><time>2026-05-03T16:10:47.01Z</time></trkpt><trkpt lat="45.4255398" lon="10.7594867"><ele>103.6</ele><time>2026-05-03T16:10:48.012Z</time></trkpt><trkpt lat="45.4255594" lon="10.7593313"><ele>104.0</ele><time>2026-05-03T16:10:49.017Z</time></trkpt><trkpt lat="45.4255806" lon="10.759172"><ele>104.0</ele><time>2026-05-03T16:10:50.009Z</time></trkpt><trkpt lat="45.4256019" lon="10.7590094"><ele>104.0</ele><time>2026-05-03T16:10:51.006Z</time></trkpt><trkpt lat="45.4256221" lon="10.7588467"><ele>104.0</ele><time>2026-05-03T16:10:52.004Z</time></trkpt><trkpt lat="45.4256425" lon="10.758686"><ele>104.0</ele><time>2026-05-03T16:10:53.016Z</time></trkpt><trkpt lat="45.4256629" lon="10.758531"><ele>104.6</ele><time>2026-05-03T16:10:54.002Z</time></trkpt><trkpt lat="45.4256829" lon="10.7583777"><ele>105.2</ele><time>2026-05-03T16:10:55.004Z</time></trkpt><trkpt lat="45.4257028" lon="10.7582259"><ele>105.79999999999998</ele><time>2026-05-03T16:10:56.005Z</time></trkpt><trkpt lat="45.4257224" lon="10.7580742"><ele>106.39999999999999</ele><time>2026-05-03T16:10:57Z</time></trkpt><trkpt lat="45.425742" lon="10.7579191"><ele>107.0</ele><time>2026-05-03T16:10:58.007Z</time></trkpt><trkpt lat="45.425762" lon="10.7577603"><ele>105.75</ele><time>2026-05-03T16:10:59.008Z</time></trkpt><trkpt lat="45.4257819" lon="10.7575983"><ele>104.5</ele><time>2026-05-03T16:11:00.002Z</time></trkpt><trkpt lat="45.4258017" lon="10.7574295"><ele>103.25</ele><time>2026-05-03T16:11:01.011Z</time></trkpt><trkpt lat="45.4258236" lon="10.7572563"><ele>102.0</ele><time>2026-05-03T16:11:02.009Z</time></trkpt><trkpt lat="45.4258478" lon="10.7570819"><ele>102.0</ele><time>2026-05-03T16:11:03.001Z</time></trkpt><trkpt lat="45.425872" lon="10.7569051"><ele>102.0</ele><time>2026-05-03T16:11:04.004Z</time></trkpt><trkpt lat="45.4258947" lon="10.7567264"><ele>102.0</ele><time>2026-05-03T16:11:05.019Z</time></trkpt><trkpt lat="45.4259171" lon="10.7565493"><ele>102.0</ele><time>2026-05-03T16:11:06.018Z</time></trkpt><trkpt lat="45.42594" lon="10.756375"><ele>102.0</ele><time>2026-05-03T16:11:07.025Z</time></trkpt><trkpt lat="45.4259615" lon="10.7562096"><ele>102.0</ele><time>2026-05-03T16:11:08.024Z</time></trkpt><trkpt lat="45.4259793" lon="10.7560578"><ele>102.0</ele><time>2026-05-03T16:11:09.01Z</time></trkpt><trkpt lat="45.4259944" lon="10.7559136"><ele>102.0</ele><time>2026-05-03T16:11:10.01Z</time></trkpt><trkpt lat="45.4259923" lon="10.7557786"><ele>102.0</ele><time>2026-05-03T16:11:11.017Z</time></trkpt><trkpt lat="45.4259705" lon="10.7556518"><ele>102.0</ele><time>2026-05-03T16:11:12.018Z</time></trkpt><trkpt lat="45.425914" lon="10.7555319"><ele>102.0</ele><time>2026-05-03T16:11:13.01Z</time></trkpt><trkpt lat="45.4258329" lon="10.7554198"><ele>102.0</ele><time>2026-05-03T16:11:14.015Z</time></trkpt><trkpt lat="45.4257338" lon="10.7553234"><ele>102.0</ele><time>2026-05-03T16:11:15.016Z</time></trkpt><trkpt lat="45.4256254" lon="10.7552272"><ele>102.25</ele><time>2026-05-03T16:11:16.011Z</time></trkpt><trkpt lat="45.4255189" lon="10.7551314"><ele>102.5</ele><time>2026-05-03T16:11:17.01Z</time></trkpt><trkpt lat="45.4254205" lon="10.7550346"><ele>102.75</ele><time>2026-05-03T16:11:18.007Z</time></trkpt><trkpt lat="45.4253277" lon="10.7549389"><ele>103.0</ele><time>2026-05-03T16:11:19.006Z</time></trkpt><trkpt lat="45.4252474" lon="10.7548383"><ele>102.66666666666667</ele><time>2026-05-03T16:11:20.01Z</time></trkpt><trkpt lat="45.4251827" lon="10.7547321"><ele>102.33333333333334</ele><time>2026-05-03T16:11:21.004Z</time></trkpt><trkpt lat="45.4251404" lon="10.7546167"><ele>102.0</ele><time>2026-05-03T16:11:22.016Z</time></trkpt><trkpt lat="45.4251207" lon="10.7544999"><ele>101.66666666666666</ele><time>2026-05-03T16:11:23.017Z</time></trkpt><trkpt lat="45.4251123" lon="10.7543905"><ele>101.33333333333333</ele><time>2026-05-03T16:11:24.017Z</time></trkpt><trkpt lat="45.4250944" lon="10.7542997"><ele>101.0</ele><time>2026-05-03T16:11:25.008Z</time></trkpt><trkpt lat="45.4250056" lon="10.7542189"><ele>101.0</ele><time>2026-05-03T16:11:27.02Z</time></trkpt><trkpt lat="45.4249372" lon="10.7542226"><ele>101.0</ele><time>2026-05-03T16:11:29.029Z</time></trkpt><trkpt lat="45.4247897" lon="10.7541135"><ele>101.0</ele><time>2026-05-03T16:11:54.02Z</time></trkpt><trkpt lat="45.4247012" lon="10.7540813"><ele>101.0</ele><time>2026-05-03T16:11:55.011Z</time></trkpt><trkpt lat="45.4246258" lon="10.7541053"><ele>101.0</ele><time>2026-05-03T16:11:56.022Z</time></trkpt><trkpt lat="45.4245701" lon="10.7541671"><ele>101.16666666666666</ele><time>2026-05-03T16:11:57.014Z</time></trkpt><trkpt lat="45.4245363" lon="10.754262"><ele>101.33333333333333</ele><time>2026-05-03T16:11:58.015Z</time></trkpt><trkpt lat="45.4245359" lon="10.7543749"><ele>101.5</ele><time>2026-05-03T16:11:59.013Z</time></trkpt><trkpt lat="45.4245687" lon="10.7544828"><ele>101.66666666666666</ele><time>2026-05-03T16:12:00.03Z</time></trkpt><trkpt lat="45.4246351" lon="10.7545695"><ele>101.83333333333333</ele><time>2026-05-03T16:12:01.024Z</time></trkpt><trkpt lat="45.4247265" lon="10.7546555"><ele>102.0</ele><time>2026-05-03T16:12:02.015Z</time></trkpt><trkpt lat="45.4248231" lon="10.7547622"><ele>102.25</ele><time>2026-05-03T16:12:03.011Z</time></trkpt><trkpt lat="45.4249111" lon="10.7549056"><ele>102.5</ele><time>2026-05-03T16:12:04.015Z</time></trkpt><trkpt lat="45.4250036" lon="10.7550644"><ele>102.75</ele><time>2026-05-03T16:12:05.025Z</time></trkpt><trkpt lat="45.4251126" lon="10.7552136"><ele>103.0</ele><time>2026-05-03T16:12:06.022Z</time></trkpt><trkpt lat="45.4252325" lon="10.7553431"><ele>103.0</ele><time>2026-05-03T16:12:07.023Z</time></trkpt><trkpt lat="45.4253568" lon="10.7554539"><ele>103.0</ele><time>2026-05-03T16:12:08.024Z</time></trkpt><trkpt lat="45.4254817" lon="10.7555506"><ele>103.0</ele><time>2026-05-03T16:12:09.018Z</time></trkpt><trkpt lat="45.4256094" lon="10.7556418"><ele>103.0</ele><time>2026-05-03T16:12:10.012Z</time></trkpt><trkpt lat="45.4257384" lon="10.7557354"><ele>102.75</ele><time>2026-05-03T16:12:11.009Z</time></trkpt><trkpt lat="45.4258685" lon="10.7558322"><ele>102.5</ele><time>2026-05-03T16:12:12.014Z</time></trkpt><trkpt lat="45.4259984" lon="10.7559294"><ele>102.25</ele><time>2026-05-03T16:12:13.012Z</time></trkpt><trkpt lat="45.4261285" lon="10.7560267"><ele>102.0</ele><time>2026-05-03T16:12:14.013Z</time></trkpt><trkpt lat="45.426259" lon="10.756125"><ele>101.66666666666666</ele><time>2026-05-03T16:12:15.011Z</time></trkpt><trkpt lat="45.4263913" lon="10.7562242"><ele>101.33333333333333</ele><time>2026-05-03T16:12:16.025Z</time></trkpt><trkpt lat="45.4265244" lon="10.7563228"><ele>101.0</ele><time>2026-05-03T16:12:17.025Z</time></trkpt><trkpt lat="45.4266584" lon="10.7564214"><ele>101.0</ele><time>2026-05-03T16:12:18.015Z</time></trkpt><trkpt lat="45.4267939" lon="10.7565206"><ele>101.0</ele><time>2026-05-03T16:12:19.023Z</time></trkpt><trkpt lat="45.4269284" lon="10.7566195"><ele>101.0</ele><time>2026-05-03T16:12:20.019Z</time></trkpt><trkpt lat="45.427062" lon="10.7567184"><ele>101.0</ele><time>2026-05-03T16:12:21.014Z</time></trkpt><trkpt lat="45.4271941" lon="10.7568171"><ele>101.0</ele><time>2026-05-03T16:12:22.013Z</time></trkpt><trkpt lat="45.4273248" lon="10.7569145"><ele>101.0</ele><time>2026-05-03T16:12:23.017Z</time></trkpt><trkpt lat="45.4274537" lon="10.7570072"><ele>101.0</ele><time>2026-05-03T16:12:24.017Z</time></trkpt><trkpt lat="45.4275819" lon="10.7570935"><ele>101.0</ele><time>2026-05-03T16:12:25.022Z</time></trkpt><trkpt lat="45.4277099" lon="10.757171"><ele>101.0</ele><time>2026-05-03T16:12:26.023Z</time></trkpt><trkpt lat="45.4278378" lon="10.7572382"><ele>101.0</ele><time>2026-05-03T16:12:27.025Z</time></trkpt><trkpt lat="45.427962" lon="10.7572958"><ele>101.0</ele><time>2026-05-03T16:12:28.021Z</time></trkpt><trkpt lat="45.4280812" lon="10.7573444"><ele>101.16666666666666</ele><time>2026-05-03T16:12:29.02Z</time></trkpt><trkpt lat="45.428192" lon="10.7573838"><ele>101.33333333333333</ele><time>2026-05-03T16:12:30.023Z</time></trkpt><trkpt lat="45.4282879" lon="10.7574162"><ele>101.5</ele><time>2026-05-03T16:12:31.017Z</time></trkpt><trkpt lat="45.4283675" lon="10.7574433"><ele>101.66666666666666</ele><time>2026-05-03T16:12:32.013Z</time></trkpt><trkpt lat="45.4284346" lon="10.7574718"><ele>101.83333333333333</ele><time>2026-05-03T16:12:33.017Z</time></trkpt><trkpt lat="45.4284938" lon="10.7575161"><ele>102.0</ele><time>2026-05-03T16:12:34.012Z</time></trkpt><trkpt lat="45.4285504" lon="10.7575765"><ele>102.0</ele><time>2026-05-03T16:12:35.036Z</time></trkpt><trkpt lat="45.4286107" lon="10.7576374"><ele>102.0</ele><time>2026-05-03T16:12:36.019Z</time></trkpt><trkpt lat="45.4286823" lon="10.7576774"><ele>102.0</ele><time>2026-05-03T16:12:37.016Z</time></trkpt><trkpt lat="45.4287606" lon="10.7576768"><ele>102.0</ele><time>2026-05-03T16:12:38.019Z</time></trkpt><trkpt lat="45.4288388" lon="10.757636"><ele>102.0</ele><time>2026-05-03T16:12:39.014Z</time></trkpt><trkpt lat="45.4289222" lon="10.7575574"><ele>102.0</ele><time>2026-05-03T16:12:40.016Z</time></trkpt><trkpt lat="45.4290122" lon="10.7575026"><ele>102.5</ele><time>2026-05-03T16:12:41.006Z</time></trkpt><trkpt lat="45.4291035" lon="10.7574839"><ele>103.0</ele><time>2026-05-03T16:12:42.014Z</time></trkpt><trkpt lat="45.4291854" lon="10.757492"><ele>103.5</ele><time>2026-05-03T16:12:43.001Z</time></trkpt><trkpt lat="45.4292638" lon="10.7575203"><ele>104.0</ele><time>2026-05-03T16:12:44.007Z</time></trkpt><trkpt lat="45.4293522" lon="10.7575537"><ele>104.5</ele><time>2026-05-03T16:12:45.012Z</time></trkpt><trkpt lat="45.4294531" lon="10.7575809"><ele>105.0</ele><time>2026-05-03T16:12:46.007Z</time></trkpt><trkpt lat="45.4295657" lon="10.7576121"><ele>104.5</ele><time>2026-05-03T16:12:47.008Z</time></trkpt><trkpt lat="45.4296878" lon="10.7576537"><ele>104.0</ele><time>2026-05-03T16:12:48.016Z</time></trkpt><trkpt lat="45.4298158" lon="10.7577015"><ele>103.5</ele><time>2026-05-03T16:12:49.008Z</time></trkpt><trkpt lat="45.4299506" lon="10.7577593"><ele>103.0</ele><time>2026-05-03T16:12:50.006Z</time></trkpt><trkpt lat="45.4300923" lon="10.7578241"><ele>102.75</ele><time>2026-05-03T16:12:51.027Z</time></trkpt><trkpt lat="45.4302373" lon="10.7578809"><ele>102.5</ele><time>2026-05-03T16:12:52.005Z</time></trkpt><trkpt lat="45.4303806" lon="10.7579318"><ele>102.25</ele><time>2026-05-03T16:12:53.012Z</time></trkpt><trkpt lat="45.4305212" lon="10.7579643"><ele>102.0</ele><time>2026-05-03T16:12:54.008Z</time></trkpt><trkpt lat="45.4306669" lon="10.7580001"><ele>102.5</ele><time>2026-05-03T16:12:55.003Z</time></trkpt><trkpt lat="45.4308063" lon="10.7580505"><ele>103.0</ele><time>2026-05-03T16:12:56.013Z</time></trkpt><trkpt lat="45.4309424" lon="10.7580977"><ele>103.5</ele><time>2026-05-03T16:12:57.009Z</time></trkpt><trkpt lat="45.4310867" lon="10.7581366"><ele>104.0</ele><time>2026-05-03T16:12:58.004Z</time></trkpt><trkpt lat="45.4312221" lon="10.7581758"><ele>103.75</ele><time>2026-05-03T16:12:59.008Z</time></trkpt><trkpt lat="45.4313519" lon="10.7582199"><ele>103.5</ele><time>2026-05-03T16:13:00.01Z</time></trkpt><trkpt lat="45.431481" lon="10.7582831"><ele>103.25</ele><time>2026-05-03T16:13:01.008Z</time></trkpt><trkpt lat="45.4316046" lon="10.7583627"><ele>103.0</ele><time>2026-05-03T16:13:02.006Z</time></trkpt><trkpt lat="45.4317172" lon="10.7584475"><ele>103.0</ele><time>2026-05-03T16:13:03.005Z</time></trkpt><trkpt lat="45.4318267" lon="10.758522"><ele>103.0</ele><time>2026-05-03T16:13:04.013Z</time></trkpt><trkpt lat="45.4319386" lon="10.7585915"><ele>103.0</ele><time>2026-05-03T16:13:05.015Z</time></trkpt><trkpt lat="45.432047" lon="10.7586542"><ele>103.0</ele><time>2026-05-03T16:13:06.003Z</time></trkpt><trkpt lat="45.4321519" lon="10.7587221"><ele>103.0</ele><time>2026-05-03T16:13:07.006Z</time></trkpt><trkpt lat="45.4322543" lon="10.7587955"><ele>103.0</ele><time>2026-05-03T16:13:08.015Z</time></trkpt><trkpt lat="45.4323539" lon="10.7588756"><ele>103.0</ele><time>2026-05-03T16:13:09.005Z</time></trkpt><trkpt lat="45.4324531" lon="10.7589634"><ele>103.0</ele><time>2026-05-03T16:13:10.004Z</time></trkpt><trkpt lat="45.4325518" lon="10.7590522"><ele>103.0</ele><time>2026-05-03T16:13:11.023Z</time></trkpt><trkpt lat="45.4326513" lon="10.7591405"><ele>103.0</ele><time>2026-05-03T16:13:12.022Z</time></trkpt><trkpt lat="45.4327528" lon="10.7592306"><ele>103.0</ele><time>2026-05-03T16:13:13.017Z</time></trkpt><trkpt lat="45.4328557" lon="10.7593217"><ele>103.0</ele><time>2026-05-03T16:13:14.015Z</time></trkpt><trkpt lat="45.4329602" lon="10.7594134"><ele>103.0</ele><time>2026-05-03T16:13:15.014Z</time></trkpt><trkpt lat="45.4330651" lon="10.7595065"><ele>103.0</ele><time>2026-05-03T16:13:16.014Z</time></trkpt><trkpt lat="45.4331711" lon="10.7596021"><ele>103.0</ele><time>2026-05-03T16:13:17.026Z</time></trkpt><trkpt lat="45.4332772" lon="10.7596977"><ele>103.0</ele><time>2026-05-03T16:13:18.019Z</time></trkpt><trkpt lat="45.433385" lon="10.7597921"><ele>103.0</ele><time>2026-05-03T16:13:19.015Z</time></trkpt><trkpt lat="45.4334938" lon="10.7598843"><ele>103.0</ele><time>2026-05-03T16:13:20.028Z</time></trkpt><trkpt lat="45.4336048" lon="10.7599653"><ele>103.0</ele><time>2026-05-03T16:13:21.012Z</time></trkpt><trkpt lat="45.4337236" lon="10.7600253"><ele>103.0</ele><time>2026-05-03T16:13:22.018Z</time></trkpt><trkpt lat="45.4338478" lon="10.7600614"><ele>103.25</ele><time>2026-05-03T16:13:23.023Z</time></trkpt><trkpt lat="45.4339741" lon="10.7600759"><ele>103.5</ele><time>2026-05-03T16:13:24.012Z</time></trkpt><trkpt lat="45.4341038" lon="10.7600763"><ele>103.75</ele><time>2026-05-03T16:13:25.023Z</time></trkpt><trkpt lat="45.4342303" lon="10.7600667"><ele>104.0</ele><time>2026-05-03T16:13:26.032Z</time></trkpt><trkpt lat="45.4343533" lon="10.7600551"><ele>104.0</ele><time>2026-05-03T16:13:27.012Z</time></trkpt><trkpt lat="45.4344776" lon="10.7600382"><ele>104.0</ele><time>2026-05-03T16:13:28.008Z</time></trkpt><trkpt lat="45.4345933" lon="10.7600233"><ele>104.0</ele><time>2026-05-03T16:13:29.009Z</time></trkpt><trkpt lat="45.4347033" lon="10.7600095"><ele>104.0</ele><time>2026-05-03T16:13:30.02Z</time></trkpt><trkpt lat="45.4348101" lon="10.7600029"><ele>104.4</ele><time>2026-05-03T16:13:31.009Z</time></trkpt><trkpt lat="45.4349142" lon="10.7600018"><ele>104.80000000000001</ele><time>2026-05-03T16:13:32.007Z</time></trkpt><trkpt lat="45.4350174" lon="10.7600146"><ele>105.19999999999999</ele><time>2026-05-03T16:13:33.009Z</time></trkpt><trkpt lat="45.4351228" lon="10.7600324"><ele>105.6</ele><time>2026-05-03T16:13:34.006Z</time></trkpt><trkpt lat="45.4352316" lon="10.7600563"><ele>106.0</ele><time>2026-05-03T16:13:35.004Z</time></trkpt><trkpt lat="45.4353432" lon="10.7600802"><ele>106.0</ele><time>2026-05-03T16:13:36.009Z</time></trkpt><trkpt lat="45.4354575" lon="10.760105"><ele>106.0</ele><time>2026-05-03T16:13:37.016Z</time></trkpt><trkpt lat="45.4355759" lon="10.7601304"><ele>106.0</ele><time>2026-05-03T16:13:38.005Z</time></trkpt><trkpt lat="45.4356948" lon="10.760153"><ele>106.0</ele><time>2026-05-03T16:13:39.014Z</time></trkpt><trkpt lat="45.4358147" lon="10.7601673"><ele>106.0</ele><time>2026-05-03T16:13:40.006Z</time></trkpt><trkpt lat="45.4359376" lon="10.7601712"><ele>106.0</ele><time>2026-05-03T16:13:41.011Z</time></trkpt><trkpt lat="45.4360655" lon="10.7601652"><ele>106.0</ele><time>2026-05-03T16:13:42.019Z</time></trkpt><trkpt lat="45.4361937" lon="10.7601505"><ele>106.0</ele><time>2026-05-03T16:13:43.01Z</time></trkpt><trkpt lat="45.4363199" lon="10.7601356"><ele>105.5</ele><time>2026-05-03T16:13:44.003Z</time></trkpt><trkpt lat="45.4364421" lon="10.7601184"><ele>105.0</ele><time>2026-05-03T16:13:45.018Z</time></trkpt><trkpt lat="45.4365605" lon="10.7601029"><ele>104.5</ele><time>2026-05-03T16:13:46.025Z</time></trkpt><trkpt lat="45.4366749" lon="10.7600899"><ele>104.0</ele><time>2026-05-03T16:13:47.017Z</time></trkpt><trkpt lat="45.4367879" lon="10.7600803"><ele>104.0</ele><time>2026-05-03T16:13:48.008Z</time></trkpt><trkpt lat="45.4369001" lon="10.7600716"><ele>104.0</ele><time>2026-05-03T16:13:49.02Z</time></trkpt><trkpt lat="45.4370127" lon="10.7600657"><ele>104.0</ele><time>2026-05-03T16:13:50.011Z</time></trkpt><trkpt lat="45.4371242" lon="10.7600652"><ele>104.0</ele><time>2026-05-03T16:13:51.004Z</time></trkpt><trkpt lat="45.4372343" lon="10.7600761"><ele>104.0</ele><time>2026-05-03T16:13:52.014Z</time></trkpt><trkpt lat="45.4373405" lon="10.7601005"><ele>104.2</ele><time>2026-05-03T16:13:53.008Z</time></trkpt><trkpt lat="45.4374404" lon="10.7601383"><ele>104.4</ele><time>2026-05-03T16:13:54.013Z</time></trkpt><trkpt lat="45.4375349" lon="10.7601811"><ele>104.6</ele><time>2026-05-03T16:13:55.022Z</time></trkpt><trkpt lat="45.4376243" lon="10.7602231"><ele>104.8</ele><time>2026-05-03T16:13:56.018Z</time></trkpt><trkpt lat="45.4377074" lon="10.7602636"><ele>105.0</ele><time>2026-05-03T16:13:57.007Z</time></trkpt><trkpt lat="45.4377851" lon="10.7603065"><ele>105.0</ele><time>2026-05-03T16:13:58.008Z</time></trkpt><trkpt lat="45.4378561" lon="10.7603492"><ele>105.0</ele><time>2026-05-03T16:13:59.015Z</time></trkpt><trkpt lat="45.4379197" lon="10.7603885"><ele>105.0</ele><time>2026-05-03T16:14:00.012Z</time></trkpt><trkpt lat="45.4379767" lon="10.7604276"><ele>105.0</ele><time>2026-05-03T16:14:01.007Z</time></trkpt><trkpt lat="45.4380674" lon="10.7605036"><ele>105.0</ele><time>2026-05-03T16:14:03.019Z</time></trkpt><trkpt lat="45.4381485" lon="10.7606179"><ele>105.0</ele><time>2026-05-03T16:14:07.004Z</time></trkpt><trkpt lat="45.4382466" lon="10.7607576"><ele>104.4</ele><time>2026-05-03T16:14:09.019Z</time></trkpt><trkpt lat="45.4383036" lon="10.7608498"><ele>103.8</ele><time>2026-05-03T16:14:10.01Z</time></trkpt><trkpt lat="45.438342" lon="10.7609716"><ele>103.19999999999999</ele><time>2026-05-03T16:14:11.018Z</time></trkpt><trkpt lat="45.4383554" lon="10.7611229"><ele>102.6</ele><time>2026-05-03T16:14:12.022Z</time></trkpt><trkpt lat="45.4383616" lon="10.7612846"><ele>102.0</ele><time>2026-05-03T16:14:13.015Z</time></trkpt><trkpt lat="45.4383715" lon="10.7614513"><ele>102.0</ele><time>2026-05-03T16:14:14.005Z</time></trkpt><trkpt lat="45.438383" lon="10.7616214"><ele>102.0</ele><time>2026-05-03T16:14:15.013Z</time></trkpt><trkpt lat="45.4383927" lon="10.7617896"><ele>102.0</ele><time>2026-05-03T16:14:16.006Z</time></trkpt><trkpt lat="45.4384045" lon="10.7619529"><ele>102.0</ele><time>2026-05-03T16:14:17.007Z</time></trkpt><trkpt lat="45.4384189" lon="10.7621129"><ele>102.0</ele><time>2026-05-03T16:14:18.004Z</time></trkpt><trkpt lat="45.4384362" lon="10.7622703"><ele>102.0</ele><time>2026-05-03T16:14:19.014Z</time></trkpt><trkpt lat="45.4384561" lon="10.7624257"><ele>102.0</ele><time>2026-05-03T16:14:20.011Z</time></trkpt><trkpt lat="45.4384764" lon="10.7625809"><ele>102.0</ele><time>2026-05-03T16:14:21.006Z</time></trkpt><trkpt lat="45.438497" lon="10.7627368"><ele>102.0</ele><time>2026-05-03T16:14:22.007Z</time></trkpt><trkpt lat="45.4385197" lon="10.7628916"><ele>102.0</ele><time>2026-05-03T16:14:23.006Z</time></trkpt><trkpt lat="45.4385425" lon="10.7630452"><ele>102.0</ele><time>2026-05-03T16:14:24.009Z</time></trkpt><trkpt lat="45.4385671" lon="10.7631989"><ele>102.0</ele><time>2026-05-03T16:14:25.009Z</time></trkpt><trkpt lat="45.438592" lon="10.7633543"><ele>102.0</ele><time>2026-05-03T16:14:26.011Z</time></trkpt><trkpt lat="45.4386176" lon="10.7635083"><ele>102.0</ele><time>2026-05-03T16:14:27.01Z</time></trkpt><trkpt lat="45.4386414" lon="10.7636505"><ele>102.0</ele><time>2026-05-03T16:14:28.008Z</time></trkpt><trkpt lat="45.4386622" lon="10.7637797"><ele>102.0</ele><time>2026-05-03T16:14:29.009Z</time></trkpt><trkpt lat="45.4386805" lon="10.7638902"><ele>102.0</ele><time>2026-05-03T16:14:30.008Z</time></trkpt><trkpt lat="45.4386951" lon="10.7639795"><ele>102.0</ele><time>2026-05-03T16:14:31.01Z</time></trkpt><trkpt lat="45.4387143" lon="10.7640947"><ele>102.0</ele><time>2026-05-03T16:14:33.008Z</time></trkpt><trkpt lat="45.4387304" lon="10.764195"><ele>102.0</ele><time>2026-05-03T16:14:55.009Z</time></trkpt><trkpt lat="45.4387564" lon="10.764323"><ele>102.8</ele><time>2026-05-03T16:14:57.028Z</time></trkpt><trkpt lat="45.4387747" lon="10.7644204"><ele>103.6</ele><time>2026-05-03T16:14:58.014Z</time></trkpt><trkpt lat="45.4387986" lon="10.7645411"><ele>104.39999999999999</ele><time>2026-05-03T16:14:59.007Z</time></trkpt><trkpt lat="45.4388287" lon="10.7646844"><ele>105.19999999999999</ele><time>2026-05-03T16:15:00.017Z</time></trkpt><trkpt lat="45.4388622" lon="10.7648407"><ele>106.0</ele><time>2026-05-03T16:15:01.007Z</time></trkpt><trkpt lat="45.4388972" lon="10.7650093"><ele>106.25</ele><time>2026-05-03T16:15:02.01Z</time></trkpt><trkpt lat="45.4389358" lon="10.7651875"><ele>106.5</ele><time>2026-05-03T16:15:03.02Z</time></trkpt><trkpt lat="45.4389771" lon="10.7653701"><ele>106.75</ele><time>2026-05-03T16:15:04.007Z</time></trkpt><trkpt lat="45.4390256" lon="10.7655556"><ele>107.0</ele><time>2026-05-03T16:15:05.002Z</time></trkpt><trkpt lat="45.4390732" lon="10.7657471"><ele>107.5</ele><time>2026-05-03T16:15:06.01Z</time></trkpt><trkpt lat="45.4391225" lon="10.765942"><ele>108.0</ele><time>2026-05-03T16:15:07.014Z</time></trkpt><trkpt lat="45.4391737" lon="10.7661377"><ele>108.5</ele><time>2026-05-03T16:15:08.01Z</time></trkpt><trkpt lat="45.4392278" lon="10.7663341"><ele>109.0</ele><time>2026-05-03T16:15:09.012Z</time></trkpt><trkpt lat="45.439286" lon="10.7665295"><ele>109.75</ele><time>2026-05-03T16:15:10.014Z</time></trkpt><trkpt lat="45.4393482" lon="10.7667223"><ele>110.5</ele><time>2026-05-03T16:15:11.003Z</time></trkpt><trkpt lat="45.4394133" lon="10.7669122"><ele>111.25</ele><time>2026-05-03T16:15:12.018Z</time></trkpt><trkpt lat="45.4394815" lon="10.7670977"><ele>112.0</ele><time>2026-05-03T16:15:13.031Z</time></trkpt><trkpt lat="45.4395521" lon="10.7672813"><ele>112.25</ele><time>2026-05-03T16:15:14.01Z</time></trkpt><trkpt lat="45.439623" lon="10.7674652"><ele>112.5</ele><time>2026-05-03T16:15:15.006Z</time></trkpt><trkpt lat="45.4396937" lon="10.7676486"><ele>112.75</ele><time>2026-05-03T16:15:16Z</time></trkpt><trkpt lat="45.4397646" lon="10.7678329"><ele>113.0</ele><time>2026-05-03T16:15:17.007Z</time></trkpt><trkpt lat="45.4398326" lon="10.7680212"><ele>115.0</ele><time>2026-05-03T16:15:18.014Z</time></trkpt><trkpt lat="45.4398946" lon="10.7682174"><ele>117.0</ele><time>2026-05-03T16:15:19.008Z</time></trkpt><trkpt lat="45.4399515" lon="10.7684214"><ele>119.0</ele><time>2026-05-03T16:15:20.008Z</time></trkpt><trkpt lat="45.4400051" lon="10.7686318"><ele>119.66666666666666</ele><time>2026-05-03T16:15:21.009Z</time></trkpt><trkpt lat="45.4400576" lon="10.7688478"><ele>120.33333333333334</ele><time>2026-05-03T16:15:22.011Z</time></trkpt><trkpt lat="45.4401091" lon="10.7690652"><ele>121.0</ele><time>2026-05-03T16:15:23.013Z</time></trkpt><trkpt lat="45.4401608" lon="10.769291"><ele>120.66666666666667</ele><time>2026-05-03T16:15:24.006Z</time></trkpt><trkpt lat="45.4402135" lon="10.769523"><ele>120.33333333333334</ele><time>2026-05-03T16:15:25.011Z</time></trkpt><trkpt lat="45.4402676" lon="10.769758"><ele>120.0</ele><time>2026-05-03T16:15:26.019Z</time></trkpt><trkpt lat="45.4403227" lon="10.769994"><ele>119.33333333333334</ele><time>2026-05-03T16:15:27.01Z</time></trkpt><trkpt lat="45.440379" lon="10.7702304"><ele>118.66666666666667</ele><time>2026-05-03T16:15:28.012Z</time></trkpt><trkpt lat="45.4404357" lon="10.7704656"><ele>118.0</ele><time>2026-05-03T16:15:29.008Z</time></trkpt><trkpt lat="45.4404925" lon="10.7706963"><ele>118.0</ele><time>2026-05-03T16:15:30.013Z</time></trkpt><trkpt lat="45.4405486" lon="10.7709228"><ele>118.0</ele><time>2026-05-03T16:15:31.015Z</time></trkpt><trkpt lat="45.4406007" lon="10.7711486"><ele>118.0</ele><time>2026-05-03T16:15:32.011Z</time></trkpt><trkpt lat="45.4406448" lon="10.7713773"><ele>117.66666666666667</ele><time>2026-05-03T16:15:33.019Z</time></trkpt><trkpt lat="45.4406852" lon="10.7715926"><ele>117.33333333333334</ele><time>2026-05-03T16:15:34.007Z</time></trkpt><trkpt lat="45.4406973" lon="10.7718274"><ele>117.0</ele><time>2026-05-03T16:15:35.017Z</time></trkpt><trkpt lat="45.4406822" lon="10.7720635"><ele>115.66666666666666</ele><time>2026-05-03T16:15:36.01Z</time></trkpt><trkpt lat="45.4406617" lon="10.7723166"><ele>114.33333333333333</ele><time>2026-05-03T16:15:37.017Z</time></trkpt><trkpt lat="45.4406424" lon="10.7725607"><ele>113.0</ele><time>2026-05-03T16:15:38.008Z</time></trkpt><trkpt lat="45.4406251" lon="10.7728041"><ele>113.0</ele><time>2026-05-03T16:15:39.009Z</time></trkpt><trkpt lat="45.4406032" lon="10.7730462"><ele>113.0</ele><time>2026-05-03T16:15:40.011Z</time></trkpt><trkpt lat="45.4405794" lon="10.773285"><ele>113.0</ele><time>2026-05-03T16:15:41.012Z</time></trkpt><trkpt lat="45.4405562" lon="10.7735216"><ele>113.0</ele><time>2026-05-03T16:15:42.012Z</time></trkpt><trkpt lat="45.4405344" lon="10.7737563"><ele>113.0</ele><time>2026-05-03T16:15:43.015Z</time></trkpt><trkpt lat="45.4405124" lon="10.7739866"><ele>113.0</ele><time>2026-05-03T16:15:44.008Z</time></trkpt><trkpt lat="45.4404919" lon="10.7742128"><ele>113.0</ele><time>2026-05-03T16:15:45.009Z</time></trkpt><trkpt lat="45.4404716" lon="10.7744381"><ele>113.0</ele><time>2026-05-03T16:15:46.01Z</time></trkpt><trkpt lat="45.4404524" lon="10.7746588"><ele>113.0</ele><time>2026-05-03T16:15:47.01Z</time></trkpt><trkpt lat="45.4404332" lon="10.7748763"><ele>113.0</ele><time>2026-05-03T16:15:48.013Z</time></trkpt><trkpt lat="45.4404153" lon="10.7750831"><ele>113.0</ele><time>2026-05-03T16:15:49.007Z</time></trkpt><trkpt lat="45.4403968" lon="10.7752773"><ele>113.0</ele><time>2026-05-03T16:15:50.012Z</time></trkpt><trkpt lat="45.4403798" lon="10.7754667"><ele>113.0</ele><time>2026-05-03T16:15:51.015Z</time></trkpt><trkpt lat="45.4403623" lon="10.7756565"><ele>113.75</ele><time>2026-05-03T16:15:52.008Z</time></trkpt><trkpt lat="45.4403451" lon="10.7758506"><ele>114.5</ele><time>2026-05-03T16:15:53.012Z</time></trkpt><trkpt lat="45.4403279" lon="10.776051"><ele>115.25</ele><time>2026-05-03T16:15:54.019Z</time></trkpt><trkpt lat="45.4403101" lon="10.7762562"><ele>116.0</ele><time>2026-05-03T16:15:55.012Z</time></trkpt><trkpt lat="45.4402915" lon="10.7764654"><ele>116.33333333333333</ele><time>2026-05-03T16:15:56.016Z</time></trkpt><trkpt lat="45.4402725" lon="10.7766785"><ele>116.66666666666666</ele><time>2026-05-03T16:15:57.01Z</time></trkpt><trkpt lat="45.4402526" lon="10.7768932"><ele>117.0</ele><time>2026-05-03T16:15:58.015Z</time></trkpt><trkpt lat="45.4402328" lon="10.7771092"><ele>117.5</ele><time>2026-05-03T16:15:59.009Z</time></trkpt><trkpt lat="45.4402133" lon="10.7773245"><ele>118.0</ele><time>2026-05-03T16:16:00.015Z</time></trkpt><trkpt lat="45.4401947" lon="10.7775372"><ele>118.5</ele><time>2026-05-03T16:16:01.007Z</time></trkpt><trkpt lat="45.4401761" lon="10.777743"><ele>119.0</ele><time>2026-05-03T16:16:02.003Z</time></trkpt><trkpt lat="45.4401574" lon="10.7779426"><ele>119.75</ele><time>2026-05-03T16:16:03.011Z</time></trkpt><trkpt lat="45.4401406" lon="10.7781407"><ele>120.5</ele><time>2026-05-03T16:16:04.014Z</time></trkpt><trkpt lat="45.4401237" lon="10.7783378"><ele>121.25</ele><time>2026-05-03T16:16:05.015Z</time></trkpt><trkpt lat="45.4401062" lon="10.7785338"><ele>122.0</ele><time>2026-05-03T16:16:06.008Z</time></trkpt><trkpt lat="45.4400889" lon="10.7787306"><ele>122.0</ele><time>2026-05-03T16:16:07.007Z</time></trkpt><trkpt lat="45.4400722" lon="10.7789288"><ele>122.0</ele><time>2026-05-03T16:16:08.006Z</time></trkpt><trkpt lat="45.4400547" lon="10.779128"><ele>122.0</ele><time>2026-05-03T16:16:09.014Z</time></trkpt><trkpt lat="45.4400346" lon="10.7793273"><ele>122.0</ele><time>2026-05-03T16:16:10.014Z</time></trkpt><trkpt lat="45.4400151" lon="10.7795269"><ele>121.75</ele><time>2026-05-03T16:16:11.011Z</time></trkpt><trkpt lat="45.4399962" lon="10.7797276"><ele>121.5</ele><time>2026-05-03T16:16:12.01Z</time></trkpt><trkpt lat="45.4399775" lon="10.7799299"><ele>121.25</ele><time>2026-05-03T16:16:13.006Z</time></trkpt><trkpt lat="45.4399606" lon="10.7801322"><ele>121.0</ele><time>2026-05-03T16:16:14Z</time></trkpt><trkpt lat="45.439945" lon="10.7803341"><ele>121.0</ele><time>2026-05-03T16:16:15.009Z</time></trkpt><trkpt lat="45.4399311" lon="10.7805372"><ele>121.0</ele><time>2026-05-03T16:16:16.013Z</time></trkpt><trkpt lat="45.4399183" lon="10.7807415"><ele>121.0</ele><time>2026-05-03T16:16:17.014Z</time></trkpt><trkpt lat="45.4399042" lon="10.7809464"><ele>121.0</ele><time>2026-05-03T16:16:18.016Z</time></trkpt><trkpt lat="45.4398882" lon="10.781152"><ele>121.25</ele><time>2026-05-03T16:16:19.011Z</time></trkpt><trkpt lat="45.4398724" lon="10.7813597"><ele>121.5</ele><time>2026-05-03T16:16:20.014Z</time></trkpt><trkpt lat="45.439857" lon="10.7815689"><ele>121.75</ele><time>2026-05-03T16:16:21.01Z</time></trkpt><trkpt lat="45.4398422" lon="10.7817786"><ele>122.0</ele><time>2026-05-03T16:16:22.015Z</time></trkpt><trkpt lat="45.4398282" lon="10.7819896"><ele>122.5</ele><time>2026-05-03T16:16:23.006Z</time></trkpt><trkpt lat="45.4398157" lon="10.7822007"><ele>123.0</ele><time>2026-05-03T16:16:24.01Z</time></trkpt><trkpt lat="45.4398049" lon="10.7824123"><ele>123.5</ele><time>2026-05-03T16:16:25.004Z</time></trkpt><trkpt lat="45.4397956" lon="10.7826239"><ele>124.0</ele><time>2026-05-03T16:16:26.011Z</time></trkpt><trkpt lat="45.4397868" lon="10.7828362"><ele>124.66666666666667</ele><time>2026-05-03T16:16:27.008Z</time></trkpt><trkpt lat="45.4397759" lon="10.783051"><ele>125.33333333333334</ele><time>2026-05-03T16:16:28.004Z</time></trkpt><trkpt lat="45.4397608" lon="10.783269"><ele>126.0</ele><time>2026-05-03T16:16:29.003Z</time></trkpt><trkpt lat="45.4397412" lon="10.7834905"><ele>126.0</ele><time>2026-05-03T16:16:30.006Z</time></trkpt><trkpt lat="45.4397176" lon="10.7837155"><ele>126.0</ele><time>2026-05-03T16:16:31.009Z</time></trkpt><trkpt lat="45.4396913" lon="10.7839435"><ele>126.0</ele><time>2026-05-03T16:16:32.005Z</time></trkpt><trkpt lat="45.439663" lon="10.7841746"><ele>127.33333333333334</ele><time>2026-05-03T16:16:33.004Z</time></trkpt><trkpt lat="45.4396342" lon="10.7844071"><ele>128.66666666666669</ele><time>2026-05-03T16:16:34.005Z</time></trkpt><trkpt lat="45.4396047" lon="10.7846409"><ele>130.0</ele><time>2026-05-03T16:16:35.006Z</time></trkpt><trkpt lat="45.4395746" lon="10.7848756"><ele>130.0</ele><time>2026-05-03T16:16:36.003Z</time></trkpt><trkpt lat="45.4395454" lon="10.7851114"><ele>130.0</ele><time>2026-05-03T16:16:37.009Z</time></trkpt><trkpt lat="45.4395185" lon="10.785348"><ele>130.0</ele><time>2026-05-03T16:16:38.014Z</time></trkpt><trkpt lat="45.4394948" lon="10.7855852"><ele>130.0</ele><time>2026-05-03T16:16:39.005Z</time></trkpt><trkpt lat="45.4394751" lon="10.7858224"><ele>130.0</ele><time>2026-05-03T16:16:40.007Z</time></trkpt><trkpt lat="45.4394601" lon="10.7860587"><ele>130.0</ele><time>2026-05-03T16:16:41.015Z</time></trkpt><trkpt lat="45.4394584" lon="10.7862927"><ele>129.0</ele><time>2026-05-03T16:16:42.017Z</time></trkpt><trkpt lat="45.4394704" lon="10.7865227"><ele>128.0</ele><time>2026-05-03T16:16:43.014Z</time></trkpt><trkpt lat="45.4394972" lon="10.7867425"><ele>127.0</ele><time>2026-05-03T16:16:44.007Z</time></trkpt><trkpt lat="45.4395325" lon="10.7869593"><ele>127.0</ele><time>2026-05-03T16:16:45.016Z</time></trkpt><trkpt lat="45.4395727" lon="10.7871744"><ele>127.0</ele><time>2026-05-03T16:16:46.015Z</time></trkpt><trkpt lat="45.4396136" lon="10.78739"><ele>127.0</ele><time>2026-05-03T16:16:47.019Z</time></trkpt><trkpt lat="45.4396557" lon="10.7876046"><ele>129.66666666666669</ele><time>2026-05-03T16:16:48.012Z</time></trkpt><trkpt lat="45.4396997" lon="10.7878179"><ele>132.33333333333334</ele><time>2026-05-03T16:16:49.011Z</time></trkpt><trkpt lat="45.4397458" lon="10.7880298"><ele>135.0</ele><time>2026-05-03T16:16:50.012Z</time></trkpt><trkpt lat="45.4397956" lon="10.7882384"><ele>135.0</ele><time>2026-05-03T16:16:51.008Z</time></trkpt><trkpt lat="45.4398506" lon="10.7884424"><ele>135.0</ele><time>2026-05-03T16:16:52.003Z</time></trkpt><trkpt lat="45.439911" lon="10.7886406"><ele>135.0</ele><time>2026-05-03T16:16:53.005Z</time></trkpt><trkpt lat="45.4399733" lon="10.7888353"><ele>135.5</ele><time>2026-05-03T16:16:54.009Z</time></trkpt><trkpt lat="45.4400355" lon="10.7890271"><ele>136.0</ele><time>2026-05-03T16:16:55.003Z</time></trkpt><trkpt lat="45.4400977" lon="10.789217"><ele>136.5</ele><time>2026-05-03T16:16:56.004Z</time></trkpt><trkpt lat="45.4401605" lon="10.7894053"><ele>137.0</ele><time>2026-05-03T16:16:57.005Z</time></trkpt><trkpt lat="45.4402211" lon="10.789592"><ele>137.25</ele><time>2026-05-03T16:16:58.012Z</time></trkpt><trkpt lat="45.4402821" lon="10.7897773"><ele>137.5</ele><time>2026-05-03T16:16:59.015Z</time></trkpt><trkpt lat="45.4403424" lon="10.7899617"><ele>137.75</ele><time>2026-05-03T16:17:00.011Z</time></trkpt><trkpt lat="45.4403981" lon="10.7901485"><ele>138.0</ele><time>2026-05-03T16:17:01.008Z</time></trkpt><trkpt lat="45.4404443" lon="10.7903403"><ele>138.0</ele><time>2026-05-03T16:17:02.016Z</time></trkpt><trkpt lat="45.4404726" lon="10.7905386"><ele>138.0</ele><time>2026-05-03T16:17:03.005Z</time></trkpt><trkpt lat="45.4404783" lon="10.7907417"><ele>138.0</ele><time>2026-05-03T16:17:04.005Z</time></trkpt><trkpt lat="45.4404659" lon="10.7909491"><ele>138.0</ele><time>2026-05-03T16:17:05.01Z</time></trkpt><trkpt lat="45.4404453" lon="10.7911619"><ele>138.66666666666666</ele><time>2026-05-03T16:17:06.014Z</time></trkpt><trkpt lat="45.4404215" lon="10.7913794"><ele>139.33333333333331</ele><time>2026-05-03T16:17:07.007Z</time></trkpt><trkpt lat="45.4403959" lon="10.7915986"><ele>140.0</ele><time>2026-05-03T16:17:08.009Z</time></trkpt><trkpt lat="45.4403697" lon="10.7918192"><ele>140.66666666666666</ele><time>2026-05-03T16:17:09.003Z</time></trkpt><trkpt lat="45.4403436" lon="10.7920377"><ele>141.33333333333334</ele><time>2026-05-03T16:17:10.002Z</time></trkpt><trkpt lat="45.4403179" lon="10.7922541"><ele>142.0</ele><time>2026-05-03T16:17:11.003Z</time></trkpt><trkpt lat="45.4402916" lon="10.7924674"><ele>142.5</ele><time>2026-05-03T16:17:12.005Z</time></trkpt><trkpt lat="45.4402639" lon="10.7926779"><ele>143.0</ele><time>2026-05-03T16:17:13.001Z</time></trkpt><trkpt lat="45.4402341" lon="10.7928855"><ele>143.5</ele><time>2026-05-03T16:17:14.001Z</time></trkpt><trkpt lat="45.4402062" lon="10.7930822"><ele>144.0</ele><time>2026-05-03T16:17:15.007Z</time></trkpt><trkpt lat="45.4401809" lon="10.7932638"><ele>144.0</ele><time>2026-05-03T16:17:16.008Z</time></trkpt><trkpt lat="45.4401582" lon="10.7934297"><ele>144.0</ele><time>2026-05-03T16:17:17.008Z</time></trkpt><trkpt lat="45.4401374" lon="10.7935826"><ele>144.0</ele><time>2026-05-03T16:17:18Z</time></trkpt><trkpt lat="45.4401198" lon="10.7937193"><ele>144.0</ele><time>2026-05-03T16:17:19.023Z</time></trkpt><trkpt lat="45.4401037" lon="10.7938391"><ele>144.0</ele><time>2026-05-03T16:17:20.018Z</time></trkpt><trkpt lat="45.4400901" lon="10.7939382"><ele>144.66666666666666</ele><time>2026-05-03T16:17:21.008Z</time></trkpt><trkpt lat="45.4400745" lon="10.7940649"><ele>145.33333333333334</ele><time>2026-05-03T16:17:23.006Z</time></trkpt><trkpt lat="45.4401225" lon="10.7941589"><ele>146.0</ele><time>2026-05-03T16:17:37.022Z</time></trkpt><trkpt lat="45.4401883" lon="10.7941834"><ele>146.66666666666669</ele><time>2026-05-03T16:17:38.023Z</time></trkpt><trkpt lat="45.4402698" lon="10.7942035"><ele>147.33333333333334</ele><time>2026-05-03T16:17:39.008Z</time></trkpt><trkpt lat="45.4403605" lon="10.7942487"><ele>148.0</ele><time>2026-05-03T16:17:40.009Z</time></trkpt><trkpt lat="45.44046" lon="10.794312"><ele>149.5</ele><time>2026-05-03T16:17:41.013Z</time></trkpt><trkpt lat="45.4405578" lon="10.7943916"><ele>151.0</ele><time>2026-05-03T16:17:42.008Z</time></trkpt><trkpt lat="45.440658" lon="10.7944757"><ele>152.5</ele><time>2026-05-03T16:17:43.011Z</time></trkpt><trkpt lat="45.4407331" lon="10.7946034"><ele>154.0</ele><time>2026-05-03T16:17:44.01Z</time></trkpt><trkpt lat="45.4407929" lon="10.7947555"><ele>154.0</ele><time>2026-05-03T16:17:45.009Z</time></trkpt><trkpt lat="45.4408528" lon="10.7949114"><ele>154.0</ele><time>2026-05-03T16:17:46.019Z</time></trkpt><trkpt lat="45.4409105" lon="10.7950718"><ele>154.0</ele><time>2026-05-03T16:17:47.008Z</time></trkpt><trkpt lat="45.4409726" lon="10.7952326"><ele>154.0</ele><time>2026-05-03T16:17:48.009Z</time></trkpt><trkpt lat="45.441035" lon="10.7953894"><ele>154.75</ele><time>2026-05-03T16:17:49.005Z</time></trkpt><trkpt lat="45.4410904" lon="10.7955468"><ele>155.5</ele><time>2026-05-03T16:17:50Z</time></trkpt><trkpt lat="45.4411407" lon="10.7957028"><ele>156.25</ele><time>2026-05-03T16:17:51.004Z</time></trkpt><trkpt lat="45.4412071" lon="10.79584"><ele>157.0</ele><time>2026-05-03T16:17:52.004Z</time></trkpt><trkpt lat="45.4412904" lon="10.795954"><ele>158.5</ele><time>2026-05-03T16:17:53.01Z</time></trkpt><trkpt lat="45.4413846" lon="10.7960542"><ele>160.0</ele><time>2026-05-03T16:17:54.009Z</time></trkpt><trkpt lat="45.4414806" lon="10.7961525"><ele>161.5</ele><time>2026-05-03T16:17:55.014Z</time></trkpt><trkpt lat="45.4415763" lon="10.7962531"><ele>163.0</ele><time>2026-05-03T16:17:56.004Z</time></trkpt><trkpt lat="45.4416693" lon="10.7963594"><ele>163.0</ele><time>2026-05-03T16:17:57.007Z</time></trkpt><trkpt lat="45.4417571" lon="10.7964789"><ele>163.0</ele><time>2026-05-03T16:17:58.009Z</time></trkpt><trkpt lat="45.4418381" lon="10.796614"><ele>163.0</ele><time>2026-05-03T16:17:59.005Z</time></trkpt><trkpt lat="45.4419127" lon="10.7967638"><ele>163.0</ele><time>2026-05-03T16:18:00.009Z</time></trkpt><trkpt lat="45.441987" lon="10.796923"><ele>162.75</ele><time>2026-05-03T16:18:01.002Z</time></trkpt><trkpt lat="45.4420626" lon="10.7970846"><ele>162.5</ele><time>2026-05-03T16:18:02.006Z</time></trkpt><trkpt lat="45.4421423" lon="10.7972505"><ele>162.25</ele><time>2026-05-03T16:18:03.005Z</time></trkpt><trkpt lat="45.4422221" lon="10.7974215"><ele>162.0</ele><time>2026-05-03T16:18:04.003Z</time></trkpt><trkpt lat="45.4423035" lon="10.7975968"><ele>163.33333333333334</ele><time>2026-05-03T16:18:05.011Z</time></trkpt><trkpt lat="45.4423886" lon="10.797772"><ele>164.66666666666669</ele><time>2026-05-03T16:18:06.006Z</time></trkpt><trkpt lat="45.4424787" lon="10.7979445"><ele>166.0</ele><time>2026-05-03T16:18:07.01Z</time></trkpt><trkpt lat="45.4425732" lon="10.7981133"><ele>166.0</ele><time>2026-05-03T16:18:08.006Z</time></trkpt><trkpt lat="45.4426687" lon="10.7982801"><ele>166.0</ele><time>2026-05-03T16:18:09.001Z</time></trkpt><trkpt lat="45.4427616" lon="10.7984495"><ele>166.0</ele><time>2026-05-03T16:18:10.006Z</time></trkpt><trkpt lat="45.4428461" lon="10.7986251"><ele>166.0</ele><time>2026-05-03T16:18:11.019Z</time></trkpt><trkpt lat="45.4429194" lon="10.7988071"><ele>166.0</ele><time>2026-05-03T16:18:12.007Z</time></trkpt><trkpt lat="45.4429819" lon="10.7989936"><ele>166.0</ele><time>2026-05-03T16:18:13.013Z</time></trkpt><trkpt lat="45.4430351" lon="10.7991812"><ele>166.0</ele><time>2026-05-03T16:18:14.003Z</time></trkpt><trkpt lat="45.4430915" lon="10.7993609"><ele>167.0</ele><time>2026-05-03T16:18:15.009Z</time></trkpt><trkpt lat="45.443163" lon="10.7995232"><ele>168.0</ele><time>2026-05-03T16:18:16.013Z</time></trkpt><trkpt lat="45.4432544" lon="10.7996574"><ele>169.0</ele><time>2026-05-03T16:18:17.009Z</time></trkpt><trkpt lat="45.4433639" lon="10.7997645"><ele>170.0</ele><time>2026-05-03T16:18:18.017Z</time></trkpt><trkpt lat="45.443482" lon="10.7998638"><ele>170.0</ele><time>2026-05-03T16:18:19.014Z</time></trkpt><trkpt lat="45.4436033" lon="10.7999637"><ele>170.0</ele><time>2026-05-03T16:18:20.012Z</time></trkpt><trkpt lat="45.4437262" lon="10.8000644"><ele>170.0</ele><time>2026-05-03T16:18:21.015Z</time></trkpt><trkpt lat="45.443849" lon="10.8001657"><ele>170.0</ele><time>2026-05-03T16:18:22.027Z</time></trkpt><trkpt lat="45.4439728" lon="10.8002657"><ele>171.25</ele><time>2026-05-03T16:18:23.019Z</time></trkpt><trkpt lat="45.4440973" lon="10.8003662"><ele>172.5</ele><time>2026-05-03T16:18:24.018Z</time></trkpt><trkpt lat="45.4442219" lon="10.8004666"><ele>173.75</ele><time>2026-05-03T16:18:25.003Z</time></trkpt><trkpt lat="45.4443453" lon="10.8005663"><ele>175.0</ele><time>2026-05-03T16:18:26.011Z</time></trkpt><trkpt lat="45.4444657" lon="10.800669"><ele>175.0</ele><time>2026-05-03T16:18:27.01Z</time></trkpt><trkpt lat="45.4445811" lon="10.8007798"><ele>175.0</ele><time>2026-05-03T16:18:28.017Z</time></trkpt><trkpt lat="45.4446892" lon="10.8009021"><ele>175.0</ele><time>2026-05-03T16:18:29.008Z</time></trkpt><trkpt lat="45.4447884" lon="10.801037"><ele>175.0</ele><time>2026-05-03T16:18:30.009Z</time></trkpt><trkpt lat="45.4448837" lon="10.8011783"><ele>175.25</ele><time>2026-05-03T16:18:31.021Z</time></trkpt><trkpt lat="45.4449768" lon="10.801324"><ele>175.5</ele><time>2026-05-03T16:18:32.018Z</time></trkpt><trkpt lat="45.4450685" lon="10.8014711"><ele>175.75</ele><time>2026-05-03T16:18:33.012Z</time></trkpt><trkpt lat="45.4451592" lon="10.8016167"><ele>176.0</ele><time>2026-05-03T16:18:34.012Z</time></trkpt><trkpt lat="45.4452473" lon="10.8017624"><ele>176.25</ele><time>2026-05-03T16:18:35.007Z</time></trkpt><trkpt lat="45.4453371" lon="10.8019031"><ele>176.5</ele><time>2026-05-03T16:18:36.009Z</time></trkpt><trkpt lat="45.4454318" lon="10.8020359"><ele>176.75</ele><time>2026-05-03T16:18:37.019Z</time></trkpt><trkpt lat="45.4455315" lon="10.802161"><ele>177.0</ele><time>2026-05-03T16:18:38.021Z</time></trkpt><trkpt lat="45.4456335" lon="10.8022836"><ele>177.0</ele><time>2026-05-03T16:18:39.01Z</time></trkpt><trkpt lat="45.4457323" lon="10.8024145"><ele>177.0</ele><time>2026-05-03T16:18:40Z</time></trkpt><trkpt lat="45.4458231" lon="10.802559"><ele>177.0</ele><time>2026-05-03T16:18:41.014Z</time></trkpt><trkpt lat="45.4459024" lon="10.8027189"><ele>177.0</ele><time>2026-05-03T16:18:42.005Z</time></trkpt><trkpt lat="45.4459756" lon="10.8028891"><ele>175.0</ele><time>2026-05-03T16:18:43.017Z</time></trkpt><trkpt lat="45.4460476" lon="10.8030651"><ele>173.0</ele><time>2026-05-03T16:18:44.008Z</time></trkpt><trkpt lat="45.4461206" lon="10.8032453"><ele>171.0</ele><time>2026-05-03T16:18:45.019Z</time></trkpt><trkpt lat="45.4461933" lon="10.8034291"><ele>169.0</ele><time>2026-05-03T16:18:46.017Z</time></trkpt><trkpt lat="45.4462661" lon="10.8036149"><ele>169.33333333333334</ele><time>2026-05-03T16:18:47.013Z</time></trkpt><trkpt lat="45.4463375" lon="10.8038035"><ele>169.66666666666666</ele><time>2026-05-03T16:18:48.008Z</time></trkpt><trkpt lat="45.4464027" lon="10.8039976"><ele>170.0</ele><time>2026-05-03T16:18:49.013Z</time></trkpt><trkpt lat="45.4464556" lon="10.8041991"><ele>168.5</ele><time>2026-05-03T16:18:50.016Z</time></trkpt><trkpt lat="45.4464938" lon="10.8044057"><ele>167.0</ele><time>2026-05-03T16:18:51.002Z</time></trkpt><trkpt lat="45.4465192" lon="10.8046127"><ele>165.5</ele><time>2026-05-03T16:18:52.01Z</time></trkpt><trkpt lat="45.4465425" lon="10.8048107"><ele>164.0</ele><time>2026-05-03T16:18:53.01Z</time></trkpt><trkpt lat="45.4465737" lon="10.8049942"><ele>164.0</ele><time>2026-05-03T16:18:54.004Z</time></trkpt><trkpt lat="45.4466244" lon="10.8051614"><ele>164.0</ele><time>2026-05-03T16:18:55.004Z</time></trkpt><trkpt lat="45.4467004" lon="10.8053069"><ele>164.0</ele><time>2026-05-03T16:18:56.008Z</time></trkpt><trkpt lat="45.4467932" lon="10.805436"><ele>164.0</ele><time>2026-05-03T16:18:57.013Z</time></trkpt><trkpt lat="45.4468909" lon="10.8055649"><ele>164.5</ele><time>2026-05-03T16:18:58.019Z</time></trkpt><trkpt lat="45.4469856" lon="10.8057041"><ele>165.0</ele><time>2026-05-03T16:18:59.001Z</time></trkpt><trkpt lat="45.4470746" lon="10.8058566"><ele>165.5</ele><time>2026-05-03T16:19:00.003Z</time></trkpt><trkpt lat="45.4471573" lon="10.806021"><ele>166.0</ele><time>2026-05-03T16:19:01.004Z</time></trkpt><trkpt lat="45.4472354" lon="10.8061915"><ele>166.25</ele><time>2026-05-03T16:19:02.013Z</time></trkpt><trkpt lat="45.4473141" lon="10.8063616"><ele>166.5</ele><time>2026-05-03T16:19:03.013Z</time></trkpt><trkpt lat="45.4473989" lon="10.8065258"><ele>166.75</ele><time>2026-05-03T16:19:04.016Z</time></trkpt><trkpt lat="45.447491" lon="10.8066806"><ele>167.0</ele><time>2026-05-03T16:19:05.01Z</time></trkpt><trkpt lat="45.4475905" lon="10.8068226"><ele>168.0</ele><time>2026-05-03T16:19:06.026Z</time></trkpt><trkpt lat="45.4476928" lon="10.806953"><ele>169.0</ele><time>2026-05-03T16:19:07.014Z</time></trkpt><trkpt lat="45.4477905" lon="10.8070757"><ele>170.0</ele><time>2026-05-03T16:19:08.006Z</time></trkpt><trkpt lat="45.4478805" lon="10.8071999"><ele>171.0</ele><time>2026-05-03T16:19:09.003Z</time></trkpt><trkpt lat="45.4479584" lon="10.8073398"><ele>169.75</ele><time>2026-05-03T16:19:10.02Z</time></trkpt><trkpt lat="45.4480199" lon="10.8074996"><ele>168.5</ele><time>2026-05-03T16:19:11.01Z</time></trkpt><trkpt lat="45.448067" lon="10.8076741"><ele>167.25</ele><time>2026-05-03T16:19:12.009Z</time></trkpt><trkpt lat="45.4481039" lon="10.807858"><ele>166.0</ele><time>2026-05-03T16:19:13.013Z</time></trkpt><trkpt lat="45.4481324" lon="10.8080476"><ele>166.0</ele><time>2026-05-03T16:19:14.019Z</time></trkpt><trkpt lat="45.4481468" lon="10.8082419"><ele>166.0</ele><time>2026-05-03T16:19:15.013Z</time></trkpt><trkpt lat="45.4481369" lon="10.808434"><ele>166.0</ele><time>2026-05-03T16:19:16.019Z</time></trkpt><trkpt lat="45.4481067" lon="10.8086161"><ele>166.0</ele><time>2026-05-03T16:19:17.016Z</time></trkpt><trkpt lat="45.4480746" lon="10.8087832"><ele>165.5</ele><time>2026-05-03T16:19:18.012Z</time></trkpt><trkpt lat="45.4480564" lon="10.808941"><ele>165.0</ele><time>2026-05-03T16:19:19.009Z</time></trkpt><trkpt lat="45.4480683" lon="10.8090928"><ele>164.5</ele><time>2026-05-03T16:19:20.012Z</time></trkpt><trkpt lat="45.4481135" lon="10.8092375"><ele>164.0</ele><time>2026-05-03T16:19:21.018Z</time></trkpt><trkpt lat="45.4481804" lon="10.8093797"><ele>163.75</ele><time>2026-05-03T16:19:22.018Z</time></trkpt><trkpt lat="45.4482552" lon="10.8095263"><ele>163.5</ele><time>2026-05-03T16:19:23.006Z</time></trkpt><trkpt lat="45.4483329" lon="10.8096796"><ele>163.25</ele><time>2026-05-03T16:19:24.012Z</time></trkpt><trkpt lat="45.4484107" lon="10.8098186"><ele>163.0</ele><time>2026-05-03T16:19:25.013Z</time></trkpt><trkpt lat="45.4484897" lon="10.8099783"><ele>163.0</ele><time>2026-05-03T16:19:26.005Z</time></trkpt><trkpt lat="45.4485664" lon="10.8101349"><ele>163.0</ele><time>2026-05-03T16:19:27.006Z</time></trkpt><trkpt lat="45.4486426" lon="10.8102892"><ele>163.0</ele><time>2026-05-03T16:19:28.01Z</time></trkpt><trkpt lat="45.4487194" lon="10.810441"><ele>163.0</ele><time>2026-05-03T16:19:29.004Z</time></trkpt><trkpt lat="45.4487965" lon="10.8105887"><ele>163.75</ele><time>2026-05-03T16:19:30.009Z</time></trkpt><trkpt lat="45.4488703" lon="10.8107295"><ele>164.5</ele><time>2026-05-03T16:19:31.013Z</time></trkpt><trkpt lat="45.4489416" lon="10.810865"><ele>165.25</ele><time>2026-05-03T16:19:32.011Z</time></trkpt><trkpt lat="45.4490088" lon="10.8109947"><ele>166.0</ele><time>2026-05-03T16:19:33.012Z</time></trkpt><trkpt lat="45.449068" lon="10.8111164"><ele>166.33333333333334</ele><time>2026-05-03T16:19:34.017Z</time></trkpt><trkpt lat="45.4491183" lon="10.8112319"><ele>166.66666666666669</ele><time>2026-05-03T16:19:35.003Z</time></trkpt><trkpt lat="45.449162" lon="10.8113372"><ele>167.0</ele><time>2026-05-03T16:19:36.002Z</time></trkpt><trkpt lat="45.4492001" lon="10.8114311"><ele>167.33333333333334</ele><time>2026-05-03T16:19:37.015Z</time></trkpt><trkpt lat="45.4492299" lon="10.8115142"><ele>167.66666666666666</ele><time>2026-05-03T16:19:38.014Z</time></trkpt><trkpt lat="45.4492719" lon="10.8116347"><ele>168.0</ele><time>2026-05-03T16:19:40.003Z</time></trkpt><trkpt lat="45.4493282" lon="10.81174"><ele>168.5</ele><time>2026-05-03T16:19:44.002Z</time></trkpt><trkpt lat="45.4493475" lon="10.8118839"><ele>169.0</ele><time>2026-05-03T16:19:46.019Z</time></trkpt><trkpt lat="45.4493577" lon="10.8119906"><ele>169.5</ele><time>2026-05-03T16:19:47.015Z</time></trkpt><trkpt lat="45.4493682" lon="10.8121072"><ele>170.0</ele><time>2026-05-03T16:19:48.003Z</time></trkpt><trkpt lat="45.4493769" lon="10.8122341"><ele>170.5</ele><time>2026-05-03T16:19:49.012Z</time></trkpt><trkpt lat="45.4493813" lon="10.8123559"><ele>171.0</ele><time>2026-05-03T16:19:50.012Z</time></trkpt><trkpt lat="45.4493814" lon="10.8124729"><ele>171.0</ele><time>2026-05-03T16:19:51.007Z</time></trkpt><trkpt lat="45.4493777" lon="10.8125868"><ele>171.0</ele><time>2026-05-03T16:19:52.005Z</time></trkpt><trkpt lat="45.4493701" lon="10.8126986"><ele>171.0</ele><time>2026-05-03T16:19:53.015Z</time></trkpt><trkpt lat="45.4493556" lon="10.8128104"><ele>171.0</ele><time>2026-05-03T16:19:54.004Z</time></trkpt><trkpt lat="45.4493354" lon="10.8129236"><ele>171.0</ele><time>2026-05-03T16:19:55.004Z</time></trkpt><trkpt lat="45.449308" lon="10.8130378"><ele>171.0</ele><time>2026-05-03T16:19:56.003Z</time></trkpt><trkpt lat="45.4492736" lon="10.8131518"><ele>172.16666666666666</ele><time>2026-05-03T16:19:57.01Z</time></trkpt><trkpt lat="45.4492339" lon="10.8132651"><ele>173.33333333333334</ele><time>2026-05-03T16:19:58.003Z</time></trkpt><trkpt lat="45.4491915" lon="10.8133783"><ele>174.5</ele><time>2026-05-03T16:19:58.999Z</time></trkpt><trkpt lat="45.449148" lon="10.8134887"><ele>175.66666666666669</ele><time>2026-05-03T16:20:00.007Z</time></trkpt><trkpt lat="45.4491053" lon="10.8135981"><ele>176.83333333333334</ele><time>2026-05-03T16:20:01.011Z</time></trkpt><trkpt lat="45.4490629" lon="10.8137093"><ele>178.0</ele><time>2026-05-03T16:20:02.006Z</time></trkpt><trkpt lat="45.4490217" lon="10.8138216"><ele>179.33333333333334</ele><time>2026-05-03T16:20:03.008Z</time></trkpt><trkpt lat="45.4489855" lon="10.8139379"><ele>180.66666666666669</ele><time>2026-05-03T16:20:04.028Z</time></trkpt><trkpt lat="45.4489581" lon="10.8140601"><ele>182.0</ele><time>2026-05-03T16:20:05.012Z</time></trkpt><trkpt lat="45.4489424" lon="10.8141865"><ele>183.33333333333334</ele><time>2026-05-03T16:20:06.003Z</time></trkpt><trkpt lat="45.4489354" lon="10.8143124"><ele>184.66666666666666</ele><time>2026-05-03T16:20:07.007Z</time></trkpt><trkpt lat="45.448944" lon="10.8144335"><ele>186.0</ele><time>2026-05-03T16:20:08.017Z</time></trkpt><trkpt lat="45.4489603" lon="10.8145472"><ele>186.0</ele><time>2026-05-03T16:20:09.007Z</time></trkpt><trkpt lat="45.4489979" lon="10.8146479"><ele>186.0</ele><time>2026-05-03T16:20:10.015Z</time></trkpt><trkpt lat="45.449036" lon="10.814744"><ele>186.0</ele><time>2026-05-03T16:20:11.021Z</time></trkpt><trkpt lat="45.4490789" lon="10.8148349"><ele>186.0</ele><time>2026-05-03T16:20:12.016Z</time></trkpt><trkpt lat="45.4491248" lon="10.8149236"><ele>186.0</ele><time>2026-05-03T16:20:13.011Z</time></trkpt><trkpt lat="45.4491699" lon="10.8150104"><ele>186.0</ele><time>2026-05-03T16:20:14.012Z</time></trkpt><trkpt lat="45.4492192" lon="10.8150932"><ele>184.5</ele><time>2026-05-03T16:20:15.022Z</time></trkpt><trkpt lat="45.4492696" lon="10.8151761"><ele>183.0</ele><time>2026-05-03T16:20:16.01Z</time></trkpt><trkpt lat="45.4493233" lon="10.8152627"><ele>181.5</ele><time>2026-05-03T16:20:17.005Z</time></trkpt><trkpt lat="45.4493754" lon="10.8153485"><ele>180.0</ele><time>2026-05-03T16:20:18.015Z</time></trkpt><trkpt lat="45.4494354" lon="10.8154263"><ele>178.5</ele><time>2026-05-03T16:20:19.028Z</time></trkpt><trkpt lat="45.4494976" lon="10.8155039"><ele>177.0</ele><time>2026-05-03T16:20:20.012Z</time></trkpt><trkpt lat="45.4495626" lon="10.8155791"><ele>177.0</ele><time>2026-05-03T16:20:21.007Z</time></trkpt><trkpt lat="45.4496287" lon="10.815652"><ele>177.0</ele><time>2026-05-03T16:20:22.021Z</time></trkpt><trkpt lat="45.4496952" lon="10.8157204"><ele>177.0</ele><time>2026-05-03T16:20:23.008Z</time></trkpt><trkpt lat="45.4497596" lon="10.815786"><ele>177.0</ele><time>2026-05-03T16:20:24.012Z</time></trkpt><trkpt lat="45.4498202" lon="10.8158495"><ele>177.0</ele><time>2026-05-03T16:20:25.01Z</time></trkpt><trkpt lat="45.4498806" lon="10.815904"><ele>177.0</ele><time>2026-05-03T16:20:26.033Z</time></trkpt><trkpt lat="45.449937" lon="10.8159509"><ele>175.8</ele><time>2026-05-03T16:20:27.02Z</time></trkpt><trkpt lat="45.4500299" lon="10.8160182"><ele>174.6</ele><time>2026-05-03T16:20:29.007Z</time></trkpt><trkpt lat="45.4500448" lon="10.8161119"><ele>173.4</ele><time>2026-05-03T16:20:31.023Z</time></trkpt><trkpt lat="45.449965" lon="10.8161602"><ele>172.20000000000002</ele><time>2026-05-03T16:20:33.018Z</time></trkpt><trkpt lat="45.4498431" lon="10.8162122"><ele>171.0</ele><time>2026-05-03T16:20:35.007Z</time></trkpt><trkpt lat="45.4497762" lon="10.8162416"><ele>171.0</ele><time>2026-05-03T16:20:36.012Z</time></trkpt><trkpt lat="45.449709" lon="10.816271"><ele>171.0</ele><time>2026-05-03T16:20:37.014Z</time></trkpt><trkpt lat="45.4496432" lon="10.816296"><ele>171.0</ele><time>2026-05-03T16:20:38.009Z</time></trkpt><trkpt lat="45.4495789" lon="10.8163225"><ele>171.0</ele><time>2026-05-03T16:20:39.007Z</time></trkpt><trkpt lat="45.4494985" lon="10.8164265"><ele>171.0</ele><time>2026-05-03T16:20:41.009Z</time></trkpt><trkpt lat="45.449507" lon="10.8166029"><ele>171.0</ele><time>2026-05-03T16:20:43.017Z</time></trkpt><trkpt lat="45.4495304" lon="10.816711"><ele>171.33333333333334</ele><time>2026-05-03T16:20:44.008Z</time></trkpt><trkpt lat="45.4495546" lon="10.816826"><ele>171.66666666666666</ele><time>2026-05-03T16:20:45.008Z</time></trkpt><trkpt lat="45.449581" lon="10.816941"><ele>172.0</ele><time>2026-05-03T16:20:46.009Z</time></trkpt><trkpt lat="45.4496037" lon="10.8170536"><ele>172.33333333333331</ele><time>2026-05-03T16:20:47.016Z</time></trkpt><trkpt lat="45.4496283" lon="10.817161"><ele>172.66666666666666</ele><time>2026-05-03T16:20:48.004Z</time></trkpt><trkpt lat="45.4496502" lon="10.8172661"><ele>173.0</ele><time>2026-05-03T16:20:49.003Z</time></trkpt><trkpt lat="45.4496711" lon="10.8173641"><ele>173.0</ele><time>2026-05-03T16:20:50.005Z</time></trkpt><trkpt lat="45.449692" lon="10.8174547"><ele>173.0</ele><time>2026-05-03T16:20:51.008Z</time></trkpt><trkpt lat="45.4497309" lon="10.8175968"><ele>173.0</ele><time>2026-05-03T16:20:53.003Z</time></trkpt><trkpt lat="45.4497424" lon="10.8177096"><ele>173.0</ele><time>2026-05-03T16:20:55.019Z</time></trkpt><trkpt lat="45.4497109" lon="10.8177956"><ele>173.0</ele><time>2026-05-03T16:20:57.015Z</time></trkpt><trkpt lat="45.4496565" lon="10.817864"><ele>173.0</ele><time>2026-05-03T16:20:59.007Z</time></trkpt><trkpt lat="45.4495862" lon="10.817929"><ele>171.66666666666666</ele><time>2026-05-03T16:21:01.009Z</time></trkpt><trkpt lat="45.4495112" lon="10.8179767"><ele>170.33333333333331</ele><time>2026-05-03T16:21:03.003Z</time></trkpt><trkpt lat="45.4494375" lon="10.8179817"><ele>169.0</ele><time>2026-05-03T16:21:05.008Z</time></trkpt><trkpt lat="45.4493736" lon="10.8179903"><ele>167.66666666666666</ele><time>2026-05-03T16:21:07.008Z</time></trkpt><trkpt lat="45.4493122" lon="10.8180119"><ele>166.33333333333334</ele><time>2026-05-03T16:21:09.01Z</time></trkpt><trkpt lat="45.4492263" lon="10.8180568"><ele>165.0</ele><time>2026-05-03T16:21:12.007Z</time></trkpt><trkpt lat="45.4491458" lon="10.8180819"><ele>165.0</ele><time>2026-05-03T16:21:15.007Z</time></trkpt><trkpt lat="45.4490746" lon="10.8181194"><ele>165.0</ele><time>2026-05-03T16:21:19.021Z</time></trkpt><trkpt lat="45.4491491" lon="10.8181099"><ele>165.0</ele><time>2026-05-03T16:21:49.008Z</time></trkpt><trkpt lat="45.4492335" lon="10.8180576"><ele>165.0</ele><time>2026-05-03T16:21:52.014Z</time></trkpt><trkpt lat="45.4493008" lon="10.818022"><ele>165.0</ele><time>2026-05-03T16:21:54.007Z</time></trkpt><trkpt lat="45.449369" lon="10.8179971"><ele>165.0</ele><time>2026-05-03T16:21:56.005Z</time></trkpt><trkpt lat="45.4494366" lon="10.8180127"><ele>165.0</ele><time>2026-05-03T16:21:58.006Z</time></trkpt><trkpt lat="45.4495031" lon="10.8179842"><ele>165.0</ele><time>2026-05-03T16:22:00.003Z</time></trkpt><trkpt lat="45.4495793" lon="10.8179361"><ele>165.0</ele><time>2026-05-03T16:22:02.008Z</time></trkpt><trkpt lat="45.4496599" lon="10.8178774"><ele>165.0</ele><time>2026-05-03T16:22:04.008Z</time></trkpt><trkpt lat="45.4497327" lon="10.8178272"><ele>165.0</ele><time>2026-05-03T16:22:06.021Z</time></trkpt><trkpt lat="45.4497952" lon="10.8177926"><ele>165.0</ele><time>2026-05-03T16:22:10.009Z</time></trkpt><trkpt lat="45.4497251" lon="10.8177764"><ele>165.0</ele><time>2026-05-03T16:22:14.009Z</time></trkpt><trkpt lat="45.4496418" lon="10.8178652"><ele>165.0</ele><time>2026-05-03T16:22:16.01Z</time></trkpt><trkpt lat="45.4495483" lon="10.8179446"><ele>165.0</ele><time>2026-05-03T16:22:18.016Z</time></trkpt><trkpt lat="45.4494486" lon="10.8179865"><ele>165.0</ele><time>2026-05-03T16:22:20.003Z</time></trkpt><trkpt lat="45.4493494" lon="10.8180103"><ele>165.0</ele><time>2026-05-03T16:22:22.001Z</time></trkpt><trkpt lat="45.4492596" lon="10.818047"><ele>165.0</ele><time>2026-05-03T16:22:24.004Z</time></trkpt><trkpt lat="45.4491848" lon="10.8180809"><ele>165.0</ele><time>2026-05-03T16:22:26.007Z</time></trkpt><trkpt lat="45.4491197" lon="10.8181065"><ele>165.0</ele><time>2026-05-03T16:22:28.009Z</time></trkpt><trkpt lat="45.4490512" lon="10.8181457"><ele>165.0</ele><time>2026-05-03T16:22:31.012Z</time></trkpt><trkpt lat="45.4489982" lon="10.8182066"><ele>165.0</ele><time>2026-05-03T16:22:46.029Z</time></trkpt></trkseg></trk></gpx>